Provisional Data: Starrucca Creek near Stevens Point, PA


Please select a monitoring station.
Please select start date.
Please select start date.

Toggle Unit: C/F Toggle Unit: C/F
Sample Time Temperature (C) Temperature (F) Specific Conductivity (mS/cm) pH   Turbidity (NTU+) DO (mg/L)
10/26/2020 12:00:00 AM -99999.99 -179968 -99999.99 -99999.99 -99999.99 -99999.99
10/26/2020 12:15:00 AM -99999.99 -179968 -99999.99 -99999.99 -99999.99 -99999.99
10/26/2020 12:30:00 AM -99999.99 -179968 -99999.99 -99999.99 -99999.99 -99999.99
10/26/2020 12:45:00 AM -99999.99 -179968 -99999.99 -99999.99 -99999.99 -99999.99
10/26/2020 1:00:00 AM -99999.99 -179968 -99999.99 -99999.99 -99999.99 -99999.99
10/26/2020 1:15:00 AM -99999.99 -179968 -99999.99 -99999.99 -99999.99 -99999.99
10/26/2020 1:30:00 AM -99999.99 -179968 -99999.99 -99999.99 -99999.99 -99999.99
10/26/2020 1:45:00 AM -99999.99 -179968 -99999.99 -99999.99 -99999.99 -99999.99
10/26/2020 2:00:00 AM -99999.99 -179968 -99999.99 -99999.99 -99999.99 -99999.99
10/26/2020 2:15:00 AM -99999.99 -179968 -99999.99 -99999.99 -99999.99 -99999.99
10/26/2020 2:30:00 AM -99999.99 -179968 -99999.99 -99999.99 -99999.99 -99999.99
10/26/2020 2:45:00 AM -99999.99 -179968 -99999.99 -99999.99 -99999.99 -99999.99
10/26/2020 3:00:00 AM -99999.99 -179968 -99999.99 -99999.99 -99999.99 -99999.99
10/26/2020 3:15:00 AM -99999.99 -179968 -99999.99 -99999.99 -99999.99 -99999.99
10/26/2020 3:30:00 AM -99999.99 -179968 -99999.99 -99999.99 -99999.99 -99999.99
10/26/2020 3:45:00 AM -99999.99 -179968 -99999.99 -99999.99 -99999.99 -99999.99
10/26/2020 4:00:00 AM -99999.99 -179968 -99999.99 -99999.99 -99999.99 -99999.99
10/26/2020 4:15:00 AM -99999.99 -179968 -99999.99 -99999.99 -99999.99 -99999.99
10/26/2020 4:30:00 AM -99999.99 -179968 -99999.99 -99999.99 -99999.99 -99999.99
10/26/2020 4:45:00 AM -99999.99 -179968 -99999.99 -99999.99 -99999.99 -99999.99
10/26/2020 5:00:00 AM -99999.99 -179968 -99999.99 -99999.99 -99999.99 -99999.99
10/26/2020 5:15:00 AM -99999.99 -179968 -99999.99 -99999.99 -99999.99 -99999.99
10/26/2020 5:30:00 AM -99999.99 -179968 -99999.99 -99999.99 -99999.99 -99999.99
10/26/2020 5:45:00 AM -99999.99 -179968 -99999.99 -99999.99 -99999.99 -99999.99
10/26/2020 6:00:00 AM -99999.99 -179968 -99999.99 -99999.99 -99999.99 -99999.99
10/26/2020 6:15:00 AM -99999.99 -179968 -99999.99 -99999.99 -99999.99 -99999.99
10/26/2020 6:30:00 AM -99999.99 -179968 -99999.99 -99999.99 -99999.99 -99999.99
10/26/2020 6:45:00 AM -99999.99 -179968 -99999.99 -99999.99 -99999.99 -99999.99
10/26/2020 7:00:00 AM -99999.99 -179968 -99999.99 -99999.99 -99999.99 -99999.99
10/26/2020 7:15:00 AM -99999.99 -179968 -99999.99 -99999.99 -99999.99 -99999.99
10/26/2020 7:30:00 AM -99999.99 -179968 -99999.99 -99999.99 -99999.99 -99999.99
10/26/2020 7:45:00 AM -99999.99 -179968 -99999.99 -99999.99 -99999.99 -99999.99
10/26/2020 8:00:00 AM -99999.99 -179968 -99999.99 -99999.99 -99999.99 -99999.99
10/26/2020 8:15:00 AM -99999.99 -179968 -99999.99 -99999.99 -99999.99 -99999.99
10/26/2020 8:30:00 AM -99999.99 -179968 -99999.99 -99999.99 -99999.99 -99999.99
10/26/2020 8:45:00 AM -99999.99 -179968 -99999.99 -99999.99 -99999.99 -99999.99
10/26/2020 9:00:00 AM -99999.99 -179968 -99999.99 -99999.99 -99999.99 -99999.99
10/26/2020 9:15:00 AM -99999.99 -179968 -99999.99 -99999.99 -99999.99 -99999.99
10/26/2020 9:30:00 AM -99999.99 -179968 -99999.99 -99999.99 -99999.99 -99999.99
10/26/2020 9:45:00 AM -99999.99 -179968 -99999.99 -99999.99 -99999.99 -99999.99
10/26/2020 10:00:00 AM -99999.99 -179968 -99999.99 -99999.99 -99999.99 -99999.99
10/26/2020 10:15:00 AM -99999.99 -179968 -99999.99 -99999.99 -99999.99 -99999.99
10/26/2020 10:30:00 AM -99999.99 -179968 -99999.99 -99999.99 -99999.99 -99999.99
10/26/2020 10:45:00 AM -99999.99 -179968 -99999.99 -99999.99 -99999.99 -99999.99
10/26/2020 11:00:00 AM -99999.99 -179968 -99999.99 -99999.99 -99999.99 -99999.99
10/26/2020 11:15:00 AM -99999.99 -179968 -99999.99 -99999.99 -99999.99 -99999.99
10/26/2020 11:30:00 AM -99999.99 -179968 -99999.99 -99999.99 -99999.99 -99999.99
10/26/2020 11:45:00 AM -99999.99 -179968 -99999.99 -99999.99 -99999.99 -99999.99
10/26/2020 12:00:00 PM -99999.99 -179968 -99999.99 -99999.99 -99999.99 -99999.99
10/26/2020 12:15:00 PM -99999.99 -179968 -99999.99 -99999.99 -99999.99 -99999.99
10/26/2020 12:30:00 PM -99999.99 -179968 -99999.99 -99999.99 -99999.99 -99999.99
10/26/2020 12:45:00 PM -99999.99 -179968 -99999.99 -99999.99 -99999.99 -99999.99
10/26/2020 1:00:00 PM -99999.99 -179968 -99999.99 -99999.99 -99999.99 -99999.99
10/26/2020 1:15:00 PM 9.5 49.1 0.112 7.12 2.72 11.28
10/26/2020 1:30:00 PM 9.64 49.352 0.111 7.06 2.7 11.33
10/26/2020 1:45:00 PM 9.76 49.568 0.111 7.06 2.26 11.25
10/26/2020 2:00:00 PM 9.88 49.784 0.111 7.2 2.22 11.46
10/26/2020 2:15:00 PM -99999.99 -179968 -99999.99 -99999.99 -99999.99 -99999.99
10/26/2020 2:30:00 PM -99999.99 -179968 -99999.99 -99999.99 -99999.99 -99999.99
10/26/2020 2:45:00 PM -99999.99 -179968 -99999.99 -99999.99 -99999.99 -99999.99
10/26/2020 3:00:00 PM -99999.99 -179968 -99999.99 -99999.99 -99999.99 -99999.99
10/26/2020 3:15:00 PM -99999.99 -179968 -99999.99 -99999.99 -99999.99 -99999.99
10/26/2020 3:30:00 PM -99999.99 -179968 -99999.99 -99999.99 -99999.99 -99999.99
10/26/2020 3:45:00 PM -99999.99 -179968 -99999.99 -99999.99 -99999.99 -99999.99
10/26/2020 4:00:00 PM -99999.99 -179968 -99999.99 -99999.99 -99999.99 -99999.99
10/26/2020 4:15:00 PM -99999.99 -179968 -99999.99 -99999.99 -99999.99 -99999.99
10/26/2020 4:30:00 PM -99999.99 -179968 -99999.99 -99999.99 -99999.99 -99999.99
10/26/2020 4:45:00 PM -99999.99 -179968 -99999.99 -99999.99 -99999.99 -99999.99
10/26/2020 5:00:00 PM -99999.99 -179968 -99999.99 -99999.99 -99999.99 -99999.99
10/26/2020 5:15:00 PM -99999.99 -179968 -99999.99 -99999.99 -99999.99 -99999.99
10/26/2020 5:30:00 PM -99999.99 -179968 -99999.99 -99999.99 -99999.99 -99999.99
10/26/2020 5:45:00 PM -99999.99 -179968 -99999.99 -99999.99 -99999.99 -99999.99
10/26/2020 6:00:00 PM -99999.99 -179968 -99999.99 -99999.99 -99999.99 -99999.99
10/26/2020 6:15:00 PM -99999.99 -179968 -99999.99 -99999.99 -99999.99 -99999.99
10/26/2020 6:30:00 PM -99999.99 -179968 -99999.99 -99999.99 -99999.99 -99999.99
10/26/2020 6:45:00 PM -99999.99 -179968 -99999.99 -99999.99 -99999.99 -99999.99
10/26/2020 7:00:00 PM -99999.99 -179968 -99999.99 -99999.99 -99999.99 -99999.99
10/26/2020 7:15:00 PM -99999.99 -179968 -99999.99 -99999.99 -99999.99 -99999.99
10/26/2020 7:30:00 PM -99999.99 -179968 -99999.99 -99999.99 -99999.99 -99999.99
10/26/2020 7:45:00 PM -99999.99 -179968 -99999.99 -99999.99 -99999.99 -99999.99
10/26/2020 8:00:00 PM -99999.99 -179968 -99999.99 -99999.99 -99999.99 -99999.99
10/26/2020 8:15:00 PM -99999.99 -179968 -99999.99 -99999.99 -99999.99 -99999.99
10/26/2020 8:30:00 PM -99999.99 -179968 -99999.99 -99999.99 -99999.99 -99999.99
10/26/2020 8:45:00 PM -99999.99 -179968 -99999.99 -99999.99 -99999.99 -99999.99
10/26/2020 9:00:00 PM -99999.99 -179968 -99999.99 -99999.99 -99999.99 -99999.99
10/26/2020 9:15:00 PM -99999.99 -179968 -99999.99 -99999.99 -99999.99 -99999.99
10/26/2020 9:30:00 PM -99999.99 -179968 -99999.99 -99999.99 -99999.99 -99999.99
10/26/2020 9:45:00 PM -99999.99 -179968 -99999.99 -99999.99 -99999.99 -99999.99
10/26/2020 10:00:00 PM -99999.99 -179968 -99999.99 -99999.99 -99999.99 -99999.99
10/26/2020 10:15:00 PM -99999.99 -179968 -99999.99 -99999.99 -99999.99 -99999.99
10/26/2020 10:30:00 PM -99999.99 -179968 -99999.99 -99999.99 -99999.99 -99999.99
10/26/2020 10:45:00 PM -99999.99 -179968 -99999.99 -99999.99 -99999.99 -99999.99
10/26/2020 11:00:00 PM -99999.99 -179968 -99999.99 -99999.99 -99999.99 -99999.99
10/26/2020 11:15:00 PM -99999.99 -179968 -99999.99 -99999.99 -99999.99 -99999.99
10/26/2020 11:30:00 PM -99999.99 -179968 -99999.99 -99999.99 -99999.99 -99999.99
10/26/2020 11:45:00 PM -99999.99 -179968 -99999.99 -99999.99 -99999.99 -99999.99
10/27/2020 12:00:00 AM -99999.99 -179968 -99999.99 -99999.99 -99999.99 -99999.99
10/27/2020 12:15:00 AM -99999.99 -179968 -99999.99 -99999.99 -99999.99 -99999.99
10/27/2020 12:30:00 AM -99999.99 -179968 -99999.99 -99999.99 -99999.99 -99999.99
10/27/2020 12:45:00 AM -99999.99 -179968 -99999.99 -99999.99 -99999.99 -99999.99
10/27/2020 1:00:00 AM -99999.99 -179968 -99999.99 -99999.99 -99999.99 -99999.99
10/27/2020 1:15:00 AM -99999.99 -179968 -99999.99 -99999.99 -99999.99 -99999.99
10/27/2020 1:30:00 AM -99999.99 -179968 -99999.99 -99999.99 -99999.99 -99999.99
10/27/2020 1:45:00 AM -99999.99 -179968 -99999.99 -99999.99 -99999.99 -99999.99
10/27/2020 2:00:00 AM -99999.99 -179968 -99999.99 -99999.99 -99999.99 -99999.99
10/27/2020 2:15:00 AM -99999.99 -179968 -99999.99 -99999.99 -99999.99 -99999.99
10/27/2020 2:30:00 AM -99999.99 -179968 -99999.99 -99999.99 -99999.99 -99999.99
10/27/2020 2:45:00 AM -99999.99 -179968 -99999.99 -99999.99 -99999.99 -99999.99
10/27/2020 3:00:00 AM -99999.99 -179968 -99999.99 -99999.99 -99999.99 -99999.99
10/27/2020 3:15:00 AM -99999.99 -179968 -99999.99 -99999.99 -99999.99 -99999.99
10/27/2020 3:30:00 AM -99999.99 -179968 -99999.99 -99999.99 -99999.99 -99999.99
10/27/2020 3:45:00 AM -99999.99 -179968 -99999.99 -99999.99 -99999.99 -99999.99
10/27/2020 4:00:00 AM -99999.99 -179968 -99999.99 -99999.99 -99999.99 -99999.99
10/27/2020 4:15:00 AM -99999.99 -179968 -99999.99 -99999.99 -99999.99 -99999.99
10/27/2020 4:30:00 AM -99999.99 -179968 -99999.99 -99999.99 -99999.99 -99999.99
10/27/2020 4:45:00 AM -99999.99 -179968 -99999.99 -99999.99 -99999.99 -99999.99
10/27/2020 5:00:00 AM -99999.99 -179968 -99999.99 -99999.99 -99999.99 -99999.99
10/27/2020 5:15:00 AM -99999.99 -179968 -99999.99 -99999.99 -99999.99 -99999.99
10/27/2020 5:30:00 AM -99999.99 -179968 -99999.99 -99999.99 -99999.99 -99999.99
10/27/2020 5:45:00 AM -99999.99 -179968 -99999.99 -99999.99 -99999.99 -99999.99
10/27/2020 6:00:00 AM -99999.99 -179968 -99999.99 -99999.99 -99999.99 -99999.99
10/27/2020 6:15:00 AM -99999.99 -179968 -99999.99 -99999.99 -99999.99 -99999.99
10/27/2020 6:30:00 AM -99999.99 -179968 -99999.99 -99999.99 -99999.99 -99999.99
10/27/2020 6:45:00 AM -99999.99 -179968 -99999.99 -99999.99 -99999.99 -99999.99
10/27/2020 7:00:00 AM -99999.99 -179968 -99999.99 -99999.99 -99999.99 -99999.99
10/27/2020 7:15:00 AM -99999.99 -179968 -99999.99 -99999.99 -99999.99 -99999.99
10/27/2020 7:30:00 AM -99999.99 -179968 -99999.99 -99999.99 -99999.99 -99999.99
10/27/2020 7:45:00 AM -99999.99 -179968 -99999.99 -99999.99 -99999.99 -99999.99
10/27/2020 8:00:00 AM -99999.99 -179968 -99999.99 -99999.99 -99999.99 -99999.99
10/27/2020 8:15:00 AM -99999.99 -179968 -99999.99 -99999.99 -99999.99 -99999.99
10/27/2020 8:30:00 AM -99999.99 -179968 -99999.99 -99999.99 -99999.99 -99999.99
10/27/2020 8:45:00 AM -99999.99 -179968 -99999.99 -99999.99 -99999.99 -99999.99
10/27/2020 9:00:00 AM -99999.99 -179968 -99999.99 -99999.99 -99999.99 -99999.99
10/27/2020 9:15:00 AM -99999.99 -179968 -99999.99 -99999.99 -99999.99 -99999.99
10/27/2020 9:30:00 AM -99999.99 -179968 -99999.99 -99999.99 -99999.99 -99999.99
10/27/2020 9:45:00 AM 9.68 49.424 0.123 7.37 4.96 10.94
10/27/2020 10:00:00 AM 9.71 49.478 0.114 7.6 1.39 11.14
10/27/2020 10:15:00 AM 9.75 49.55 0.113 7.56 1.33 11.25
10/27/2020 10:30:00 AM 9.85 49.73 0.111 7.58 1.39 11.4
10/27/2020 10:45:00 AM 9.9 49.82 0.111 7.61 1.33 11.47
10/27/2020 11:00:00 AM 9.94 49.892 0.111 7.6 1.31 11.44
10/27/2020 11:15:00 AM 10.01 50.018 0.112 7.61 1.42 11.51
10/27/2020 11:30:00 AM 10.08 50.144 0.112 7.63 1.36 11.57
10/27/2020 11:45:00 AM 10.14 50.252 0.111 7.63 1.36 11.6
10/27/2020 12:00:00 PM 10.23 50.414 0.111 7.63 1.34 11.62
10/27/2020 12:15:00 PM 10.33 50.594 0.111 7.67 1.61 11.66
10/27/2020 12:30:00 PM 10.37 50.666 0.11 7.65 1.32 11.67
10/27/2020 12:45:00 PM 10.46 50.828 0.11 7.67 1.34 11.67
10/27/2020 1:00:00 PM 10.56 51.008 0.109 7.7 1.29 11.71
10/27/2020 1:15:00 PM 10.64 51.152 0.109 7.71 1.29 11.73
10/27/2020 1:30:00 PM 10.73 51.314 0.109 7.72 1.41 11.71
10/27/2020 1:45:00 PM 10.78 51.404 0.109 7.63 1.33 11.69
10/27/2020 2:00:00 PM 10.83 51.494 0.109 7.78 1.32 11.72
10/27/2020 2:15:00 PM 10.84 51.512 0.109 7.75 1.33 11.62
10/27/2020 2:30:00 PM 10.87 51.566 0.109 7.75 1.35 11.63
10/27/2020 2:45:00 PM 10.9 51.62 0.104 7.71 4.06 11.63
10/27/2020 3:00:00 PM 10.93 51.674 0.108 7.79 1.28 11.57
10/27/2020 3:15:00 PM 10.95 51.71 0.109 7.61 1.29 11.53
10/27/2020 3:30:00 PM 10.98 51.764 0.107 7.79 1.28 11.45
10/27/2020 3:45:00 PM 10.98 51.764 0.108 7.77 1.25 11.38
10/27/2020 4:00:00 PM 10.95 51.71 0.108 7.75 1.3 11.28
10/27/2020 4:15:00 PM 10.92 51.656 0.108 7.74 1.27 11.21
10/27/2020 4:30:00 PM 10.9 51.62 0.108 7.74 1.38 11.16
10/27/2020 4:45:00 PM 10.88 51.584 0.107 7.71 1.34 11.08
10/27/2020 5:00:00 PM 10.87 51.566 0.107 7.69 1.36 11.01
10/27/2020 5:15:00 PM 10.85 51.53 0.107 7.67 1.34 10.93
10/27/2020 5:30:00 PM 10.83 51.494 0.107 7.65 1.39 10.85
10/27/2020 5:45:00 PM 10.8 51.44 0.107 7.61 1.42 10.75
10/27/2020 6:00:00 PM 10.78 51.404 0.107 7.59 1.43 10.67
10/27/2020 6:15:00 PM 10.74 51.332 0.108 7.57 1.31 10.59
10/27/2020 6:30:00 PM 10.71 51.278 0.108 7.54 1.39 10.52
10/27/2020 6:45:00 PM 10.68 51.224 0.108 7.52 1.4 10.46
10/27/2020 7:00:00 PM 10.64 51.152 0.113 7.33 1.39 10.44
10/27/2020 7:15:00 PM 10.61 51.098 0.109 7.38 1.34 10.39
10/27/2020 7:30:00 PM 10.58 51.044 0.108 7.48 1.94 10.38
10/27/2020 7:45:00 PM 10.54 50.972 0.109 7.45 1.39 10.35
10/27/2020 8:00:00 PM 10.5 50.9 0.109 7.43 1.37 10.33
10/27/2020 8:15:00 PM 10.48 50.864 0.109 7.42 1.34 10.3
10/27/2020 8:30:00 PM 10.44 50.792 0.109 7.4 1.43 10.29
10/27/2020 8:45:00 PM 10.4 50.72 0.114 7.22 1.38 10.3
10/27/2020 9:00:00 PM 10.36 50.648 0.109 7.37 1.34 10.24
10/27/2020 9:15:00 PM 10.32 50.576 0.112 7.24 1.33 10.25
10/27/2020 9:30:00 PM 10.27 50.486 0.11 7.36 1.39 10.28
10/27/2020 9:45:00 PM 10.24 50.432 0.111 7.34 1.89 10.25
10/27/2020 10:00:00 PM 10.2 50.36 0.112 7.35 2.35 10.28
10/27/2020 10:15:00 PM 10.17 50.306 0.112 7.32 1.67 10.24
10/27/2020 10:30:00 PM 10.14 50.252 0.112 7.31 1.42 10.25
10/27/2020 10:45:00 PM 10.11 50.198 0.112 7.32 1.43 10.26
10/27/2020 11:00:00 PM 10.07 50.126 0.112 7.32 1.38 10.3
10/27/2020 11:15:00 PM 10.04 50.072 0.112 7.32 1.31 10.32
10/27/2020 11:30:00 PM 10.01 50.018 0.113 7.3 1.37 10.29
10/27/2020 11:45:00 PM 9.97 49.946 0.113 7.31 1.34 10.32
10/28/2020 12:00:00 AM 9.94 49.892 0.113 7.28 1.36 10.3
10/28/2020 12:15:00 AM 9.91 49.838 0.113 7.28 1.28 10.31
10/28/2020 12:30:00 AM 9.89 49.802 0.113 7.28 1.54 10.31
10/28/2020 12:45:00 AM 9.87 49.766 0.114 7.28 1.33 10.32
10/28/2020 1:00:00 AM 9.85 49.73 0.114 7.27 1.32 10.37
10/28/2020 1:15:00 AM 9.83 49.694 0.113 7.28 1.36 10.35
10/28/2020 1:30:00 AM 9.81 49.658 0.113 7.27 1.34 10.33
10/28/2020 1:45:00 AM 9.79 49.622 0.113 7.27 1.29 10.34
10/28/2020 2:00:00 AM 9.77 49.586 0.114 7.25 1.35 10.33
10/28/2020 2:15:00 AM 9.75 49.55 0.114 7.25 1.4 10.36
10/28/2020 2:30:00 AM 9.73 49.514 0.113 7.27 1.53 10.39
10/28/2020 2:45:00 AM 9.7 49.46 0.113 7.22 1.37 10.44
10/28/2020 3:00:00 AM 9.68 49.424 0.113 7.13 1.44 10.38
10/28/2020 3:15:00 AM 9.67 49.406 0.113 7.27 1.36 10.42
10/28/2020 3:30:00 AM 9.65 49.37 0.113 7.15 1.34 10.44
10/28/2020 3:45:00 AM 9.63 49.334 0.113 7.27 1.39 10.43
10/28/2020 4:00:00 AM 9.61 49.298 0.113 7.1 1.55 10.42
10/28/2020 4:15:00 AM 9.6 49.28 0.113 7.27 1.45 10.44
10/28/2020 4:30:00 AM 9.58 49.244 0.113 7.25 1.46 10.45
10/28/2020 4:45:00 AM 9.56 49.208 0.112 7.24 1.39 10.43
10/28/2020 5:00:00 AM 9.54 49.172 0.112 7.13 1.38 10.43
10/28/2020 5:15:00 AM 9.52 49.136 0.112 7.25 1.44 10.47
10/28/2020 5:30:00 AM 9.5 49.1 0.112 7.25 1.45 10.49
10/28/2020 5:45:00 AM 9.47 49.046 0.112 7.14 1.45 10.5
10/28/2020 6:00:00 AM 9.46 49.028 0.112 7.26 2.09 10.51
10/28/2020 6:15:00 AM 9.44 48.992 0.112 7.1 1.6 10.53
10/28/2020 6:30:00 AM 9.42 48.956 0.112 7.27 2.07 10.54
10/28/2020 6:45:00 AM 9.4 48.92 0.111 7.25 1.92 10.56
10/28/2020 7:00:00 AM 9.39 48.902 0.111 7.25 2.24 10.56
10/28/2020 7:15:00 AM 9.37 48.866 0.111 7.26 2.19 10.56
10/28/2020 7:30:00 AM 9.36 48.848 0.111 7.26 2.21 10.58
10/28/2020 7:45:00 AM 9.35 48.83 0.111 7.26 2.13 10.58
10/28/2020 8:00:00 AM 9.34 48.812 0.11 7.27 2.23 10.58
10/28/2020 8:15:00 AM 9.33 48.794 0.11 7.25 2.33 10.57
10/28/2020 8:30:00 AM 9.33 48.794 0.11 7.25 2.16 10.6
10/28/2020 8:45:00 AM 9.33 48.794 0.11 7.25 2.12 10.62
10/28/2020 9:00:00 AM 9.33 48.794 0.11 7.25 2.06 10.63
10/28/2020 9:15:00 AM 9.32 48.776 0.109 7.26 1.94 10.7
10/28/2020 9:30:00 AM 9.32 48.776 0.109 7.26 1.85 10.76
10/28/2020 9:45:00 AM 9.33 48.794 0.108 7.23 1.9 10.83
10/28/2020 10:00:00 AM 9.35 48.83 0.108 7.28 1.88 10.95
10/28/2020 10:15:00 AM 9.38 48.884 0.108 7.31 1.89 11.09
10/28/2020 10:30:00 AM 9.41 48.938 0.108 7.31 1.81 11.13
10/28/2020 10:45:00 AM 9.44 48.992 0.108 7.33 2.09 11.16
10/28/2020 11:00:00 AM 9.46 49.028 0.108 7.26 2.7 11.17
10/28/2020 11:15:00 AM 9.46 49.028 0.109 7.35 2.05 11.18
10/28/2020 11:30:00 AM 9.48 49.064 0.108 7.36 2.03 11.24
10/28/2020 11:45:00 AM 9.52 49.136 0.108 7.38 2.07 11.32
10/28/2020 12:00:00 PM 9.57 49.226 0.108 7.41 2.68 11.4
10/28/2020 12:15:00 PM 9.62 49.316 0.108 7.42 2.14 11.45
10/28/2020 12:30:00 PM 9.65 49.37 0.107 7.43 2.27 11.44
10/28/2020 12:45:00 PM 9.66 49.388 0.107 7.43 2.36 11.39
10/28/2020 1:00:00 PM 9.69 49.442 0.107 7.44 2.68 11.37
10/28/2020 1:15:00 PM 9.72 49.496 0.107 7.45 2.74 11.4
10/28/2020 1:30:00 PM 9.77 49.586 0.107 7.47 2.62 11.44
10/28/2020 1:45:00 PM 9.83 49.694 0.106 7.46 2.59 11.48
10/28/2020 2:00:00 PM 9.89 49.802 0.106 7.5 2.32 11.49
10/28/2020 2:15:00 PM 9.95 49.91 0.106 7.51 2.31 11.49
10/28/2020 2:30:00 PM 10.02 50.036 0.106 7.52 2.81 11.51
10/28/2020 2:45:00 PM 10.08 50.144 0.106 7.54 2.62 11.52
10/28/2020 3:00:00 PM 10.13 50.234 0.107 7.54 2.61 11.5
10/28/2020 3:15:00 PM 10.17 50.306 0.107 7.41 3.11 11.48
10/28/2020 3:30:00 PM 10.19 50.342 0.108 7.41 3.12 11.44
10/28/2020 3:45:00 PM 10.22 50.396 0.108 7.52 3.14 11.39
10/28/2020 4:00:00 PM 10.24 50.432 0.109 7.54 3.83 11.34
10/28/2020 4:15:00 PM 10.27 50.486 0.109 7.53 3.72 11.34
10/28/2020 4:30:00 PM 10.29 50.522 0.109 7.55 3.77 11.34
10/28/2020 4:45:00 PM 10.29 50.522 0.109 7.5 3.62 11.28
10/28/2020 5:00:00 PM 10.27 50.486 0.109 7.38 3.34 11.18
10/28/2020 5:15:00 PM 10.25 50.45 0.109 7.52 3.47 11.11
10/28/2020 5:30:00 PM 10.24 50.432 0.109 7.49 3.75 11.06
10/28/2020 5:45:00 PM 10.21 50.378 0.109 7.49 3.6 11.02
10/28/2020 6:00:00 PM 10.17 50.306 0.109 7.46 3.33 10.95
10/28/2020 6:15:00 PM 10.13 50.234 0.109 7.45 3.48 10.87
10/28/2020 6:30:00 PM 10.08 50.144 0.109 7.42 3.7 10.82
10/28/2020 6:45:00 PM 10.03 50.054 0.108 7.42 3.68 10.78
10/28/2020 7:00:00 PM 9.97 49.946 0.103 7.33 5.99 10.75
10/28/2020 7:15:00 PM 9.91 49.838 0.108 7.28 3.3 10.73
10/28/2020 7:30:00 PM 9.87 49.766 0.108 7.39 3.26 10.72
10/28/2020 7:45:00 PM 9.83 49.694 0.108 7.22 3.04 10.71
10/28/2020 8:00:00 PM 9.79 49.622 0.108 7.37 3.07 10.7
10/28/2020 8:15:00 PM 9.75 49.55 0.108 7.31 3.09 10.69
10/28/2020 8:30:00 PM 9.7 49.46 0.109 7.21 3.02 10.7
10/28/2020 8:45:00 PM 9.67 49.406 0.109 7.35 3.04 10.7
10/28/2020 9:00:00 PM 9.64 49.352 0.109 7.34 3.16 10.71
10/28/2020 9:15:00 PM 9.61 49.298 0.109 7.33 2.98 10.71
10/28/2020 9:30:00 PM 9.57 49.226 0.109 7.33 4.26 10.71
10/28/2020 9:45:00 PM 9.55 49.19 0.103 7.25 5.16 10.72
10/28/2020 10:00:00 PM 9.51 49.118 0.109 7.25 3.28 10.73
10/28/2020 10:15:00 PM 9.48 49.064 0.109 7.33 3.27 10.74
10/28/2020 10:30:00 PM 9.45 49.01 0.109 7.31 3.23 10.74
10/28/2020 10:45:00 PM 9.41 48.938 0.109 7.32 3.16 10.75
10/28/2020 11:00:00 PM 9.36 48.848 0.103 7.24 5.2 10.76
10/28/2020 11:15:00 PM 9.32 48.776 0.109 7.3 3.05 10.78
10/28/2020 11:30:00 PM 9.28 48.704 0.109 7.3 3.25 10.79
10/28/2020 11:45:00 PM 9.24 48.632 0.108 7.2 2.79 10.8
10/29/2020 12:00:00 AM 9.2 48.56 0.108 7.16 2.83 10.81
10/29/2020 12:15:00 AM 9.17 48.506 0.108 7.3 2.78 10.82
10/29/2020 12:30:00 AM 9.13 48.434 0.108 7.28 2.65 10.83
10/29/2020 12:45:00 AM 9.08 48.344 0.108 7.3 2.83 10.85
10/29/2020 1:00:00 AM 9.03 48.254 0.108 7.29 2.73 10.85
10/29/2020 1:15:00 AM 8.98 48.164 0.108 7.29 2.72 10.87
10/29/2020 1:30:00 AM 8.94 48.092 0.108 7.29 2.73 10.88
10/29/2020 1:45:00 AM 8.89 48.002 0.108 7.29 2.57 10.89
10/29/2020 2:00:00 AM 8.84 47.912 0.108 7.22 2.6 10.91
10/29/2020 2:15:00 AM 8.8 47.84 0.108 7.28 2.46 10.92
10/29/2020 2:30:00 AM 8.76 47.768 0.108 7.28 2.21 10.93
10/29/2020 2:45:00 AM 8.73 47.714 0.108 7.18 2.25 10.94
10/29/2020 3:00:00 AM 8.69 47.642 0.108 7.29 2.36 10.95
10/29/2020 3:15:00 AM 8.65 47.57 0.108 7.28 2.41 10.97
10/29/2020 3:30:00 AM 8.62 47.516 0.108 7.16 2.22 10.96
10/29/2020 3:45:00 AM 8.58 47.444 0.108 7.28 2.24 10.98
10/29/2020 4:00:00 AM 8.55 47.39 0.108 7.28 2.64 10.99
10/29/2020 4:15:00 AM 8.52 47.336 0.108 7.27 2.27 11
10/29/2020 4:30:00 AM 8.5 47.3 0.108 7.27 2.3 11
10/29/2020 4:45:00 AM 8.47 47.246 0.108 7.27 2.1 11.01
10/29/2020 5:00:00 AM 8.45 47.21 0.108 7.26 2.17 11.01
10/29/2020 5:15:00 AM 8.43 47.174 0.108 7.2 2.31 11.01
10/29/2020 5:30:00 AM 8.4 47.12 0.108 7.26 2.36 11.02
10/29/2020 5:45:00 AM 8.38 47.084 0.108 7.26 2.13 11.04
10/29/2020 6:00:00 AM 8.36 47.048 0.108 7.25 2.12 11.04
10/29/2020 6:15:00 AM 8.35 47.03 0.108 7.26 2.23 11.04
10/29/2020 6:30:00 AM 8.33 46.994 0.108 7.25 3.6 11.05
10/29/2020 6:45:00 AM 8.32 46.976 0.108 7.25 1.96 11.06
10/29/2020 7:00:00 AM 8.3 46.94 0.108 7.19 2.24 11.06
10/29/2020 7:15:00 AM 8.3 46.94 0.108 7.25 2.08 11.06
10/29/2020 7:30:00 AM 8.29 46.922 0.108 7.24 2.17 11.06
10/29/2020 7:45:00 AM 8.28 46.904 0.108 7.25 2.02 11.07
10/29/2020 8:00:00 AM 8.27 46.886 0.108 7.25 2.06 11.07
10/29/2020 8:15:00 AM 8.27 46.886 0.108 7.25 1.91 11.09
10/29/2020 8:30:00 AM 8.27 46.886 0.108 7.26 1.98 11.11
10/29/2020 8:45:00 AM 8.27 46.886 0.108 7.25 2.03 11.13
10/29/2020 9:00:00 AM 8.27 46.886 0.108 7.18 2.05 11.17
10/29/2020 9:15:00 AM 8.28 46.904 0.108 7.27 2.03 11.2
10/29/2020 9:30:00 AM 8.29 46.922 0.108 7.27 2.1 11.21
10/29/2020 9:45:00 AM 8.3 46.94 0.107 7.27 1.91 11.23
10/29/2020 10:00:00 AM 8.3 46.94 0.107 7.21 2.04 11.26
10/29/2020 10:15:00 AM 8.31 46.958 0.106 7.28 2.12 11.29
10/29/2020 10:30:00 AM 8.33 46.994 0.106 7.13 2.2 11.3
10/29/2020 10:45:00 AM 8.34 47.012 0.106 7.29 2.66 11.33
10/29/2020 11:00:00 AM 8.36 47.048 0.106 7.3 2.93 11.36
10/29/2020 11:15:00 AM 8.39 47.102 0.105 7.31 3.42 11.42
10/29/2020 11:30:00 AM 8.42 47.156 0.105 7.29 3.5 11.47
10/29/2020 11:45:00 AM 8.44 47.192 0.105 7.32 3.28 11.45
10/29/2020 12:00:00 PM 8.46 47.228 0.104 7.32 2.88 11.45
10/29/2020 12:15:00 PM 8.5 47.3 0.104 7.33 3.08 11.5
10/29/2020 12:30:00 PM 8.54 47.372 0.104 7.35 2.7 11.57
10/29/2020 12:45:00 PM 8.57 47.426 0.103 7.34 2.73 11.57
10/29/2020 1:00:00 PM 8.6 47.48 0.103 7.36 2.61 11.56
10/29/2020 1:15:00 PM 8.64 47.552 0.103 7.38 2.77 11.58
10/29/2020 1:30:00 PM 8.68 47.624 0.102 7.38 2.59 11.62
10/29/2020 1:45:00 PM 8.72 47.696 0.102 7.38 2.83 11.59
10/29/2020 2:00:00 PM 8.74 47.732 0.102 7.29 3.49 11.54
10/29/2020 2:15:00 PM 8.77 47.786 0.101 7.37 3.91 11.53
10/29/2020 2:30:00 PM 8.8 47.84 0.101 7.37 4.27 11.49
10/29/2020 2:45:00 PM 8.83 47.894 0.101 7.3 4.26 11.46
10/29/2020 3:00:00 PM 8.87 47.966 0.1 7.33 4.47 11.43
10/29/2020 3:15:00 PM 8.89 48.002 0.1 7.34 4.87 11.39
10/29/2020 3:30:00 PM 8.9 48.02 0.1 7.32 6.22 11.33
10/29/2020 3:45:00 PM 8.91 48.038 0.099 7.33 6.31 11.29
10/29/2020 4:00:00 PM 8.91 48.038 0.099 7.28 6.64 11.23
10/29/2020 4:15:00 PM 8.92 48.056 0.099 7.28 6.08 11.18
10/29/2020 4:30:00 PM 8.92 48.056 0.099 7.28 6.89 11.06
10/29/2020 4:45:00 PM 8.92 48.056 0.099 7.27 8.26 11.05
10/29/2020 5:00:00 PM 8.94 48.092 0.098 7.17 10.48 10.99
10/29/2020 5:15:00 PM 8.93 48.074 0.098 7.24 12.97 11
10/29/2020 5:30:00 PM 8.92 48.056 0.097 7.23 11.85 10.99
10/29/2020 5:45:00 PM 8.92 48.056 0.097 7.13 12.57 10.97
10/29/2020 6:00:00 PM 8.91 48.038 0.097 7.23 14.47 10.94
10/29/2020 6:15:00 PM 8.9 48.02 0.096 7.21 19.94 10.96
10/29/2020 6:30:00 PM 8.9 48.02 0.096 7.21 18.21 10.94
10/29/2020 6:45:00 PM 8.9 48.02 0.096 7.15 14.16 10.94
10/29/2020 7:00:00 PM 8.89 48.002 0.096 7.14 19.33 10.94
10/29/2020 7:15:00 PM 8.89 48.002 0.095 7.21 19.33 10.94
10/29/2020 7:30:00 PM 8.88 47.984 0.095 7.17 27.66 10.94
10/29/2020 7:45:00 PM 8.87 47.966 0.095 7.19 25.47 10.95
10/29/2020 8:00:00 PM 8.86 47.948 0.095 7.18 20.34 10.97
10/29/2020 8:15:00 PM 8.84 47.912 0.09 7.18 27.74 10.97
10/29/2020 8:30:00 PM 8.83 47.894 0.094 7.17 34 10.98
10/29/2020 8:45:00 PM 8.82 47.876 0.093 7.17 33.78 11.01
10/29/2020 9:00:00 PM 8.81 47.858 0.093 7.17 39.32 11.01
10/29/2020 9:15:00 PM 8.8 47.84 0.093 7.17 57.81 11.03
10/29/2020 9:30:00 PM 8.79 47.822 0.093 7.17 32.2 11.03
10/29/2020 9:45:00 PM 8.78 47.804 0.092 7.17 46.42 11.04
10/29/2020 10:00:00 PM 8.78 47.804 0.092 7.16 35.3 11.05
10/29/2020 10:15:00 PM 8.77 47.786 0.092 7.15 33.93 11.06
10/29/2020 10:30:00 PM 8.76 47.768 0.091 7.15 36.93 11.06
10/29/2020 10:45:00 PM 8.75 47.75 0.091 7.15 27.25 11.08
10/29/2020 11:00:00 PM 8.74 47.732 0.091 7.14 28.73 11.08
10/29/2020 11:15:00 PM 8.73 47.714 0.09 7.13 25.67 11.09
10/29/2020 11:30:00 PM 8.72 47.696 0.09 7.13 26.79 11.09
10/29/2020 11:45:00 PM 8.7 47.66 0.089 7.13 23.86 11.09
10/30/2020 12:00:00 AM 8.69 47.642 0.089 7.09 22.32 11.11
10/30/2020 12:15:00 AM 8.67 47.606 0.089 7.13 22.37 11.11
10/30/2020 12:30:00 AM 8.65 47.57 0.088 7.12 22.93 11.13
10/30/2020 12:45:00 AM 8.63 47.534 0.088 7.08 23.31 11.13
10/30/2020 1:00:00 AM 8.62 47.516 0.088 7.02 23.13 11.14
10/30/2020 1:15:00 AM 8.6 47.48 0.088 7.12 20.89 11.15
10/30/2020 1:30:00 AM 8.57 47.426 0.088 7.12 19.76 11.16
10/30/2020 1:45:00 AM 8.55 47.39 0.088 7.11 18.9 11.16
10/30/2020 2:00:00 AM 8.54 47.372 0.088 7.1 18.51 11.17
10/30/2020 2:15:00 AM 8.51 47.318 0.087 7.1 16.01 11.17
10/30/2020 2:30:00 AM 8.5 47.3 0.087 7.11 16.63 11.17
10/30/2020 2:45:00 AM 8.48 47.264 0.087 7.1 16.5 11.18
10/30/2020 3:00:00 AM 8.46 47.228 0.087 7.1 15.68 11.19
10/30/2020 3:15:00 AM 8.44 47.192 0.087 7.08 14.81 11.19
10/30/2020 3:30:00 AM 8.42 47.156 0.087 7.1 13.91 11.2
10/30/2020 3:45:00 AM 8.4 47.12 0.087 7.1 13.27 11.21
10/30/2020 4:00:00 AM 8.38 47.084 0.087 7.09 12.42 11.21
10/30/2020 4:15:00 AM 8.36 47.048 0.087 7.1 11.83 11.22
10/30/2020 4:30:00 AM 8.33 46.994 0.087 7.1 11.58 11.22
10/30/2020 4:45:00 AM 8.31 46.958 0.087 7.08 11.34 11.23
10/30/2020 5:00:00 AM 8.27 46.886 0.087 7.1 11.08 11.25
10/30/2020 5:15:00 AM 8.22 46.796 0.087 7.1 10.82 11.26
10/30/2020 5:30:00 AM 8.15 46.67 0.086 7.08 10.6 11.27
10/30/2020 5:45:00 AM 8.07 46.526 0.086 7.1 10.13 11.29
10/30/2020 6:00:00 AM 7.98 46.364 0.086 7.1 10.24 11.31
10/30/2020 6:15:00 AM 7.91 46.238 0.086 7.08 10.01 11.33
10/30/2020 6:30:00 AM 7.84 46.112 0.086 7.1 9.98 11.35
10/30/2020 6:45:00 AM 7.78 46.004 0.086 7.1 9.94 11.38
10/30/2020 7:00:00 AM 7.71 45.878 0.086 7.08 9.74 11.4
10/30/2020 7:15:00 AM 7.63 45.734 0.086 7.09 9.63 11.43
10/30/2020 7:30:00 AM 7.54 45.572 0.086 7.09 9.71 11.45
10/30/2020 7:45:00 AM 7.48 45.464 0.086 7.09 9.71 11.48
10/30/2020 8:00:00 AM 7.44 45.392 0.086 7.08 9.8 11.51
10/30/2020 8:15:00 AM 7.4 45.32 0.086 7.08 9.41 11.54
10/30/2020 8:30:00 AM 7.36 45.248 0.086 7.09 9.36 11.56
10/30/2020 8:45:00 AM 7.32 45.176 0.086 7.08 8.81 11.59
10/30/2020 9:00:00 AM 7.31 45.158 0.086 7.1 8.82 11.62
10/30/2020 9:15:00 AM 7.3 45.14 0.086 6.98 8.52 11.65
10/30/2020 9:30:00 AM 7.29 45.122 0.086 7.11 8.13 11.68
10/30/2020 9:45:00 AM 7.29 45.122 0.086 6.97 7.71 11.71
10/30/2020 10:00:00 AM 7.29 45.122 0.086 7.08 7.84 11.74
10/30/2020 10:15:00 AM 7.28 45.104 0.086 7.12 7.16 11.76
10/30/2020 10:30:00 AM 7.29 45.122 0.086 7.11 7.06 11.78
10/30/2020 10:45:00 AM 7.3 45.14 0.086 7.12 6.8 11.8
10/30/2020 11:00:00 AM 7.32 45.176 0.086 7.12 6.61 11.81
10/30/2020 11:15:00 AM 7.33 45.194 0.086 7.13 6.55 11.81
10/30/2020 11:30:00 AM 7.36 45.248 0.086 7 6.36 11.82
10/30/2020 11:45:00 AM 7.39 45.302 0.086 7.14 6.28 11.83
10/30/2020 12:00:00 PM 7.44 45.392 0.085 7.14 5.99 11.84
10/30/2020 12:15:00 PM 7.49 45.482 0.085 7.14 6.1 11.84
10/30/2020 12:30:00 PM 7.53 45.554 0.085 7.12 5.96 11.84
10/30/2020 12:45:00 PM 7.57 45.626 0.085 7.14 5.86 11.84
10/30/2020 1:00:00 PM 7.6 45.68 0.085 7.15 5.81 11.83
10/30/2020 1:15:00 PM 7.65 45.77 0.085 7.16 5.82 11.81
10/30/2020 1:30:00 PM 7.7 45.86 0.086 7.16 5.86 11.79
10/30/2020 1:45:00 PM 7.74 45.932 0.085 7 5.64 11.79
10/30/2020 2:00:00 PM 7.76 45.968 0.085 7.16 5.63 11.78
10/30/2020 2:15:00 PM 7.79 46.022 0.085 7.15 5.55 11.76
10/30/2020 2:30:00 PM 7.85 46.13 0.085 7.15 5.57 11.75
10/30/2020 2:45:00 PM 7.88 46.184 0.085 7.15 5.57 11.73
10/30/2020 3:00:00 PM 7.87 46.166 0.086 7.14 6.06 11.72
10/30/2020 3:15:00 PM 7.9 46.22 0.086 7.15 6 11.71
10/30/2020 3:30:00 PM 7.94 46.292 0.086 7.09 6.11 11.7
10/30/2020 3:45:00 PM 7.92 46.256 0.086 7.09 5.99 11.69
10/30/2020 4:00:00 PM 7.9 46.22 0.086 7.02 5.95 11.68
10/30/2020 4:15:00 PM 7.91 46.238 0.086 7.15 5.85 11.67
10/30/2020 4:30:00 PM 7.87 46.166 0.086 7.14 5.66 11.65
10/30/2020 4:45:00 PM 7.83 46.094 0.086 7.13 5.65 11.64
10/30/2020 5:00:00 PM 7.78 46.004 0.086 7.13 5.62 11.63
10/30/2020 5:15:00 PM 7.71 45.878 0.086 7.13 5.62 11.63
10/30/2020 5:30:00 PM 7.66 45.788 0.086 7.06 5.56 11.63
10/30/2020 5:45:00 PM 7.6 45.68 0.086 7.11 5.43 11.63
10/30/2020 6:00:00 PM 7.55 45.59 0.086 7.11 5.52 11.63
10/30/2020 6:15:00 PM 7.49 45.482 0.086 7.1 5.66 11.63
10/30/2020 6:30:00 PM 7.44 45.392 0.086 7.01 5.74 11.64
10/30/2020 6:45:00 PM 7.4 45.32 0.086 7.1 5.98 11.64
10/30/2020 7:00:00 PM 7.34 45.212 0.086 6.95 6.09 11.65
10/30/2020 7:15:00 PM 7.28 45.104 0.086 7.09 6.15 11.68
10/30/2020 7:30:00 PM 7.21 44.978 0.086 7.08 6.03 11.69
10/30/2020 7:45:00 PM 7.14 44.852 0.086 7.07 5.97 11.72
10/30/2020 8:00:00 PM 7.07 44.726 0.086 7.07 5.97 11.74
10/30/2020 8:15:00 PM 7.01 44.618 0.086 6.97 6.05 11.75
10/30/2020 8:30:00 PM 6.96 44.528 0.086 7.07 5.62 11.78
10/30/2020 8:45:00 PM 6.9 44.42 0.086 6.98 5.54 11.79
10/30/2020 9:00:00 PM 6.85 44.33 0.085 6.99 5.66 11.81
10/30/2020 9:15:00 PM 6.79 44.222 0.085 7.06 5.75 11.83
10/30/2020 9:30:00 PM 6.72 44.096 0.085 7.05 5.62 11.85
10/30/2020 9:45:00 PM 6.66 43.988 0.084 7.04 5.47 11.87
10/30/2020 10:00:00 PM 6.6 43.88 0.084 7.04 5.42 11.89
10/30/2020 10:15:00 PM 6.53 43.754 0.084 7.04 5.39 11.91
10/30/2020 10:30:00 PM 6.48 43.664 0.084 7.03 5.1 11.93
10/30/2020 10:45:00 PM 6.44 43.592 0.084 7.02 5.07 11.95
10/30/2020 11:00:00 PM 6.41 43.538 0.084 7.03 4.97 11.96
10/30/2020 11:15:00 PM 6.37 43.466 0.084 7.02 4.93 11.98
10/30/2020 11:30:00 PM 6.33 43.394 0.084 7.02 4.77 12
10/30/2020 11:45:00 PM 6.28 43.304 0.084 7.02 4.88 12.01
10/31/2020 12:00:00 AM 6.25 43.25 0.084 7.01 4.74 12.02
10/31/2020 12:15:00 AM 6.23 43.214 0.084 7.02 4.66 12.04
10/31/2020 12:30:00 AM 6.2 43.16 0.084 7.02 4.64 12.06
10/31/2020 12:45:00 AM 6.17 43.106 0.084 7.02 4.57 12.07
10/31/2020 1:00:00 AM 6.14 43.052 0.084 7.01 4.31 12.08
10/31/2020 1:15:00 AM 6.11 42.998 0.084 7.01 4.42 12.09
10/31/2020 1:30:00 AM 6.07 42.926 0.085 7.01 4.5 12.1
10/31/2020 1:45:00 AM 6.03 42.854 0.085 7.01 4.37 12.11
10/31/2020 2:00:00 AM 5.99 42.782 0.085 7.01 4.28 12.12
10/31/2020 2:15:00 AM 5.94 42.692 0.085 7 4.08 12.14
10/31/2020 2:30:00 AM 5.88 42.584 0.085 7 4.02 12.15
10/31/2020 2:45:00 AM 5.83 42.494 0.085 7.01 4.05 12.17
10/31/2020 3:00:00 AM 5.78 42.404 0.085 7.01 4.09 12.19
10/31/2020 3:15:00 AM 5.73 42.314 0.085 7 4.13 12.21
10/31/2020 3:30:00 AM 5.67 42.206 0.085 6.97 3.94 12.22
10/31/2020 3:45:00 AM 5.63 42.134 0.085 7 3.97 12.23
10/31/2020 4:00:00 AM 5.59 42.062 0.086 6.99 3.89 12.25
10/31/2020 4:15:00 AM 5.54 41.972 0.086 7 4.04 12.27
10/31/2020 4:30:00 AM 5.49 41.882 0.086 7 3.78 12.28
10/31/2020 4:45:00 AM 5.44 41.792 0.086 6.99 3.88 12.29
10/31/2020 5:00:00 AM 5.39 41.702 0.086 7 3.76 12.31
10/31/2020 5:15:00 AM 5.35 41.63 0.086 7 3.67 12.33
10/31/2020 5:30:00 AM 5.34 41.612 0.086 7 3.6 12.34
10/31/2020 5:45:00 AM 5.3 41.54 0.086 6.99 3.6 12.35
10/31/2020 6:00:00 AM 5.28 41.504 0.086 6.99 3.54 12.36
10/31/2020 6:15:00 AM 5.27 41.486 0.086 6.99 3.53 12.37
10/31/2020 6:30:00 AM 5.26 41.468 0.086 7 3.62 12.38
10/31/2020 6:45:00 AM 5.24 41.432 0.086 6.99 3.53 12.39
10/31/2020 7:00:00 AM 5.24 41.432 0.086 6.99 3.48 12.39
10/31/2020 7:15:00 AM 5.22 41.396 0.086 6.99 3.49 12.41
10/31/2020 7:30:00 AM 5.22 41.396 0.087 6.99 3.4 12.4
10/31/2020 7:45:00 AM 5.23 41.414 0.087 6.99 3.32 12.4
10/31/2020 8:00:00 AM 5.22 41.396 0.087 6.99 3.57 12.43
10/31/2020 8:15:00 AM 5.21 41.378 0.087 7 3.21 12.47
10/31/2020 8:30:00 AM 5.22 41.396 0.087 7 3.24 12.48
10/31/2020 8:45:00 AM 5.22 41.396 0.087 7.01 3.16 12.53
10/31/2020 9:00:00 AM 5.24 41.432 0.087 7.01 3.16 12.56
10/31/2020 9:15:00 AM 5.28 41.504 0.087 7.02 3.16 12.59
10/31/2020 9:30:00 AM 5.32 41.576 0.087 6.99 2.98 12.62
10/31/2020 9:45:00 AM 5.36 41.648 0.087 7.05 2.96 12.65
10/31/2020 10:00:00 AM 5.43 41.774 0.087 7.05 2.88 12.66
10/31/2020 10:15:00 AM 5.55 41.99 0.087 7.05 2.88 12.66
10/31/2020 10:30:00 AM 5.62 42.116 0.087 7.06 2.84 12.65
10/31/2020 10:45:00 AM 5.71 42.278 0.087 7.06 2.78 12.64
10/31/2020 11:00:00 AM 5.77 42.386 0.087 7.05 2.79 12.63
10/31/2020 11:15:00 AM 5.87 42.566 0.087 6.95 2.8 12.61
10/31/2020 11:30:00 AM 6.08 42.944 0.087 7.09 2.7 12.58
10/31/2020 11:45:00 AM 6.34 43.412 0.087 6.97 2.66 12.53
10/31/2020 12:00:00 PM 6.37 43.466 0.087 7.04 2.56 12.51
10/31/2020 12:15:00 PM 6.24 43.232 0.087 7.05 2.65 12.51
10/31/2020 12:30:00 PM 6.23 43.214 0.087 7.06 2.51 12.51
10/31/2020 12:45:00 PM 6.25 43.25 0.087 7.06 2.57 12.5
10/31/2020 1:00:00 PM 6.36 43.448 0.087 7.07 2.62 12.46
10/31/2020 1:15:00 PM 6.51 43.718 0.087 7.08 2.46 12.43
10/31/2020 1:30:00 PM 6.75 44.15 0.087 7.08 2.63 12.36
10/31/2020 1:45:00 PM 7.06 44.708 0.087 7.08 2.58 12.27
10/31/2020 2:00:00 PM 7.28 45.104 0.087 7.08 2.65 12.2
10/31/2020 2:15:00 PM 7.42 45.356 0.087 7.08 2.58 12.17
10/31/2020 2:30:00 PM 7.47 45.446 0.087 7.07 2.74 12.13
10/31/2020 2:45:00 PM 7.53 45.554 0.087 7 2.62 12.11
10/31/2020 3:00:00 PM 7.58 45.644 0.087 7.08 2.59 12.11
10/31/2020 3:15:00 PM 7.56 45.608 0.087 7.07 2.65 12.1
10/31/2020 3:30:00 PM 7.56 45.608 0.087 7.07 2.66 12.09
10/31/2020 3:45:00 PM 7.5 45.5 0.087 7.07 2.77 12.06
10/31/2020 4:00:00 PM 7.44 45.392 0.087 7.07 2.62 12.04
10/31/2020 4:15:00 PM 7.41 45.338 0.087 7.07 2.74 12.01
10/31/2020 4:30:00 PM 7.41 45.338 0.087 7.06 2.75 11.97
10/31/2020 4:45:00 PM 7.38 45.284 0.087 7.05 2.82 11.93
10/31/2020 5:00:00 PM 7.32 45.176 0.088 7.03 2.79 11.91
10/31/2020 5:15:00 PM 7.27 45.086 0.088 7.04 2.75 11.89
10/31/2020 5:30:00 PM 7.23 45.014 0.088 7.03 2.8 11.87
10/31/2020 5:45:00 PM 7.17 44.906 0.088 7.03 2.75 11.86
10/31/2020 6:00:00 PM 7.1 44.78 0.088 7.02 2.89 11.85
10/31/2020 6:15:00 PM 7.02 44.636 0.088 7.01 2.9 11.84
10/31/2020 6:30:00 PM 6.94 44.492 0.088 7 2.82 11.84
10/31/2020 6:45:00 PM 6.87 44.366 0.088 6.89 2.85 11.83
10/31/2020 7:00:00 PM 6.8 44.24 0.088 7 2.88 11.83
10/31/2020 7:15:00 PM 6.74 44.132 0.088 6.98 2.94 11.83
10/31/2020 7:30:00 PM 6.67 44.006 0.088 6.98 2.9 11.85
10/31/2020 7:45:00 PM 6.62 43.916 0.088 6.98 2.8 11.85
10/31/2020 8:00:00 PM 6.58 43.844 0.089 6.97 3.01 11.86
10/31/2020 8:15:00 PM 6.52 43.736 0.089 6.97 2.98 11.88
10/31/2020 8:30:00 PM 6.46 43.628 0.089 6.86 2.71 11.9
10/31/2020 8:45:00 PM 6.4 43.52 0.089 6.98 2.84 11.91
10/31/2020 9:00:00 PM 6.33 43.394 0.089 6.96 2.78 11.94
10/31/2020 9:15:00 PM 6.26 43.268 0.089 6.97 2.59 11.96
10/31/2020 9:30:00 PM 6.18 43.124 0.089 6.97 2.69 11.98
10/31/2020 9:45:00 PM 6.12 43.016 0.089 6.96 2.93 12
10/31/2020 10:00:00 PM 6.05 42.89 0.089 6.95 2.49 12.02
10/31/2020 10:15:00 PM 5.98 42.764 0.089 6.96 2.51 12.04
10/31/2020 10:30:00 PM 5.93 42.674 0.089 6.95 2.43 12.03
10/31/2020 10:45:00 PM 5.86 42.548 0.089 6.95 2.55 12.05
10/31/2020 11:00:00 PM 5.8 42.44 0.089 6.86 2.4 12.08
10/31/2020 11:15:00 PM 5.74 42.332 0.09 6.86 2.53 12.1
10/31/2020 11:30:00 PM 5.69 42.242 0.09 6.95 2.62 12.1
10/31/2020 11:45:00 PM 5.64 42.152 0.09 6.94 2.39 12.12
11/1/2020 12:00:00 AM 5.58 42.044 0.09 6.83 2.66 12.13
11/1/2020 12:15:00 AM 5.52 41.936 0.09 6.96 2.55 12.16
11/1/2020 12:30:00 AM 5.47 41.846 0.09 6.94 2.77 12.17
11/1/2020 12:45:00 AM 5.41 41.738 0.09 6.94 2.64 12.17
11/1/2020 1:00:00 AM 5.36 41.648 0.09 6.94 2.33 12.2
11/1/2020 1:15:00 AM 5.32 41.576 0.09 6.94 2.29 12.22
11/1/2020 1:30:00 AM 5.27 41.486 0.09 6.93 2.35 12.23
11/1/2020 1:45:00 AM 5.23 41.414 0.09 6.93 2.29 12.23
11/1/2020 2:00:00 AM 5.17 41.306 0.09 6.94 2.34 12.26
11/1/2020 2:15:00 AM 5.13 41.234 0.09 6.94 2.24 12.27
11/1/2020 2:30:00 AM 5.09 41.162 0.09 6.94 2.07 12.29
11/1/2020 2:45:00 AM 5.04 41.072 0.09 6.93 2.5 12.3
11/1/2020 3:00:00 AM 5.03 41.054 0.09 6.94 2.47 12.32
11/1/2020 3:15:00 AM 5.04 41.072 0.09 6.93 2.13 12.3
11/1/2020 3:30:00 AM 5.03 41.054 0.09 6.94 2.22 12.32
11/1/2020 3:45:00 AM 5.02 41.036 0.09 6.94 2.23 12.33
11/1/2020 4:00:00 AM 5.03 41.054 0.09 6.94 2.14 12.32
11/1/2020 4:15:00 AM 5.07 41.126 0.09 6.95 2.43 12.32
11/1/2020 4:30:00 AM 5.1 41.18 0.09 6.94 2.21 12.29
11/1/2020 4:45:00 AM 5.11 41.198 0.09 6.94 2.27 12.3
11/1/2020 5:00:00 AM 5.14 41.252 0.09 6.95 2.14 12.28
11/1/2020 5:15:00 AM 5.16 41.288 0.09 6.95 2.08 12.28
11/1/2020 5:30:00 AM 5.17 41.306 0.09 6.94 2.37 12.27
11/1/2020 5:45:00 AM 5.19 41.342 0.09 6.94 2.27 12.26
11/1/2020 6:00:00 AM 5.2 41.36 0.09 6.94 2.14 12.24
11/1/2020 6:15:00 AM 5.23 41.414 0.09 6.94 2.17 12.23
11/1/2020 6:30:00 AM 5.25 41.45 0.09 6.94 2.12 12.22
11/1/2020 6:45:00 AM 5.29 41.522 0.09 6.94 2.07 12.21
11/1/2020 7:00:00 AM 5.33 41.594 0.09 6.94 2.28 12.19
11/1/2020 7:15:00 AM 5.37 41.666 0.09 6.83 2.1 12.19
11/1/2020 7:30:00 AM 5.41 41.738 0.09 6.95 2.19 12.19
11/1/2020 7:45:00 AM 5.46 41.828 0.09 6.95 2.3 12.2
11/1/2020 8:00:00 AM 5.5 41.9 0.09 6.96 2.15 12.22
11/1/2020 8:15:00 AM 5.54 41.972 0.09 6.95 2.13 12.21
11/1/2020 8:30:00 AM 5.58 42.044 0.09 6.95 2.05 12.22
11/1/2020 8:45:00 AM 5.62 42.116 0.09 6.96 2.03 12.2
11/1/2020 9:00:00 AM 5.67 42.206 0.09 6.97 1.96 12.23
11/1/2020 9:15:00 AM 5.73 42.314 0.09 6.89 2 12.2
11/1/2020 9:30:00 AM 5.78 42.404 0.09 6.97 2.03 12.22
11/1/2020 9:45:00 AM 5.83 42.494 0.09 6.98 1.92 12.22
11/1/2020 10:00:00 AM 5.9 42.62 0.09 6.96 1.95 12.21
11/1/2020 10:15:00 AM 6.01 42.818 0.09 6.97 2.54 12.24
11/1/2020 10:30:00 AM 6.11 42.998 0.09 6.98 1.93 12.23
11/1/2020 10:45:00 AM 6.18 43.124 0.09 6.99 1.97 12.23
11/1/2020 11:00:00 AM 6.28 43.304 0.09 6.99 1.96 12.2
11/1/2020 11:15:00 AM 6.33 43.394 0.089 7 2.07 12.2
11/1/2020 11:30:00 AM 6.42 43.556 0.089 7 1.94 12.18
11/1/2020 11:45:00 AM 6.48 43.664 0.089 7 2.01 12.11
11/1/2020 12:00:00 PM 6.53 43.754 0.089 7 1.97 12.04
11/1/2020 12:15:00 PM 6.6 43.88 0.089 6.91 2.06 12.02
11/1/2020 12:30:00 PM 6.66 43.988 0.089 6.93 1.93 11.98
11/1/2020 12:45:00 PM 6.72 44.096 0.089 6.99 1.99 11.92
11/1/2020 1:00:00 PM 6.77 44.186 0.089 6.97 2.05 11.89
11/1/2020 1:15:00 PM 6.86 44.348 0.089 6.98 1.97 11.91
11/1/2020 1:30:00 PM 6.93 44.474 0.089 6.99 1.92 11.87
11/1/2020 1:45:00 PM 6.99 44.582 0.089 6.98 2.04 11.85
11/1/2020 2:00:00 PM 7.05 44.69 0.089 6.98 2.1 11.84
11/1/2020 2:15:00 PM 7.1 44.78 0.089 6.98 2.01 11.8
11/1/2020 2:30:00 PM 7.17 44.906 0.089 6.93 1.9 11.83
11/1/2020 2:45:00 PM 7.25 45.05 0.089 7 1.97 11.79
11/1/2020 3:00:00 PM 7.33 45.194 0.089 6.9 2.08 11.81
11/1/2020 3:15:00 PM 7.38 45.284 0.089 7 2.02 11.75
11/1/2020 3:30:00 PM 7.42 45.356 0.089 6.99 2.1 11.68
11/1/2020 3:45:00 PM 7.45 45.41 0.089 6.98 2.16 11.65
11/1/2020 4:00:00 PM 7.47 45.446 0.089 6.97 1.92 11.59
11/1/2020 4:15:00 PM 7.48 45.464 0.089 6.97 2.27 11.54
11/1/2020 4:30:00 PM 7.5 45.5 0.089 6.96 2.01 11.48
11/1/2020 4:45:00 PM 7.5 45.5 0.089 6.95 2.1 11.45
11/1/2020 5:00:00 PM 7.5 45.5 0.089 6.95 2.24 11.43
11/1/2020 5:15:00 PM 7.47 45.446 0.089 6.95 2.14 11.41
11/1/2020 5:30:00 PM 7.44 45.392 0.089 6.9 2.1 11.4
11/1/2020 5:45:00 PM 7.4 45.32 0.089 6.94 2.12 11.42
11/1/2020 6:00:00 PM 7.38 45.284 0.089 6.94 2.14 11.4
11/1/2020 6:15:00 PM 7.36 45.248 0.089 6.92 2.3 11.41
11/1/2020 6:30:00 PM 7.34 45.212 0.089 6.94 2.17 11.4
11/1/2020 6:45:00 PM 7.32 45.176 0.089 6.92 2.31 11.41
11/1/2020 7:00:00 PM 7.3 45.14 0.089 6.94 2.22 11.42
11/1/2020 7:15:00 PM 7.27 45.086 0.089 6.94 2.12 11.43
11/1/2020 7:30:00 PM 7.26 45.068 0.089 6.82 2.34 11.43
11/1/2020 7:45:00 PM 7.22 44.996 0.089 6.95 2.43 11.46
11/1/2020 8:00:00 PM 7.2 44.96 0.089 6.84 2.54 11.45
11/1/2020 8:15:00 PM 7.17 44.906 0.089 6.95 2.37 11.47
11/1/2020 8:30:00 PM 7.14 44.852 0.089 6.93 2.47 11.47
11/1/2020 8:45:00 PM 7.07 44.726 0.089 6.94 2.56 11.48
11/1/2020 9:00:00 PM 7.04 44.672 0.089 6.94 2.64 11.5
11/1/2020 9:15:00 PM 7 44.6 0.089 6.93 2.65 11.51
11/1/2020 9:30:00 PM 6.95 44.51 0.089 6.93 2.85 11.52
11/1/2020 9:45:00 PM 6.88 44.384 0.089 6.94 2.9 11.54
11/1/2020 10:00:00 PM 6.83 44.294 0.09 6.94 2.5 11.56
11/1/2020 10:15:00 PM 6.79 44.222 0.09 6.94 2.56 11.57
11/1/2020 10:30:00 PM 6.73 44.114 0.09 6.94 2.71 11.6
11/1/2020 10:45:00 PM 6.66 43.988 0.09 6.94 2.42 11.61
11/1/2020 11:00:00 PM 6.61 43.898 0.09 6.91 2.51 11.62
11/1/2020 11:15:00 PM 6.56 43.808 0.09 6.86 2.61 11.63
11/1/2020 11:30:00 PM 6.5 43.7 0.09 6.94 2.78 11.66
11/1/2020 11:45:00 PM 6.46 43.628 0.09 6.94 2.75 11.67
11/2/2020 12:00:00 AM 6.42 43.556 0.09 6.94 2.82 11.68
11/2/2020 12:15:00 AM 6.39 43.502 0.09 6.93 3.09 11.67
11/2/2020 12:30:00 AM 6.33 43.394 0.09 6.83 3.03 11.71
11/2/2020 12:45:00 AM 6.29 43.322 0.09 6.94 3.19 11.72
11/2/2020 1:00:00 AM 6.24 43.232 0.09 6.94 3.21 11.74
11/2/2020 1:15:00 AM 6.21 43.178 0.09 6.94 3.33 11.75
11/2/2020 1:30:00 AM 6.19 43.142 0.09 6.92 3.31 11.74
11/2/2020 1:45:00 AM 6.12 43.016 0.09 6.94 3.15 11.77
11/2/2020 2:00:00 AM 6.1 42.98 0.09 6.92 2.93 11.77
11/2/2020 2:15:00 AM 6.06 42.908 0.09 6.94 2.92 11.79
11/2/2020 2:30:00 AM 6.01 42.818 0.089 6.94 2.52 11.81
11/2/2020 2:45:00 AM 5.99 42.782 0.089 6.91 2.68 11.81
11/2/2020 3:00:00 AM 5.94 42.692 0.089 6.93 2.75 11.81
11/2/2020 3:15:00 AM 5.9 42.62 0.089 6.93 2.47 11.83
11/2/2020 3:30:00 AM 5.85 42.53 0.089 6.94 2.48 11.85
11/2/2020 3:45:00 AM 5.81 42.458 0.089 6.93 2.5 11.86
11/2/2020 4:00:00 AM 5.75 42.35 0.089 6.93 2.45 11.87
11/2/2020 4:15:00 AM 5.71 42.278 0.089 6.93 2.47 11.87
11/2/2020 4:30:00 AM 5.65 42.17 0.089 6.94 2.32 11.91
11/2/2020 4:45:00 AM 5.6 42.08 0.089 6.94 2.52 11.93
11/2/2020 5:00:00 AM 5.56 42.008 0.089 6.93 2.37 11.94
11/2/2020 5:15:00 AM 5.48 41.864 0.089 6.93 2.24 11.96
11/2/2020 5:30:00 AM 5.23 41.414 0.089 6.92 2.31 11.99
11/2/2020 5:45:00 AM 5.12 41.216 0.089 6.93 2.4 12.02
11/2/2020 6:00:00 AM 5.07 41.126 0.089 6.94 2.33 12.05
11/2/2020 6:15:00 AM 4.98 40.964 0.088 6.94 2.54 12.08
11/2/2020 6:30:00 AM 4.97 40.946 0.088 6.93 2.22 12.1
11/2/2020 6:45:00 AM 4.91 40.838 0.088 6.85 2.45 12.14
11/2/2020 7:00:00 AM 4.87 40.766 0.088 6.94 2.32 12.19
11/2/2020 7:15:00 AM 4.86 40.748 0.088 6.94 2.17 12.23
11/2/2020 7:30:00 AM 4.81 40.658 0.088 6.94 2.18 12.27
11/2/2020 7:45:00 AM 4.8 40.64 0.088 6.94 2.25 12.34
11/2/2020 8:00:00 AM 4.79 40.622 0.088 6.96 2.1 12.38
11/2/2020 8:15:00 AM 4.71 40.478 0.088 6.96 2.16 12.43
11/2/2020 8:30:00 AM 4.72 40.496 0.088 6.97 2.1 12.5
11/2/2020 8:45:00 AM 4.68 40.424 0.088 6.98 2.09 12.54
11/2/2020 9:00:00 AM 4.69 40.442 0.088 6.98 2.02 12.58
11/2/2020 9:15:00 AM 4.66 40.388 0.088 6.99 1.96 12.63
11/2/2020 9:30:00 AM 4.66 40.388 0.088 7 2.42 12.67
11/2/2020 9:45:00 AM 4.67 40.406 0.088 7.01 2.02 12.71
11/2/2020 10:00:00 AM 4.68 40.424 0.088 7.01 1.93 12.74
11/2/2020 10:15:00 AM 4.75 40.55 0.088 7.02 2.22 12.74
11/2/2020 10:30:00 AM 4.75 40.55 0.088 7.03 2 12.77
11/2/2020 10:45:00 AM 4.81 40.658 0.088 7.04 1.93 12.78
11/2/2020 11:00:00 AM 4.86 40.748 0.088 7.04 2.05 12.77
11/2/2020 11:15:00 AM 4.92 40.856 0.088 7.04 1.93 12.76
11/2/2020 11:30:00 AM 4.99 40.982 0.088 7.05 2.01 12.76
11/2/2020 11:45:00 AM 5.06 41.108 0.088 7.05 1.88 12.74
11/2/2020 12:00:00 PM 5.1 41.18 0.088 7.05 1.97 12.73
11/2/2020 12:15:00 PM 5.18 41.324 0.087 7.06 1.86 12.71
11/2/2020 12:30:00 PM 5.31 41.558 0.087 7.06 2.1 12.68
11/2/2020 12:45:00 PM 5.41 41.738 0.087 7.05 1.85 12.65
11/2/2020 1:00:00 PM 5.49 41.882 0.087 7.05 1.93 12.6
11/2/2020 1:15:00 PM 5.48 41.864 0.087 7.05 1.93 12.59
11/2/2020 1:30:00 PM 5.47 41.846 0.087 7.04 2 12.56
11/2/2020 1:45:00 PM 5.46 41.828 0.087 7.02 1.81 12.52
11/2/2020 2:00:00 PM 5.44 41.792 0.087 7.03 1.9 12.52
11/2/2020 2:15:00 PM 5.44 41.792 0.087 7.03 2.01 12.52
11/2/2020 2:30:00 PM 5.41 41.738 0.087 7.03 1.79 12.51
11/2/2020 2:45:00 PM 5.4 41.72 0.087 7.03 1.84 12.47
11/2/2020 3:00:00 PM 5.43 41.774 0.087 7.03 1.81 12.45
11/2/2020 3:15:00 PM 5.39 41.702 0.087 7.02 2.16 12.43
11/2/2020 3:30:00 PM 5.32 41.576 0.088 7.02 1.89 12.4
11/2/2020 3:45:00 PM 5.26 41.468 0.088 7.01 1.97 12.39
11/2/2020 4:00:00 PM 5.2 41.36 0.088 7 1.9 12.37
11/2/2020 4:15:00 PM 5.16 41.288 0.088 7 1.92 12.34
11/2/2020 4:30:00 PM 5.16 41.288 0.088 6.99 2.01 12.31
11/2/2020 4:45:00 PM 5.17 41.306 0.088 6.98 2.16 12.28
11/2/2020 5:00:00 PM 5.14 41.252 0.088 6.96 1.97 12.25
11/2/2020 5:15:00 PM 5.12 41.216 0.088 6.97 2.03 12.22
11/2/2020 5:30:00 PM 5.1 41.18 0.088 6.96 2.13 12.2
11/2/2020 5:45:00 PM 5.1 41.18 0.088 6.94 2.21 12.18
11/2/2020 6:00:00 PM 5.1 41.18 0.088 6.94 2.19 12.16
11/2/2020 6:15:00 PM 5.08 41.144 0.088 6.94 2.2 12.17
11/2/2020 6:30:00 PM 5.1 41.18 0.088 6.94 2.23 12.16
11/2/2020 6:45:00 PM 5.1 41.18 0.088 6.93 2.46 12.15
11/2/2020 7:00:00 PM 5.09 41.162 0.089 6.93 2.03 12.15
11/2/2020 7:15:00 PM 5.08 41.144 0.089 6.9 2.22 12.15
11/2/2020 7:30:00 PM 5.07 41.126 0.089 6.92 2.1 12.15
11/2/2020 7:45:00 PM 5.05 41.09 0.089 6.92 2.1 12.16
11/2/2020 8:00:00 PM 5.03 41.054 0.089 6.91 2.06 12.15
11/2/2020 8:15:00 PM 5.01 41.018 0.089 6.9 2.12 12.17
11/2/2020 8:30:00 PM 4.99 40.982 0.089 6.9 2.08 12.16
11/2/2020 8:45:00 PM 4.95 40.91 0.089 6.9 1.99 12.17
11/2/2020 9:00:00 PM 4.91 40.838 0.089 6.88 2.62 12.2
11/2/2020 9:15:00 PM 4.9 40.82 0.089 6.9 2.16 12.19
11/2/2020 9:30:00 PM 4.86 40.748 0.089 6.9 1.92 12.21
11/2/2020 9:45:00 PM 4.84 40.712 0.089 6.89 5.42 12.21
11/2/2020 10:00:00 PM 4.82 40.676 0.089 6.9 1.86 12.22
11/2/2020 10:15:00 PM 4.79 40.622 0.089 6.9 2.08 12.23
11/2/2020 10:30:00 PM 4.76 40.568 0.089 6.9 1.84 12.23
11/2/2020 10:45:00 PM 4.75 40.55 0.089 6.9 1.88 12.25
11/2/2020 11:00:00 PM 4.75 40.55 0.089 6.88 1.9 12.23
11/2/2020 11:15:00 PM 4.74 40.532 0.089 6.9 1.9 12.25
11/2/2020 11:30:00 PM 4.74 40.532 0.089 6.89 1.96 12.23
11/2/2020 11:45:00 PM 4.74 40.532 0.089 6.89 1.87 12.24
11/3/2020 12:00:00 AM 4.73 40.514 0.089 6.89 2.34 12.24
11/3/2020 12:15:00 AM 4.73 40.514 0.089 6.89 1.9 12.24
11/3/2020 12:30:00 AM 4.7 40.46 0.09 6.89 1.83 12.24
11/3/2020 12:45:00 AM 4.7 40.46 0.09 6.89 1.9 12.25
11/3/2020 1:00:00 AM 4.71 40.478 0.09 6.88 2.03 12.24
11/3/2020 1:15:00 AM 4.69 40.442 0.09 6.87 1.8 12.25
11/3/2020 1:30:00 AM 4.69 40.442 0.09 6.88 1.9 12.23
11/3/2020 1:45:00 AM 4.69 40.442 0.09 6.88 2.02 12.24
11/3/2020 2:00:00 AM 4.69 40.442 0.09 6.87 1.87 12.24
11/3/2020 2:15:00 AM 4.68 40.424 0.09 6.88 1.73 12.24
11/3/2020 2:30:00 AM 4.7 40.46 0.09 6.88 1.87 12.23
11/3/2020 2:45:00 AM 4.69 40.442 0.09 6.88 1.85 12.23
11/3/2020 3:00:00 AM 4.69 40.442 0.09 6.88 1.96 12.23
11/3/2020 3:15:00 AM 4.71 40.478 0.089 6.87 1.87 12.23
11/3/2020 3:30:00 AM 4.71 40.478 0.089 6.88 2.07 12.24
11/3/2020 3:45:00 AM 4.71 40.478 0.089 6.88 1.88 12.25
11/3/2020 4:00:00 AM 4.73 40.514 0.089 6.88 1.83 12.23
11/3/2020 4:15:00 AM 4.72 40.496 0.089 6.88 1.92 12.23
11/3/2020 4:30:00 AM 4.73 40.514 0.089 6.88 1.85 12.23
11/3/2020 4:45:00 AM 4.75 40.55 0.089 6.88 1.92 12.23
11/3/2020 5:00:00 AM 4.78 40.604 0.089 6.87 1.91 12.22
11/3/2020 5:15:00 AM 4.77 40.586 0.089 6.87 1.81 12.22
11/3/2020 5:30:00 AM 4.76 40.568 0.089 6.88 1.97 12.25
11/3/2020 5:45:00 AM 4.78 40.604 0.089 6.87 1.9 12.23
11/3/2020 6:00:00 AM 4.79 40.622 0.089 6.85 1.9 12.22
11/3/2020 6:15:00 AM 4.81 40.658 0.089 6.87 1.82 12.21
11/3/2020 6:30:00 AM 4.82 40.676 0.089 6.86 1.89 12.19
11/3/2020 6:45:00 AM 4.84 40.712 0.089 6.85 1.94 12.2
11/3/2020 7:00:00 AM 4.84 40.712 0.089 6.86 1.9 12.21
11/3/2020 7:15:00 AM 4.88 40.784 0.089 6.86 1.84 12.2
11/3/2020 7:30:00 AM 4.89 40.802 0.089 6.84 1.77 12.22
11/3/2020 7:45:00 AM 4.91 40.838 0.089 6.87 1.76 12.21
11/3/2020 8:00:00 AM 4.93 40.874 0.089 6.85 1.78 12.25
11/3/2020 8:15:00 AM 4.96 40.928 0.089 6.87 1.78 12.25
11/3/2020 8:30:00 AM 4.96 40.928 0.089 6.87 1.84 12.28
11/3/2020 8:45:00 AM 5 41 0.089 6.87 1.71 12.3
11/3/2020 9:00:00 AM 5 41 0.089 6.87 1.76 12.32
11/3/2020 9:15:00 AM 5.02 41.036 0.089 6.87 1.88 12.34
11/3/2020 9:30:00 AM 5.03 41.054 0.089 6.88 1.82 12.38
11/3/2020 9:45:00 AM 5.05 41.09 0.089 6.86 1.73 12.43
11/3/2020 10:00:00 AM 5.09 41.162 0.089 6.87 1.71 12.44
11/3/2020 10:15:00 AM 5.12 41.216 0.089 6.9 1.71 12.5
11/3/2020 10:30:00 AM 5.16 41.288 0.089 6.87 1.65 12.52
11/3/2020 10:45:00 AM 5.21 41.378 0.089 6.9 1.68 12.55
11/3/2020 11:00:00 AM 5.28 41.504 0.089 6.9 1.7 12.57
11/3/2020 11:15:00 AM 5.35 41.63 0.089 6.9 1.64 12.57
11/3/2020 11:30:00 AM 5.42 41.756 0.089 6.93 1.88 12.59
11/3/2020 11:45:00 AM 5.52 41.936 0.089 6.94 1.6 12.59
11/3/2020 12:00:00 PM 5.67 42.206 0.088 6.94 1.7 12.57
11/3/2020 12:15:00 PM 5.77 42.386 0.088 6.93 1.63 12.54
11/3/2020 12:30:00 PM 5.86 42.548 0.088 6.94 1.64 12.53
11/3/2020 12:45:00 PM 6 42.8 0.088 6.94 1.68 12.52
11/3/2020 1:00:00 PM 6.1 42.98 0.088 6.91 1.68 12.5
11/3/2020 1:15:00 PM 6.16 43.088 0.088 6.96 1.7 12.48
11/3/2020 1:30:00 PM 6.23 43.214 0.088 6.95 1.72 12.45
11/3/2020 1:45:00 PM 6.27 43.286 0.088 6.95 1.75 12.43
11/3/2020 2:00:00 PM 6.31 43.358 0.088 6.95 1.73 12.4
11/3/2020 2:15:00 PM 6.37 43.466 0.088 6.92 1.66 12.4
11/3/2020 2:30:00 PM 6.42 43.556 0.088 6.96 1.7 12.35
11/3/2020 2:45:00 PM 6.46 43.628 0.088 6.96 1.67 12.33
11/3/2020 3:00:00 PM 6.48 43.664 0.088 6.96 1.8 12.31
11/3/2020 3:15:00 PM 6.46 43.628 0.088 6.95 1.75 12.29
11/3/2020 3:30:00 PM 6.45 43.61 0.088 6.95 1.95 12.26
11/3/2020 3:45:00 PM 6.45 43.61 0.088 6.95 1.87 12.2
11/3/2020 4:00:00 PM 6.43 43.574 0.088 6.93 1.8 12.18
11/3/2020 4:15:00 PM 6.39 43.502 0.088 6.94 1.85 12.13
11/3/2020 4:30:00 PM 6.37 43.466 0.088 6.92 1.82 12.07
11/3/2020 4:45:00 PM 6.33 43.394 0.088 6.93 1.81 12.05
11/3/2020 5:00:00 PM 6.29 43.322 0.089 6.92 1.97 12
11/3/2020 5:15:00 PM 6.27 43.286 0.089 6.92 1.9 11.96
11/3/2020 5:30:00 PM 6.22 43.196 0.089 6.88 1.91 11.94
11/3/2020 5:45:00 PM 6.22 43.196 0.089 6.87 2.21 11.9
11/3/2020 6:00:00 PM 6.18 43.124 0.089 6.89 2 11.89
11/3/2020 6:15:00 PM 6.15 43.07 0.089 6.84 1.97 11.89
11/3/2020 6:30:00 PM 6.13 43.034 0.089 6.87 1.98 11.87
11/3/2020 6:45:00 PM 6.05 42.89 0.089 6.87 1.89 11.89
11/3/2020 7:00:00 PM 6 42.8 0.089 6.86 1.99 11.9
11/3/2020 7:15:00 PM 5.92 42.656 0.089 6.87 1.81 11.93
11/3/2020 7:30:00 PM 5.85 42.53 0.089 6.86 1.98 11.97
11/3/2020 7:45:00 PM 5.81 42.458 0.089 6.86 1.8 11.97
11/3/2020 8:00:00 PM 5.76 42.368 0.089 6.82 1.89 11.98
11/3/2020 8:15:00 PM 5.68 42.224 0.089 6.84 1.96 12.02
11/3/2020 8:30:00 PM 5.62 42.116 0.09 6.86 1.96 12.03
11/3/2020 8:45:00 PM 5.57 42.026 0.089 6.85 1.91 12.05
11/3/2020 9:00:00 PM 5.5 41.9 0.09 6.85 1.93 12.06
11/3/2020 9:15:00 PM 5.41 41.738 0.09 6.83 1.96 12.1
11/3/2020 9:30:00 PM 5.37 41.666 0.09 6.85 1.87 12.11
11/3/2020 9:45:00 PM 5.32 41.576 0.09 6.85 1.95 12.14
11/3/2020 10:00:00 PM 5.25 41.45 0.09 6.82 1.9 12.16
11/3/2020 10:15:00 PM 5.18 41.324 0.09 6.86 1.89 12.19
11/3/2020 10:30:00 PM 5.14 41.252 0.09 6.85 1.81 12.21
11/3/2020 10:45:00 PM 5.11 41.198 0.09 6.85 1.93 12.23
11/3/2020 11:00:00 PM 5.02 41.036 0.09 6.85 1.93 12.26
11/3/2020 11:15:00 PM 4.99 40.982 0.09 6.86 1.91 12.28
11/3/2020 11:30:00 PM 4.93 40.874 0.09 6.86 1.9 12.32
11/3/2020 11:45:00 PM 4.89 40.802 0.09 6.86 1.82 12.34
11/4/2020 12:00:00 AM 4.82 40.676 0.09 6.87 1.88 12.37
11/4/2020 12:15:00 AM 4.77 40.586 0.09 6.86 1.91 12.37
11/4/2020 12:30:00 AM 4.74 40.532 0.09 6.85 1.86 12.35
11/4/2020 12:45:00 AM 4.69 40.442 0.09 6.85 1.88 12.4
11/4/2020 1:00:00 AM 4.65 40.37 0.09 6.86 1.93 12.41
11/4/2020 1:15:00 AM 4.6 40.28 0.09 6.85 1.87 12.41
11/4/2020 1:30:00 AM 4.55 40.19 0.09 6.86 1.94 12.46
11/4/2020 1:45:00 AM 4.51 40.118 0.09 6.85 2.19 12.48
11/4/2020 2:00:00 AM 4.47 40.046 0.09 6.83 1.96 12.49
11/4/2020 2:15:00 AM 4.42 39.956 0.09 6.84 1.83 12.48
11/4/2020 2:30:00 AM 4.4 39.92 0.09 6.84 1.91 12.48
11/4/2020 2:45:00 AM 4.35 39.83 0.09 6.84 1.97 12.53
11/4/2020 3:00:00 AM 4.33 39.794 0.09 6.83 1.87 12.51
11/4/2020 3:15:00 AM 4.26 39.668 0.09 6.84 1.89 12.57
11/4/2020 3:30:00 AM 4.24 39.632 0.09 6.83 1.72 12.54
11/4/2020 3:45:00 AM 4.19 39.542 0.09 6.84 1.81 12.57
11/4/2020 4:00:00 AM 4.14 39.452 0.09 6.84 1.81 12.6
11/4/2020 4:15:00 AM 4.08 39.344 0.09 6.85 1.69 12.63
11/4/2020 4:30:00 AM 4.06 39.308 0.09 6.84 1.73 12.64
11/4/2020 4:45:00 AM 4.01 39.218 0.09 6.85 1.83 12.67
11/4/2020 5:00:00 AM 3.98 39.164 0.09 6.84 1.78 12.67
11/4/2020 5:15:00 AM 3.94 39.092 0.09 6.84 1.74 12.69
11/4/2020 5:30:00 AM 3.87 38.966 0.09 6.84 1.8 12.71
11/4/2020 5:45:00 AM 3.83 38.894 0.09 6.85 1.7 12.74
11/4/2020 6:00:00 AM 3.83 38.894 0.09 6.81 1.69 12.74
11/4/2020 6:15:00 AM 3.76 38.768 0.09 6.82 1.78 12.77
11/4/2020 6:30:00 AM 3.72 38.696 0.09 6.86 1.83 12.8
11/4/2020 6:45:00 AM 3.7 38.66 0.09 6.84 1.71 12.81
11/4/2020 7:00:00 AM 3.65 38.57 0.09 6.85 1.74 12.84
11/4/2020 7:15:00 AM 3.66 38.588 0.09 6.84 2.26 12.84
11/4/2020 7:30:00 AM 3.64 38.552 0.09 6.85 1.78 12.92
11/4/2020 7:45:00 AM 3.63 38.534 0.09 6.86 1.64 12.96
11/4/2020 8:00:00 AM 3.62 38.516 0.09 6.78 1.92 13.04
11/4/2020 8:15:00 AM 3.64 38.552 0.09 6.88 1.65 13.08
11/4/2020 8:30:00 AM 3.66 38.588 0.09 6.83 1.75 13.15
11/4/2020 8:45:00 AM 3.71 38.678 0.09 6.86 1.75 13.2
11/4/2020 9:00:00 AM 3.77 38.786 0.09 6.93 1.63 13.22
11/4/2020 9:15:00 AM 3.92 39.056 0.089 6.93 1.59 13.23
11/4/2020 9:30:00 AM 4.03 39.254 0.089 6.95 1.63 13.25
11/4/2020 9:45:00 AM 4.23 39.614 0.089 6.96 1.61 13.22
11/4/2020 10:00:00 AM 4.38 39.884 0.089 6.97 1.51 13.22
11/4/2020 10:15:00 AM 4.59 40.262 0.089 6.91 1.64 13.18
11/4/2020 10:30:00 AM 4.8 40.64 0.089 6.95 1.62 13.15
11/4/2020 10:45:00 AM 5.04 41.072 0.089 7 1.57 13.09
11/4/2020 11:00:00 AM 5.29 41.522 0.089 6.98 1.56 13
11/4/2020 11:15:00 AM 5.55 41.99 0.089 6.97 1.61 12.96
11/4/2020 11:30:00 AM 5.81 42.458 0.088 7.02 1.54 12.88
11/4/2020 11:45:00 AM 6.06 42.908 0.088 7.02 1.48 12.81
11/4/2020 12:00:00 PM 6.29 43.322 0.088 7.02 1.55 12.75
11/4/2020 12:15:00 PM 6.51 43.718 0.088 7.02 1.54 12.65
11/4/2020 12:30:00 PM 6.7 44.06 0.088 7.02 1.56 12.58
11/4/2020 12:45:00 PM 6.87 44.366 0.088 7.02 1.55 12.54
11/4/2020 1:00:00 PM 7 44.6 0.088 6.98 1.55 12.44
11/4/2020 1:15:00 PM 7.1 44.78 0.088 7.03 1.8 12.41
11/4/2020 1:30:00 PM 7.19 44.942 0.088 7.01 1.53 12.34
11/4/2020 1:45:00 PM 7.26 45.068 0.088 7.02 1.65 12.3
11/4/2020 2:00:00 PM 7.33 45.194 0.088 7.03 1.64 12.28
11/4/2020 2:15:00 PM 7.38 45.284 0.088 7.02 1.62 12.2
11/4/2020 2:30:00 PM 7.44 45.392 0.088 7.02 1.58 12.16
11/4/2020 2:45:00 PM 7.48 45.464 0.088 7.02 1.74 12.11
11/4/2020 3:00:00 PM 7.52 45.536 0.088 6.96 1.78 12.06
11/4/2020 3:15:00 PM 7.54 45.572 0.088 6.99 1.58 11.97
11/4/2020 3:30:00 PM 7.55 45.59 0.088 6.88 2.26 11.96
11/4/2020 3:45:00 PM 7.56 45.608 0.088 6.99 1.69 11.88
11/4/2020 4:00:00 PM 7.55 45.59 0.088 6.99 1.83 11.85
11/4/2020 4:15:00 PM 7.54 45.572 0.089 7 2.01 11.85
11/4/2020 4:30:00 PM 7.57 45.626 0.088 7 1.85 11.8
11/4/2020 4:45:00 PM 7.56 45.608 0.089 7 1.95 11.78
11/4/2020 5:00:00 PM 7.56 45.608 0.089 6.98 1.76 11.72
11/4/2020 5:15:00 PM 7.53 45.554 0.089 6.92 1.75 11.68
11/4/2020 5:30:00 PM 7.49 45.482 0.089 6.97 1.95 11.68
11/4/2020 5:45:00 PM 7.46 45.428 0.089 6.95 2.25 11.65
11/4/2020 6:00:00 PM 7.41 45.338 0.089 6.95 1.84 11.64
11/4/2020 6:15:00 PM 7.37 45.266 0.089 6.9 1.84 11.65
11/4/2020 6:30:00 PM 7.31 45.158 0.089 6.94 1.94 11.65
11/4/2020 6:45:00 PM 7.28 45.104 0.089 6.93 1.99 11.64
11/4/2020 7:00:00 PM 7.22 44.996 0.089 6.91 1.78 11.64
11/4/2020 7:15:00 PM 7.15 44.87 0.089 6.92 1.72 11.67
11/4/2020 7:30:00 PM 7.09 44.762 0.089 6.92 2.07 11.7
11/4/2020 7:45:00 PM 7.04 44.672 0.089 6.91 2.01 11.69
11/4/2020 8:00:00 PM 6.99 44.582 0.089 6.92 2.02 11.73
11/4/2020 8:15:00 PM 6.92 44.456 0.089 6.92 1.79 11.75
11/4/2020 8:30:00 PM 6.86 44.348 0.09 6.91 2.3 11.77
11/4/2020 8:45:00 PM 6.82 44.276 0.09 6.9 1.91 11.75
11/4/2020 9:00:00 PM 6.73 44.114 0.09 6.92 1.92 11.8
11/4/2020 9:15:00 PM 6.67 44.006 0.09 6.91 2.03 11.83
11/4/2020 9:30:00 PM 6.61 43.898 0.09 6.91 2.01 11.85
11/4/2020 9:45:00 PM 6.54 43.772 0.09 6.85 1.95 11.87
11/4/2020 10:00:00 PM 6.49 43.682 0.09 6.85 1.85 11.89
11/4/2020 10:15:00 PM 6.41 43.538 0.09 6.91 2.09 11.91
11/4/2020 10:30:00 PM 6.33 43.394 0.09 6.91 1.88 11.95
11/4/2020 10:45:00 PM 6.28 43.304 0.09 6.91 1.93 11.95
11/4/2020 11:00:00 PM 6.22 43.196 0.09 6.89 1.93 11.97
11/4/2020 11:15:00 PM 6.16 43.088 0.09 6.91 1.78 11.99
11/4/2020 11:30:00 PM 6.09 42.962 0.091 6.91 2.02 12.02
11/4/2020 11:45:00 PM 6.03 42.854 0.091 6.91 1.74 12.04
11/5/2020 12:00:00 AM 5.99 42.782 0.091 6.91 1.84 12.05
11/5/2020 12:15:00 AM 5.92 42.656 0.091 6.87 2.05 12.08
11/5/2020 12:30:00 AM 5.88 42.584 0.091 6.91 1.83 12.07
11/5/2020 12:45:00 AM 5.82 42.476 0.091 6.87 1.99 12.1
11/5/2020 1:00:00 AM 5.77 42.386 0.091 6.91 1.87 12.13
11/5/2020 1:15:00 AM 5.72 42.296 0.091 6.91 1.96 12.15
11/5/2020 1:30:00 AM 5.69 42.242 0.091 6.9 1.87 12.15
11/5/2020 1:45:00 AM 5.62 42.116 0.091 6.85 1.88 12.18
11/5/2020 2:00:00 AM 5.58 42.044 0.091 6.9 1.68 12.19
11/5/2020 2:15:00 AM 5.52 41.936 0.091 6.9 1.85 12.21
11/5/2020 2:30:00 AM 5.49 41.882 0.091 6.9 1.74 12.21
11/5/2020 2:45:00 AM 5.44 41.792 0.091 6.87 1.71 12.24
11/5/2020 3:00:00 AM 5.4 41.72 0.091 6.91 1.83 12.25
11/5/2020 3:15:00 AM 5.35 41.63 0.091 6.87 1.84 12.26
11/5/2020 3:30:00 AM 5.31 41.558 0.091 6.87 1.74 12.28
11/5/2020 3:45:00 AM 5.28 41.504 0.091 6.86 1.73 12.29
11/5/2020 4:00:00 AM 5.23 41.414 0.091 6.91 1.67 12.31
11/5/2020 4:15:00 AM 5.19 41.342 0.091 6.86 1.95 12.31
11/5/2020 4:30:00 AM 5.15 41.27 0.091 6.87 1.79 12.34
11/5/2020 4:45:00 AM 5.12 41.216 0.091 6.89 1.91 12.35
11/5/2020 5:00:00 AM 5.09 41.162 0.091 6.91 1.66 12.35
11/5/2020 5:15:00 AM 5.05 41.09 0.091 6.9 1.91 12.36
11/5/2020 5:30:00 AM 5.01 41.018 0.091 6.91 1.75 12.37
11/5/2020 5:45:00 AM 4.98 40.964 0.091 6.86 1.69 12.38
11/5/2020 6:00:00 AM 4.95 40.91 0.091 6.9 1.65 12.4
11/5/2020 6:15:00 AM 4.93 40.874 0.091 6.9 1.64 12.39
11/5/2020 6:30:00 AM 4.88 40.784 0.091 6.9 1.62 12.41
11/5/2020 6:45:00 AM 4.85 40.73 0.091 6.9 1.82 12.44
11/5/2020 7:00:00 AM 4.83 40.694 0.091 6.9 1.81 12.46
11/5/2020 7:15:00 AM 4.79 40.622 0.091 6.91 1.68 12.51
11/5/2020 7:30:00 AM 4.77 40.586 0.091 6.91 1.86 12.55
11/5/2020 7:45:00 AM 4.76 40.568 0.091 6.9 1.58 12.61
11/5/2020 8:00:00 AM 4.78 40.604 0.091 6.87 1.59 12.66
11/5/2020 8:15:00 AM 4.8 40.64 0.091 6.94 1.72 12.75
11/5/2020 8:30:00 AM 4.85 40.73 0.091 6.88 1.56 12.79
11/5/2020 8:45:00 AM 4.91 40.838 0.091 6.96 1.58 12.84
11/5/2020 9:00:00 AM 5 41 0.091 6.98 1.61 12.88
11/5/2020 9:15:00 AM 5.14 41.252 0.09 6.99 1.49 12.92
11/5/2020 9:30:00 AM 5.29 41.522 0.09 6.96 1.57 12.92
11/5/2020 9:45:00 AM 5.48 41.864 0.09 7.03 1.47 12.93
11/5/2020 10:00:00 AM 5.7 42.26 0.09 6.96 1.62 12.91
11/5/2020 10:15:00 AM 5.93 42.674 0.09 7.06 1.65 12.86
11/5/2020 10:30:00 AM 6.16 43.088 0.09 7.05 1.55 12.83
11/5/2020 10:45:00 AM 6.4 43.52 0.09 7.07 1.53 12.79
11/5/2020 11:00:00 AM 6.67 44.006 0.09 7.08 1.67 12.73
11/5/2020 11:15:00 AM 6.95 44.51 0.089 7.06 1.53 12.66
11/5/2020 11:30:00 AM 7.21 44.978 0.089 7.03 1.66 12.61
11/5/2020 11:45:00 AM 7.47 45.446 0.089 7.11 1.56 12.54
11/5/2020 12:00:00 PM 7.73 45.914 0.089 7.12 1.81 12.47
11/5/2020 12:15:00 PM 7.94 46.292 0.089 7.1 1.45 12.39
11/5/2020 12:30:00 PM 8.13 46.634 0.089 7.13 1.46 12.33
11/5/2020 12:45:00 PM 8.3 46.94 0.089 7.14 1.64 12.27
11/5/2020 1:00:00 PM 8.42 47.156 0.089 7.07 1.61 12.19
11/5/2020 1:15:00 PM 8.52 47.336 0.089 7.11 1.57 12.14
11/5/2020 1:30:00 PM 8.6 47.48 0.089 7.13 1.58 12.12
11/5/2020 1:45:00 PM 8.65 47.57 0.089 7.07 1.46 12.07
11/5/2020 2:00:00 PM 8.71 47.678 0.089 7.13 1.76 12.03
11/5/2020 2:15:00 PM 8.77 47.786 0.089 7.11 1.74 11.96
11/5/2020 2:30:00 PM 8.81 47.858 0.089 7.04 1.65 11.9
11/5/2020 2:45:00 PM 8.85 47.93 0.089 7.13 1.64 11.88
11/5/2020 3:00:00 PM 8.87 47.966 0.089 7.11 1.69 11.84
11/5/2020 3:15:00 PM 8.89 48.002 0.089 7.09 1.84 11.8
11/5/2020 3:30:00 PM 8.9 48.02 0.089 7.03 1.83 11.74
11/5/2020 3:45:00 PM 8.91 48.038 0.089 7.1 1.81 11.69
11/5/2020 4:00:00 PM 8.91 48.038 0.089 7.07 1.79 11.62
11/5/2020 4:15:00 PM 8.92 48.056 0.089 7.07 1.86 11.56
11/5/2020 4:30:00 PM 8.92 48.056 0.089 6.98 1.83 11.48
11/5/2020 4:45:00 PM 8.92 48.056 0.09 7.04 1.98 11.42
11/5/2020 5:00:00 PM 8.91 48.038 0.09 7.03 1.75 11.34
11/5/2020 5:15:00 PM 8.9 48.02 0.09 7.01 2.23 11.29
11/5/2020 5:30:00 PM 8.87 47.966 0.09 7 2.24 11.25
11/5/2020 5:45:00 PM 8.85 47.93 0.09 6.98 2.24 11.19
11/5/2020 6:00:00 PM 8.81 47.858 0.09 6.98 2.02 11.17
11/5/2020 6:15:00 PM 8.77 47.786 0.09 6.96 1.92 11.17
11/5/2020 6:30:00 PM 8.74 47.732 0.09 6.95 2.3 11.16
11/5/2020 6:45:00 PM 8.69 47.642 0.091 6.96 2.15 11.17
11/5/2020 7:00:00 PM 8.64 47.552 0.091 6.91 2.11 11.18
11/5/2020 7:15:00 PM 8.58 47.444 0.091 6.94 1.99 11.18
11/5/2020 7:30:00 PM 8.52 47.336 0.091 6.93 2 11.21
11/5/2020 7:45:00 PM 8.46 47.228 0.091 6.94 2.2 11.21
11/5/2020 8:00:00 PM 8.38 47.084 0.091 6.88 2.2 11.22
11/5/2020 8:15:00 PM 8.3 46.94 0.091 6.94 2.07 11.26
11/5/2020 8:30:00 PM 8.23 46.814 0.091 6.93 1.94 11.28
11/5/2020 8:45:00 PM 8.16 46.688 0.091 6.85 1.83 11.29
11/5/2020 9:00:00 PM 8.09 46.562 0.091 6.93 2.05 11.31
11/5/2020 9:15:00 PM 8.02 46.436 0.091 6.88 1.9 11.33
11/5/2020 9:30:00 PM 7.94 46.292 0.091 6.92 2.03 11.35
11/5/2020 9:45:00 PM 7.87 46.166 0.091 6.92 1.91 11.38
11/5/2020 10:00:00 PM 7.81 46.058 0.092 6.91 2.06 11.39
11/5/2020 10:15:00 PM 7.75 45.95 0.092 6.9 1.81 11.43
11/5/2020 10:30:00 PM 7.68 45.824 0.092 6.87 1.95 11.45
11/5/2020 10:45:00 PM 7.63 45.734 0.092 6.92 1.78 11.46
11/5/2020 11:00:00 PM 7.56 45.608 0.092 6.92 1.87 11.48
11/5/2020 11:15:00 PM 7.51 45.518 0.092 6.91 2.16 11.49
11/5/2020 11:30:00 PM 7.45 45.41 0.092 6.92 2 11.53
11/5/2020 11:45:00 PM 7.39 45.302 0.092 6.91 2 11.56
11/6/2020 12:00:00 AM 7.35 45.23 0.092 6.91 1.93 11.55
11/6/2020 12:15:00 AM 7.3 45.14 0.092 6.92 1.88 11.57
11/6/2020 12:30:00 AM 7.25 45.05 0.092 6.92 1.92 11.59
11/6/2020 12:45:00 AM 7.21 44.978 0.092 6.91 1.88 11.6
11/6/2020 1:00:00 AM 7.17 44.906 0.092 6.91 2.06 11.6
11/6/2020 1:15:00 AM 7.12 44.816 0.092 6.91 1.83 11.63
11/6/2020 1:30:00 AM 7.08 44.744 0.092 6.92 1.72 11.66
11/6/2020 1:45:00 AM 7.05 44.69 0.092 6.89 1.88 11.67
11/6/2020 2:00:00 AM 7.01 44.618 0.092 6.92 1.7 11.67
11/6/2020 2:15:00 AM 6.96 44.528 0.092 6.92 2.06 11.69
11/6/2020 2:30:00 AM 6.92 44.456 0.092 6.92 1.89 11.71
11/6/2020 2:45:00 AM 6.87 44.366 0.092 6.92 1.91 11.72
11/6/2020 3:00:00 AM 6.83 44.294 0.092 6.91 1.92 11.74
11/6/2020 3:15:00 AM 6.78 44.204 0.092 6.92 1.81 11.76
11/6/2020 3:30:00 AM 6.75 44.15 0.092 6.83 1.87 11.75
11/6/2020 3:45:00 AM 6.71 44.078 0.092 6.91 1.8 11.76
11/6/2020 4:00:00 AM 6.66 43.988 0.092 6.91 1.84 11.78
11/6/2020 4:15:00 AM 6.62 43.916 0.092 6.91 1.77 11.78
11/6/2020 4:30:00 AM 6.58 43.844 0.092 6.9 1.85 11.79
11/6/2020 4:45:00 AM 6.53 43.754 0.092 6.91 1.78 11.82
11/6/2020 5:00:00 AM 6.48 43.664 0.092 6.9 1.96 11.83
11/6/2020 5:15:00 AM 6.44 43.592 0.092 6.9 1.92 11.85
11/6/2020 5:30:00 AM 6.38 43.484 0.092 6.9 1.85 11.86
11/6/2020 5:45:00 AM 6.33 43.394 0.092 6.91 1.8 11.88
11/6/2020 6:00:00 AM 6.28 43.304 0.092 6.9 2.17 11.89
11/6/2020 6:15:00 AM 6.23 43.214 0.092 6.9 1.67 11.9
11/6/2020 6:30:00 AM 6.19 43.142 0.092 6.9 1.83 11.9
11/6/2020 6:45:00 AM 6.12 43.016 0.092 6.9 1.81 11.95
11/6/2020 7:00:00 AM 6.07 42.926 0.092 6.9 1.86 11.99
11/6/2020 7:15:00 AM 6.03 42.854 0.092 6.91 1.76 12.04
11/6/2020 7:30:00 AM 5.99 42.782 0.092 6.93 1.8 12.13
11/6/2020 7:45:00 AM 5.96 42.728 0.092 6.93 1.67 12.21
11/6/2020 8:00:00 AM 5.96 42.728 0.092 6.94 1.77 12.28
11/6/2020 8:15:00 AM 5.97 42.746 0.092 6.96 1.66 12.38
11/6/2020 8:30:00 AM 6 42.8 0.092 6.97 1.61 12.46
11/6/2020 8:45:00 AM 6.05 42.89 0.092 7 1.55 12.53
11/6/2020 9:00:00 AM 6.12 43.016 0.091 7.01 1.56 12.58
11/6/2020 9:15:00 AM 6.23 43.214 0.091 7.03 1.61 12.62
11/6/2020 9:30:00 AM 6.35 43.43 0.091 7.05 1.7 12.67
11/6/2020 9:45:00 AM 6.51 43.718 0.091 7.07 1.67 12.68
11/6/2020 10:00:00 AM 6.71 44.078 0.091 7.08 1.89 12.67
11/6/2020 10:15:00 AM 6.92 44.456 0.091 7.09 1.62 12.64
11/6/2020 10:30:00 AM 7.13 44.834 0.091 7.11 1.56 12.63
11/6/2020 10:45:00 AM 7.35 45.23 0.091 7.14 1.54 12.61
11/6/2020 11:00:00 AM 7.59 45.662 0.09 7.06 1.6 12.54
11/6/2020 11:15:00 AM 7.84 46.112 0.09 7.16 1.6 12.49
11/6/2020 11:30:00 AM 8.11 46.598 0.09 7.18 1.48 12.44
11/6/2020 11:45:00 AM 8.38 47.084 0.09 7.19 1.59 12.38
11/6/2020 12:00:00 PM 8.62 47.516 0.09 7.2 1.64 12.33
11/6/2020 12:15:00 PM 8.83 47.894 0.09 7.21 1.52 12.26
11/6/2020 12:30:00 PM 9.01 48.218 0.09 7.22 1.67 12.2
11/6/2020 12:45:00 PM 9.16 48.488 0.09 7.21 1.68 12.13
11/6/2020 1:00:00 PM 9.28 48.704 0.09 7.22 1.7 12.08
11/6/2020 1:15:00 PM 9.38 48.884 0.09 7.23 1.58 12.03
11/6/2020 1:30:00 PM 9.46 49.028 0.09 7.22 1.76 11.96
11/6/2020 1:45:00 PM 9.52 49.136 0.09 7.21 1.92 11.9
11/6/2020 2:00:00 PM 9.57 49.226 0.09 7.22 1.7 11.85
11/6/2020 2:15:00 PM 9.6 49.28 0.09 7.22 1.63 11.79
11/6/2020 2:30:00 PM 9.63 49.334 0.09 7.19 1.76 11.73
11/6/2020 2:45:00 PM 9.65 49.37 0.09 7.18 5.16 11.66
11/6/2020 3:00:00 PM 9.66 49.388 0.09 7.18 1.71 11.61
11/6/2020 3:15:00 PM 9.65 49.37 0.09 7.15 1.73 11.54
11/6/2020 3:30:00 PM 9.63 49.334 0.09 7.15 1.7 11.49
11/6/2020 3:45:00 PM 9.6 49.28 0.09 7.13 1.77 11.41
11/6/2020 4:00:00 PM 9.56 49.208 0.09 7.05 1.81 11.36
11/6/2020 4:15:00 PM 9.54 49.172 0.09 7.11 1.93 11.31
11/6/2020 4:30:00 PM 9.54 49.172 0.09 7.09 1.78 11.25
11/6/2020 4:45:00 PM 9.53 49.154 0.09 7.07 1.85 11.18
11/6/2020 5:00:00 PM 9.52 49.136 0.091 7.06 1.8 11.12
11/6/2020 5:15:00 PM 9.5 49.1 0.091 6.96 1.79 11.07
11/6/2020 5:30:00 PM 9.47 49.046 0.091 7.03 1.98 11.01
11/6/2020 5:45:00 PM 9.43 48.974 0.091 7.02 1.98 11.01
11/6/2020 6:00:00 PM 9.38 48.884 0.091 7.01 1.93 10.98
11/6/2020 6:15:00 PM 9.33 48.794 0.091 6.99 2 10.97
11/6/2020 6:30:00 PM 9.29 48.722 0.091 6.99 2.01 10.97
11/6/2020 6:45:00 PM 9.24 48.632 0.091 6.99 2.04 10.97
11/6/2020 7:00:00 PM 9.19 48.542 0.092 6.98 1.97 10.97
11/6/2020 7:15:00 PM 9.14 48.452 0.092 6.97 2.14 10.98
11/6/2020 7:30:00 PM 9.09 48.362 0.092 6.97 1.94 10.99
11/6/2020 7:45:00 PM 9.03 48.254 0.092 6.95 2.05 11
11/6/2020 8:00:00 PM 8.97 48.146 0.092 6.96 1.9 11.02
11/6/2020 8:15:00 PM 8.91 48.038 0.092 6.92 1.93 11.03
11/6/2020 8:30:00 PM 8.85 47.93 0.092 6.94 1.9 11.04
11/6/2020 8:45:00 PM 8.78 47.804 0.092 6.95 1.87 11.07
11/6/2020 9:00:00 PM 8.72 47.696 0.092 6.94 1.97 11.09
11/6/2020 9:15:00 PM 8.65 47.57 0.092 6.94 2.02 11.12
11/6/2020 9:30:00 PM 8.57 47.426 0.092 6.95 1.95 11.14
11/6/2020 9:45:00 PM 8.5 47.3 0.092 6.94 2.01 11.15
11/6/2020 10:00:00 PM 8.42 47.156 0.092 6.94 1.91 11.18
11/6/2020 10:15:00 PM 8.35 47.03 0.092 6.94 1.92 11.2
11/6/2020 10:30:00 PM 8.26 46.868 0.093 6.94 1.89 11.23
11/6/2020 10:45:00 PM 8.18 46.724 0.093 6.95 1.81 11.27
11/6/2020 11:00:00 PM 8.1 46.58 0.093 6.87 1.89 11.29
11/6/2020 11:15:00 PM 8.02 46.436 0.093 6.95 1.97 11.3
11/6/2020 11:30:00 PM 7.94 46.292 0.093 6.94 1.9 11.34
11/6/2020 11:45:00 PM 7.86 46.148 0.093 6.94 1.91 11.36
11/7/2020 12:00:00 AM 7.8 46.04 0.093 6.9 1.97 11.37
11/7/2020 12:15:00 AM 7.72 45.896 0.093 6.94 2.09 11.42
11/7/2020 12:30:00 AM 7.66 45.788 0.093 6.93 1.79 11.41
11/7/2020 12:45:00 AM 7.58 45.644 0.093 6.87 1.83 11.45
11/7/2020 1:00:00 AM 7.51 45.518 0.093 6.93 1.89 11.48
11/7/2020 1:15:00 AM 7.45 45.41 0.093 6.85 1.82 11.48
11/7/2020 1:30:00 AM 7.38 45.284 0.093 6.94 1.81 11.52
11/7/2020 1:45:00 AM 7.32 45.176 0.093 6.87 1.86 11.53
11/7/2020 2:00:00 AM 7.25 45.05 0.093 6.94 1.86 11.56
11/7/2020 2:15:00 AM 7.2 44.96 0.093 6.93 1.72 11.56
11/7/2020 2:30:00 AM 7.11 44.798 0.093 6.93 1.78 11.6
11/7/2020 2:45:00 AM 7.07 44.726 0.093 6.92 1.74 11.61
11/7/2020 3:00:00 AM 6.99 44.582 0.093 6.89 1.94 11.64
11/7/2020 3:15:00 AM 6.93 44.474 0.093 6.93 1.78 11.66
11/7/2020 3:30:00 AM 6.87 44.366 0.093 6.85 2.12 11.67
11/7/2020 3:45:00 AM 6.81 44.258 0.093 6.93 1.75 11.7
11/7/2020 4:00:00 AM 6.75 44.15 0.093 6.93 1.78 11.72
11/7/2020 4:15:00 AM 6.69 44.042 0.093 6.93 1.75 11.74
11/7/2020 4:30:00 AM 6.63 43.934 0.093 6.93 1.65 11.75
11/7/2020 4:45:00 AM 6.57 43.826 0.093 6.93 1.74 11.78
11/7/2020 5:00:00 AM 6.51 43.718 0.093 6.92 1.68 11.79
11/7/2020 5:15:00 AM 6.46 43.628 0.093 6.88 1.87 11.81
11/7/2020 5:30:00 AM 6.4 43.52 0.093 6.86 1.73 11.83
11/7/2020 5:45:00 AM 6.34 43.412 0.093 6.93 1.64 11.85
11/7/2020 6:00:00 AM 6.29 43.322 0.093 6.92 1.69 11.87
11/7/2020 6:15:00 AM 6.22 43.196 0.093 6.93 1.81 11.9
11/7/2020 6:30:00 AM 6.19 43.142 0.093 6.92 1.71 11.91
11/7/2020 6:45:00 AM 6.12 43.016 0.093 6.92 1.82 11.94
11/7/2020 7:00:00 AM 6.07 42.926 0.093 6.88 1.79 11.99
11/7/2020 7:15:00 AM 6.04 42.872 0.093 6.89 1.68 12.05
11/7/2020 7:30:00 AM 5.99 42.782 0.093 6.95 1.77 12.13
11/7/2020 7:45:00 AM 5.96 42.728 0.093 6.95 1.62 12.22
11/7/2020 8:00:00 AM 5.94 42.692 0.093 6.97 1.68 12.32
11/7/2020 8:15:00 AM 5.97 42.746 0.092 6.92 1.99 12.4
11/7/2020 8:30:00 AM 5.99 42.782 0.092 7 1.59 12.51
11/7/2020 8:45:00 AM 6.04 42.872 0.092 7.01 1.62 12.58
11/7/2020 9:00:00 AM 6.1 42.98 0.092 7.03 1.56 12.65
11/7/2020 9:15:00 AM 6.2 43.16 0.092 7.05 1.64 12.72
11/7/2020 9:30:00 AM 6.32 43.376 0.092 7.07 1.57 12.75
11/7/2020 9:45:00 AM 6.48 43.664 0.092 7.08 2.81 12.76
11/7/2020 10:00:00 AM 6.66 43.988 0.092 7.1 1.57 12.77
11/7/2020 10:15:00 AM 6.85 44.33 0.092 7.08 1.58 12.78
11/7/2020 10:30:00 AM 7.05 44.69 0.092 7.09 1.53 12.76
11/7/2020 10:45:00 AM 7.27 45.086 0.092 7.17 1.68 12.73
11/7/2020 11:00:00 AM 7.51 45.518 0.091 7.18 1.49 12.69
11/7/2020 11:15:00 AM 7.77 45.986 0.091 7.19 1.58 12.64
11/7/2020 11:30:00 AM 8.04 46.472 0.091 7.21 1.44 12.59
11/7/2020 11:45:00 AM 8.31 46.958 0.091 7.24 1.55 12.54
11/7/2020 12:00:00 PM 8.57 47.426 0.091 7.24 1.51 12.47
11/7/2020 12:15:00 PM 8.82 47.876 0.091 7.26 1.53 12.42
11/7/2020 12:30:00 PM 9.04 48.272 0.091 7.24 1.45 12.39
11/7/2020 12:45:00 PM 9.2 48.56 0.091 7.28 1.49 12.29
11/7/2020 1:00:00 PM 9.34 48.812 0.091 7.27 1.54 12.24
11/7/2020 1:15:00 PM 9.46 49.028 0.091 7.28 1.91 12.19
11/7/2020 1:30:00 PM 9.55 49.19 0.091 7.27 1.63 12.14
11/7/2020 1:45:00 PM 9.59 49.262 0.091 7.29 1.72 12.09
11/7/2020 2:00:00 PM 9.64 49.352 0.091 7.29 1.67 12.03
11/7/2020 2:15:00 PM 9.69 49.442 0.091 7.28 1.63 11.98
11/7/2020 2:30:00 PM 9.74 49.532 0.091 7.27 1.67 11.93
11/7/2020 2:45:00 PM 9.78 49.604 0.091 7.27 1.76 11.88
11/7/2020 3:00:00 PM 9.79 49.622 0.091 7.2 2.05 11.79
11/7/2020 3:15:00 PM 9.79 49.622 0.091 7.23 1.59 11.67
11/7/2020 3:30:00 PM 9.78 49.604 0.091 7.22 1.65 11.61
11/7/2020 3:45:00 PM 9.73 49.514 0.091 7.13 1.59 11.54
11/7/2020 4:00:00 PM 9.69 49.442 0.091 7.17 1.65 11.45
11/7/2020 4:15:00 PM 9.65 49.37 0.091 7.16 1.95 11.39
11/7/2020 4:30:00 PM 9.63 49.334 0.091 7.13 1.66 11.29
11/7/2020 4:45:00 PM 9.61 49.298 0.091 7.12 1.69 11.21
11/7/2020 5:00:00 PM 9.59 49.262 0.092 7.1 1.79 11.14
11/7/2020 5:15:00 PM 9.57 49.226 0.092 7.07 1.75 11.07
11/7/2020 5:30:00 PM 9.53 49.154 0.092 7.06 1.68 11.03
11/7/2020 5:45:00 PM 9.49 49.082 0.092 7.03 2.08 10.99
11/7/2020 6:00:00 PM 9.44 48.992 0.092 7.04 1.96 10.98
11/7/2020 6:15:00 PM 9.39 48.902 0.092 6.99 1.9 10.96
11/7/2020 6:30:00 PM 9.33 48.794 0.092 7.01 1.82 10.95
11/7/2020 6:45:00 PM 9.29 48.722 0.093 7 1.83 10.95
11/7/2020 7:00:00 PM 9.24 48.632 0.093 6.98 1.89 10.95
11/7/2020 7:15:00 PM 9.19 48.542 0.093 6.98 2 10.95
11/7/2020 7:30:00 PM 9.14 48.452 0.093 6.97 1.98 10.96
11/7/2020 7:45:00 PM 9.08 48.344 0.093 6.97 1.7 10.98
11/7/2020 8:00:00 PM 9.03 48.254 0.093 6.89 2.05 10.99
11/7/2020 8:15:00 PM 8.97 48.146 0.093 6.97 1.83 11.01
11/7/2020 8:30:00 PM 8.9 48.02 0.093 6.96 1.8 11.04
11/7/2020 8:45:00 PM 8.84 47.912 0.093 6.96 1.77 11.05
11/7/2020 9:00:00 PM 8.77 47.786 0.094 6.96 2.04 11.07
11/7/2020 9:15:00 PM 8.7 47.66 0.094 6.94 1.77 11.08
11/7/2020 9:30:00 PM 8.63 47.534 0.094 6.95 1.86 11.12
11/7/2020 9:45:00 PM 8.55 47.39 0.094 6.92 1.78 11.13
11/7/2020 10:00:00 PM 8.48 47.264 0.094 6.96 1.78 11.16
11/7/2020 10:15:00 PM 8.4 47.12 0.094 6.92 1.98 11.18
11/7/2020 10:30:00 PM 8.32 46.976 0.094 6.95 1.87 11.21
11/7/2020 10:45:00 PM 8.23 46.814 0.094 6.94 2.06 11.23
11/7/2020 11:00:00 PM 8.15 46.67 0.094 6.93 1.82 11.25
11/7/2020 11:15:00 PM 8.06 46.508 0.094 6.95 1.86 11.29
11/7/2020 11:30:00 PM 7.98 46.364 0.094 6.94 1.81 11.31
11/7/2020 11:45:00 PM 7.9 46.22 0.094 6.91 1.88 11.34
11/8/2020 12:00:00 AM 7.82 46.076 0.094 6.95 1.72 11.36
11/8/2020 12:15:00 AM 7.74 45.932 0.094 6.95 1.88 11.4
11/8/2020 12:30:00 AM 7.66 45.788 0.094 6.94 1.84 11.41
11/8/2020 12:45:00 AM 7.59 45.662 0.094 6.93 1.75 11.42
11/8/2020 1:00:00 AM 7.51 45.518 0.094 6.86 1.67 11.47
11/8/2020 1:15:00 AM 7.43 45.374 0.094 6.95 1.67 11.48
11/8/2020 1:30:00 AM 7.36 45.248 0.094 6.94 1.76 11.51
11/8/2020 1:45:00 AM 7.29 45.122 0.094 6.9 1.74 11.54
11/8/2020 2:00:00 AM 7.23 45.014 0.094 6.94 1.89 11.54
11/8/2020 2:15:00 AM 7.15 44.87 0.094 6.93 1.73 11.57
11/8/2020 2:30:00 AM 7.08 44.744 0.094 6.94 1.7 11.6
11/8/2020 2:45:00 AM 7.01 44.618 0.094 6.87 1.67 11.64
11/8/2020 3:00:00 AM 6.94 44.492 0.094 6.95 1.73 11.65
11/8/2020 3:15:00 AM 6.88 44.384 0.094 6.94 1.6 11.66
11/8/2020 3:30:00 AM 6.81 44.258 0.094 6.93 1.71 11.68
11/8/2020 3:45:00 AM 6.74 44.132 0.094 6.94 1.72 11.72
11/8/2020 4:00:00 AM 6.69 44.042 0.094 6.93 1.56 11.74
11/8/2020 4:15:00 AM 6.63 43.934 0.094 6.93 1.59 11.74
11/8/2020 4:30:00 AM 6.56 43.808 0.095 6.87 1.73 11.77
11/8/2020 4:45:00 AM 6.49 43.682 0.095 6.93 1.64 11.8
11/8/2020 5:00:00 AM 6.42 43.556 0.095 6.94 1.66 11.82
11/8/2020 5:15:00 AM 6.36 43.448 0.095 6.94 1.72 11.84
11/8/2020 5:30:00 AM 6.3 43.34 0.095 6.93 1.81 11.86
11/8/2020 5:45:00 AM 6.23 43.214 0.095 6.93 1.63 11.89
11/8/2020 6:00:00 AM 6.17 43.106 0.095 6.93 1.78 11.91
11/8/2020 6:15:00 AM 6.12 43.016 0.095 6.93 1.58 11.92
11/8/2020 6:30:00 AM 6.05 42.89 0.095 6.93 1.75 11.96
11/8/2020 6:45:00 AM 5.99 42.782 0.095 6.93 1.69 11.98
11/8/2020 7:00:00 AM 5.95 42.71 0.095 6.85 1.79 12.01
11/8/2020 7:15:00 AM 5.88 42.584 0.094 6.94 2.98 12.1
11/8/2020 7:30:00 AM 5.83 42.494 0.094 6.95 1.81 12.19
11/8/2020 7:45:00 AM 5.8 42.44 0.094 6.96 1.65 12.28
11/8/2020 8:00:00 AM 5.79 42.422 0.094 6.97 1.58 12.38
11/8/2020 8:15:00 AM 5.79 42.422 0.094 6.99 1.53 12.5
11/8/2020 8:30:00 AM 5.81 42.458 0.094 7.01 1.67 12.61
11/8/2020 8:45:00 AM 5.84 42.512 0.094 7.02 1.49 12.71
11/8/2020 9:00:00 AM 5.91 42.638 0.094 7.02 1.51 12.78
11/8/2020 9:15:00 AM 6 42.8 0.094 7.07 1.53 12.85
11/8/2020 9:30:00 AM 6.12 43.016 0.093 7.07 1.48 12.91
11/8/2020 9:45:00 AM 6.26 43.268 0.093 7.12 3.46 12.94
11/8/2020 10:00:00 AM 6.45 43.61 0.093 7.09 1.48 12.95
11/8/2020 10:15:00 AM 6.65 43.97 0.093 7.15 1.5 12.94
11/8/2020 10:30:00 AM 6.86 44.348 0.093 7.17 1.44 12.93
11/8/2020 10:45:00 AM 7.08 44.744 0.093 7.18 1.46 12.91
11/8/2020 11:00:00 AM 7.31 45.158 0.092 7.2 1.42 12.87
11/8/2020 11:15:00 AM 7.56 45.608 0.092 7.22 1.51 12.82
11/8/2020 11:30:00 AM 7.83 46.094 0.092 7.24 1.63 12.76
11/8/2020 11:45:00 AM 8.11 46.598 0.092 7.23 1.3 12.71
11/8/2020 12:00:00 PM 8.37 47.066 0.092 7.28 1.53 12.65
11/8/2020 12:15:00 PM 8.6 47.48 0.092 7.27 1.46 12.56
11/8/2020 12:30:00 PM 8.8 47.84 0.092 7.25 1.47 12.49
11/8/2020 12:45:00 PM 8.97 48.146 0.092 7.31 1.55 12.45
11/8/2020 1:00:00 PM 9.1 48.38 0.092 7.31 1.49 12.38
11/8/2020 1:15:00 PM 9.2 48.56 0.092 7.3 1.55 12.31
11/8/2020 1:30:00 PM 9.28 48.704 0.092 7.3 1.68 12.25
11/8/2020 1:45:00 PM 9.33 48.794 0.092 7.24 1.48 12.16
11/8/2020 2:00:00 PM 9.37 48.866 0.092 7.28 1.67 12.11
11/8/2020 2:15:00 PM 9.41 48.938 0.092 7.28 1.5 12.06
11/8/2020 2:30:00 PM 9.43 48.974 0.092 7.26 1.39 11.98
11/8/2020 2:45:00 PM 9.44 48.992 0.092 7.24 1.51 11.9
11/8/2020 3:00:00 PM 9.44 48.992 0.092 7.22 1.69 11.83
11/8/2020 3:15:00 PM 9.42 48.956 0.087 7.16 3.33 11.76
11/8/2020 3:30:00 PM 9.4 48.92 0.092 7.09 1.52 11.66
11/8/2020 3:45:00 PM 9.34 48.812 0.092 7.17 1.63 11.62
11/8/2020 4:00:00 PM 9.28 48.704 0.092 7.14 1.73 11.55
11/8/2020 4:15:00 PM 9.24 48.632 0.092 7.12 1.71 11.48
11/8/2020 4:30:00 PM 9.21 48.578 0.092 7.11 1.53 11.42
11/8/2020 4:45:00 PM 9.19 48.542 0.092 7.09 1.57 11.36
11/8/2020 5:00:00 PM 9.17 48.506 0.092 7 1.81 11.28
11/8/2020 5:15:00 PM 9.15 48.47 0.092 7.04 1.59 11.22
11/8/2020 5:30:00 PM 9.12 48.416 0.092 7.02 1.97 11.13
11/8/2020 5:45:00 PM 9.06 48.308 0.093 7.04 1.69 11.14
11/8/2020 6:00:00 PM 9.01 48.218 0.093 7.03 1.77 11.13
11/8/2020 6:15:00 PM 8.96 48.128 0.093 7.02 1.89 11.12
11/8/2020 6:30:00 PM 8.91 48.038 0.093 7 2.17 11.09
11/8/2020 6:45:00 PM 8.86 47.948 0.093 6.93 1.8 11.1
11/8/2020 7:00:00 PM 8.82 47.876 0.093 6.95 1.9 11.1
11/8/2020 7:15:00 PM 8.77 47.786 0.093 6.99 1.77 11.11
11/8/2020 7:30:00 PM 8.74 47.732 0.093 6.98 1.73 11.11
11/8/2020 7:45:00 PM 8.68 47.624 0.094 6.97 1.75 11.12
11/8/2020 8:00:00 PM 8.64 47.552 0.094 6.97 1.71 11.14
11/8/2020 8:15:00 PM 8.58 47.444 0.094 6.97 1.85 11.14
11/8/2020 8:30:00 PM 8.52 47.336 0.094 6.96 1.7 11.16
11/8/2020 8:45:00 PM 8.46 47.228 0.094 6.96 1.72 11.19
11/8/2020 9:00:00 PM 8.39 47.102 0.094 6.96 1.76 11.2
11/8/2020 9:15:00 PM 8.33 46.994 0.094 6.96 1.8 11.21
11/8/2020 9:30:00 PM 8.25 46.85 0.094 6.95 1.61 11.24
11/8/2020 9:45:00 PM 8.18 46.724 0.094 6.96 1.67 11.27
11/8/2020 10:00:00 PM 8.1 46.58 0.094 6.95 1.67 11.29
11/8/2020 10:15:00 PM 8.02 46.436 0.094 6.95 1.71 11.31
11/8/2020 10:30:00 PM 7.94 46.292 0.094 6.94 1.71 11.33
11/8/2020 10:45:00 PM 7.87 46.166 0.094 6.94 1.75 11.35
11/8/2020 11:00:00 PM 7.77 45.986 0.095 6.95 1.69 11.4
11/8/2020 11:15:00 PM 7.69 45.842 0.095 6.95 1.59 11.41
11/8/2020 11:30:00 PM 7.61 45.698 0.095 6.92 1.86 11.43
11/8/2020 11:45:00 PM 7.53 45.554 0.095 6.91 1.78 11.46
11/9/2020 12:00:00 AM 7.45 45.41 0.095 6.94 1.59 11.48
11/9/2020 12:15:00 AM 7.37 45.266 0.095 6.95 1.77 11.51
11/9/2020 12:30:00 AM 7.3 45.14 0.095 6.94 1.67 11.52
11/9/2020 12:45:00 AM 7.23 45.014 0.095 6.94 1.57 11.56
11/9/2020 1:00:00 AM 7.16 44.888 0.095 6.94 1.65 11.58
11/9/2020 1:15:00 AM 7.1 44.78 0.095 6.86 1.6 11.6
11/9/2020 1:30:00 AM 7.01 44.618 0.095 6.95 1.48 11.62
11/9/2020 1:45:00 AM 6.95 44.51 0.095 6.94 1.82 11.65
11/9/2020 2:00:00 AM 6.88 44.384 0.095 6.94 1.57 11.67
11/9/2020 2:15:00 AM 6.82 44.276 0.095 6.88 1.66 11.69
11/9/2020 2:30:00 AM 6.76 44.168 0.095 6.94 2.24 11.7
11/9/2020 2:45:00 AM 6.69 44.042 0.095 6.94 1.61 11.74
11/9/2020 3:00:00 AM 6.63 43.934 0.095 6.94 2.66 11.75
11/9/2020 3:15:00 AM 6.57 43.826 0.095 6.94 1.72 11.76
11/9/2020 3:30:00 AM 6.5 43.7 0.095 6.94 1.49 11.8
11/9/2020 3:45:00 AM 6.45 43.61 0.095 6.93 2.53 11.79
11/9/2020 4:00:00 AM 6.39 43.502 0.095 6.85 1.54 11.82
11/9/2020 4:15:00 AM 6.32 43.376 0.095 6.95 1.66 11.86
11/9/2020 4:30:00 AM 6.26 43.268 0.095 6.94 1.55 11.87
11/9/2020 4:45:00 AM 6.2 43.16 0.095 6.94 1.58 11.89
11/9/2020 5:00:00 AM 6.15 43.07 0.095 6.93 1.64 11.91
11/9/2020 5:15:00 AM 6.08 42.944 0.095 6.94 1.47 11.94
11/9/2020 5:30:00 AM 6.04 42.872 0.095 6.93 1.59 11.95
11/9/2020 5:45:00 AM 5.97 42.746 0.095 6.93 1.64 11.96
11/9/2020 6:00:00 AM 5.92 42.656 0.095 6.94 1.62 11.99
11/9/2020 6:15:00 AM 5.87 42.566 0.095 6.93 1.64 12
11/9/2020 6:30:00 AM 5.83 42.494 0.095 6.88 1.57 12.01
11/9/2020 6:45:00 AM 5.76 42.368 0.095 6.94 1.63 12.05
11/9/2020 7:00:00 AM 5.72 42.296 0.095 6.93 1.68 12.09
11/9/2020 7:15:00 AM 5.66 42.188 0.095 6.94 1.56 12.17
11/9/2020 7:30:00 AM 5.63 42.134 0.095 6.94 1.6 12.24
11/9/2020 7:45:00 AM 5.59 42.062 0.095 6.95 1.58 12.34
11/9/2020 8:00:00 AM 5.57 42.026 0.095 6.97 1.5 12.44
11/9/2020 8:15:00 AM 5.58 42.044 0.095 6.98 1.52 12.56
11/9/2020 8:30:00 AM 5.61 42.098 0.095 7 1.44 12.68
11/9/2020 8:45:00 AM 5.65 42.17 0.095 7.02 1.58 12.78
11/9/2020 9:00:00 AM 5.71 42.278 0.094 7.05 1.44 12.85
11/9/2020 9:15:00 AM 5.82 42.476 0.094 6.99 1.53 12.92
11/9/2020 9:30:00 AM 5.93 42.674 0.094 7.02 1.47 12.98
11/9/2020 9:45:00 AM 6.08 42.944 0.094 7.11 1.49 13.02
11/9/2020 10:00:00 AM 6.26 43.268 0.094 7.12 1.39 13.03
11/9/2020 10:15:00 AM 6.46 43.628 0.093 7.15 1.4 13.04
11/9/2020 10:30:00 AM 6.67 44.006 0.093 7.17 1.65 13.02
11/9/2020 10:45:00 AM 6.89 44.402 0.093 7.11 1.39 13
11/9/2020 11:00:00 AM 7.14 44.852 0.093 7.2 1.42 12.95
11/9/2020 11:15:00 AM 7.39 45.302 0.093 7.22 1.43 12.9
11/9/2020 11:30:00 AM 7.66 45.788 0.093 7.23 1.4 12.84
11/9/2020 11:45:00 AM 7.95 46.31 0.093 7.26 1.31 12.79
11/9/2020 12:00:00 PM 8.22 46.796 0.092 7.29 1.31 12.73
11/9/2020 12:15:00 PM 8.47 47.246 0.092 7.29 1.35 12.64
11/9/2020 12:30:00 PM 8.68 47.624 0.092 7.3 1.34 12.58
11/9/2020 12:45:00 PM 8.86 47.948 0.092 7.29 1.52 12.5
11/9/2020 1:00:00 PM 9.01 48.218 0.092 7.25 1.43 12.46
11/9/2020 1:15:00 PM 9.12 48.416 0.092 7.29 1.54 12.38
11/9/2020 1:30:00 PM 9.21 48.578 0.092 7.31 1.49 12.3
11/9/2020 1:45:00 PM 9.28 48.704 0.092 7.3 1.39 12.24
11/9/2020 2:00:00 PM 9.34 48.812 0.092 7.32 1.75 12.17
11/9/2020 2:15:00 PM 9.39 48.902 0.092 7.24 1.54 12.08
11/9/2020 2:30:00 PM 9.44 48.992 0.092 7.28 1.46 12.02
11/9/2020 2:45:00 PM 9.46 49.028 0.092 7.26 1.51 11.93
11/9/2020 3:00:00 PM 9.47 49.046 0.092 7.22 1.56 11.84
11/9/2020 3:15:00 PM 9.46 49.028 0.092 7.22 1.48 11.76
11/9/2020 3:30:00 PM 9.43 48.974 0.092 7.13 1.59 11.69
11/9/2020 3:45:00 PM 9.38 48.884 0.092 7.17 1.51 11.6
11/9/2020 4:00:00 PM 9.32 48.776 0.092 7.15 1.47 11.54
11/9/2020 4:15:00 PM 9.28 48.704 0.092 7.13 1.54 11.47
11/9/2020 4:30:00 PM 9.25 48.65 0.092 7.12 1.52 11.4
11/9/2020 4:45:00 PM 9.22 48.596 0.093 7.11 1.69 11.33
11/9/2020 5:00:00 PM 9.2 48.56 0.093 7.08 3.73 11.24
11/9/2020 5:15:00 PM 9.18 48.524 0.093 7.06 2.37 11.15
11/9/2020 5:30:00 PM 9.14 48.452 0.093 7.02 1.71 11.13
11/9/2020 5:45:00 PM 9.09 48.362 0.093 7.03 2.94 11.07
11/9/2020 6:00:00 PM 9.04 48.272 0.093 7.02 1.5 11.05
11/9/2020 6:15:00 PM 8.99 48.182 0.093 7 1.74 11.03
11/9/2020 6:30:00 PM 8.94 48.092 0.094 7 1.57 11.03
11/9/2020 6:45:00 PM 8.89 48.002 0.094 6.94 1.59 11.03
11/9/2020 7:00:00 PM 8.85 47.93 0.094 6.95 1.54 11.01
11/9/2020 7:15:00 PM 8.8 47.84 0.094 6.91 1.74 11.04
11/9/2020 7:30:00 PM 8.77 47.786 0.094 6.97 1.78 11.03
11/9/2020 7:45:00 PM 8.73 47.714 0.094 6.97 1.86 11.05
11/9/2020 8:00:00 PM 8.7 47.66 0.094 6.96 1.64 11.03
11/9/2020 8:15:00 PM 8.65 47.57 0.094 6.96 1.53 11.06
11/9/2020 8:30:00 PM 8.61 47.498 0.094 6.96 1.76 11.06
11/9/2020 8:45:00 PM 8.57 47.426 0.094 6.94 1.78 11.05
11/9/2020 9:00:00 PM 8.53 47.354 0.094 6.9 1.73 11.07
11/9/2020 9:15:00 PM 8.47 47.246 0.094 6.94 1.76 11.1
11/9/2020 9:30:00 PM 8.42 47.156 0.095 6.94 1.67 11.11
11/9/2020 9:45:00 PM 8.36 47.048 0.095 6.94 1.53 11.14
11/9/2020 10:00:00 PM 8.3 46.94 0.095 6.94 1.6 11.15
11/9/2020 10:15:00 PM 8.24 46.832 0.095 6.9 1.79 11.16
11/9/2020 10:30:00 PM 8.18 46.724 0.095 6.95 1.51 11.2
11/9/2020 10:45:00 PM 8.1 46.58 0.095 6.9 1.63 11.22
11/9/2020 11:00:00 PM 8.04 46.472 0.095 6.87 1.52 11.24
11/9/2020 11:15:00 PM 7.96 46.328 0.095 6.89 1.6 11.26
11/9/2020 11:30:00 PM 7.9 46.22 0.095 6.93 1.56 11.25
11/9/2020 11:45:00 PM 7.83 46.094 0.095 6.92 1.52 11.29
11/10/2020 12:00:00 AM 7.75 45.95 0.095 6.92 1.71 11.31
11/10/2020 12:15:00 AM 7.67 45.806 0.095 6.93 1.71 11.35
11/10/2020 12:30:00 AM 7.61 45.698 0.095 6.93 2.05 11.36
11/10/2020 12:45:00 AM 7.53 45.554 0.095 6.94 1.61 11.4
11/10/2020 1:00:00 AM 7.46 45.428 0.095 6.89 1.82 11.41
11/10/2020 1:15:00 AM 7.41 45.338 0.095 6.92 1.55 11.41
11/10/2020 1:30:00 AM 7.34 45.212 0.096 6.93 1.57 11.46
11/10/2020 1:45:00 AM 7.29 45.122 0.095 6.92 1.72 11.46
11/10/2020 2:00:00 AM 7.23 45.014 0.096 6.93 1.54 11.48
11/10/2020 2:15:00 AM 7.17 44.906 0.096 6.88 1.71 11.51
11/10/2020 2:30:00 AM 7.13 44.834 0.096 6.87 1.78 11.52
11/10/2020 2:45:00 AM 7.07 44.726 0.096 6.93 1.99 11.55
11/10/2020 3:00:00 AM 7.03 44.654 0.096 6.93 1.61 11.55
11/10/2020 3:15:00 AM 6.97 44.546 0.096 6.92 1.58 11.57
11/10/2020 3:30:00 AM 6.93 44.474 0.096 6.93 1.64 11.58
11/10/2020 3:45:00 AM 6.89 44.402 0.096 6.85 1.52 11.59
11/10/2020 4:00:00 AM 6.85 44.33 0.096 6.92 1.51 11.59
11/10/2020 4:15:00 AM 6.79 44.222 0.096 6.92 1.53 11.62
11/10/2020 4:30:00 AM 6.75 44.15 0.096 6.92 1.48 11.64
11/10/2020 4:45:00 AM 6.71 44.078 0.096 6.92 1.51 11.66
11/10/2020 5:00:00 AM 6.67 44.006 0.096 6.86 1.51 11.66
11/10/2020 5:15:00 AM 6.62 43.916 0.096 6.93 1.65 11.67
11/10/2020 5:30:00 AM 6.57 43.826 0.096 6.92 1.5 11.7
11/10/2020 5:45:00 AM 6.53 43.754 0.096 6.92 1.48 11.71
11/10/2020 6:00:00 AM 6.5 43.7 0.096 6.91 1.48 11.73
11/10/2020 6:15:00 AM 6.48 43.664 0.096 6.91 1.5 11.72
11/10/2020 6:30:00 AM 6.42 43.556 0.096 6.91 2.26 11.73
11/10/2020 6:45:00 AM 6.38 43.484 0.096 6.92 1.7 11.77
11/10/2020 7:00:00 AM 6.35 43.43 0.096 6.92 1.54 11.8
11/10/2020 7:15:00 AM 6.33 43.394 0.096 6.88 1.63 11.86
11/10/2020 7:30:00 AM 6.32 43.376 0.096 6.9 1.52 11.95
11/10/2020 7:45:00 AM 6.31 43.358 0.096 6.9 1.48 12.07
11/10/2020 8:00:00 AM 6.32 43.376 0.095 6.98 1.53 12.19
11/10/2020 8:15:00 AM 6.36 43.448 0.095 6.99 1.49 12.35
11/10/2020 8:30:00 AM 6.41 43.538 0.095 7.01 1.57 12.45
11/10/2020 8:45:00 AM 6.46 43.628 0.095 7.04 1.49 12.55
11/10/2020 9:00:00 AM 6.55 43.79 0.095 7.03 1.47 12.64
11/10/2020 9:15:00 AM 6.67 44.006 0.094 7.09 1.38 12.72
11/10/2020 9:30:00 AM 6.79 44.222 0.094 7.12 1.41 12.79
11/10/2020 9:45:00 AM 6.94 44.492 0.094 7.13 1.4 12.81
11/10/2020 10:00:00 AM 7.1 44.78 0.094 7.17 1.43 12.83
11/10/2020 10:15:00 AM 7.32 45.176 0.094 7.18 1.47 12.81
11/10/2020 10:30:00 AM 7.58 45.644 0.094 7.22 1.37 12.83
11/10/2020 10:45:00 AM 7.82 46.076 0.093 7.22 1.72 12.77
11/10/2020 11:00:00 AM 8.07 46.526 0.093 7.28 1.33 12.75
11/10/2020 11:15:00 AM 8.33 46.994 0.093 7.31 1.42 12.7
11/10/2020 11:30:00 AM 8.66 47.588 0.093 7.35 1.42 12.65
11/10/2020 11:45:00 AM 8.97 48.146 0.093 7.35 1.31 12.57
11/10/2020 12:00:00 PM 9.27 48.686 0.093 7.43 1.36 12.52
11/10/2020 12:15:00 PM 9.53 49.154 0.093 7.39 1.42 12.44
11/10/2020 12:30:00 PM 9.78 49.604 0.093 7.44 1.39 12.35
11/10/2020 12:45:00 PM 9.99 49.982 0.093 7.48 1.45 12.29
11/10/2020 1:00:00 PM 10.16 50.288 0.092 7.42 1.47 12.18
11/10/2020 1:15:00 PM 10.3 50.54 0.093 7.47 1.39 12.13
11/10/2020 1:30:00 PM 10.41 50.738 0.093 7.36 1.4 12.04
11/10/2020 1:45:00 PM 10.48 50.864 0.093 7.44 1.41 11.96
11/10/2020 2:00:00 PM 10.56 51.008 0.093 7.45 1.36 11.9
11/10/2020 2:15:00 PM 10.63 51.134 0.093 7.38 1.4 11.79
11/10/2020 2:30:00 PM 10.67 51.206 0.093 7.38 1.6 11.71
11/10/2020 2:45:00 PM 10.71 51.278 0.093 7.38 1.58 11.63
11/10/2020 3:00:00 PM 10.72 51.296 0.093 7.33 1.56 11.51
11/10/2020 3:15:00 PM 10.71 51.278 0.093 7.31 1.46 11.43
11/10/2020 3:30:00 PM 10.69 51.242 0.093 7.29 1.53 11.34
11/10/2020 3:45:00 PM 10.65 51.17 0.093 7.25 1.57 11.23
11/10/2020 4:00:00 PM 10.6 51.08 0.093 7.23 1.51 11.16
11/10/2020 4:15:00 PM 10.56 51.008 0.093 7.19 1.41 11.08
11/10/2020 4:30:00 PM 10.53 50.954 0.093 7.17 1.48 10.99
11/10/2020 4:45:00 PM 10.51 50.918 0.093 7.16 1.6 10.92
11/10/2020 5:00:00 PM 10.49 50.882 0.093 7.13 1.72 10.82
11/10/2020 5:15:00 PM 10.47 50.846 0.093 7.09 1.77 10.74
11/10/2020 5:30:00 PM 10.44 50.792 0.094 7.08 1.45 10.69
11/10/2020 5:45:00 PM 10.42 50.756 0.094 7.07 1.69 10.65
11/10/2020 6:00:00 PM 10.39 50.702 0.094 7.06 1.65 10.62
11/10/2020 6:15:00 PM 10.37 50.666 0.094 6.99 1.64 10.58
11/10/2020 6:30:00 PM 10.34 50.612 0.094 7.03 1.58 10.56
11/10/2020 6:45:00 PM 10.31 50.558 0.094 7.03 1.77 10.56
11/10/2020 7:00:00 PM 10.28 50.504 0.095 7 1.69 10.54
11/10/2020 7:15:00 PM 10.26 50.468 0.095 7.01 1.84 10.54
11/10/2020 7:30:00 PM 10.23 50.414 0.095 7 1.64 10.54
11/10/2020 7:45:00 PM 10.21 50.378 0.095 6.97 1.73 10.54
11/10/2020 8:00:00 PM 10.18 50.324 0.095 6.94 1.62 10.54
11/10/2020 8:15:00 PM 10.16 50.288 0.095 7 1.8 10.56
11/10/2020 8:30:00 PM 10.13 50.234 0.095 6.99 1.73 10.56
11/10/2020 8:45:00 PM 10.09 50.162 0.095 6.95 1.77 10.56
11/10/2020 9:00:00 PM 10.06 50.108 0.095 6.92 1.57 10.59
11/10/2020 9:15:00 PM 10.03 50.054 0.095 6.97 1.7 10.57
11/10/2020 9:30:00 PM 9.98 49.964 0.095 6.96 1.69 10.58
11/10/2020 9:45:00 PM 9.94 49.892 0.095 6.97 1.97 10.61
11/10/2020 10:00:00 PM 9.9 49.82 0.095 6.91 1.75 10.62
11/10/2020 10:15:00 PM 9.85 49.73 0.095 6.9 1.59 10.63
11/10/2020 10:30:00 PM 9.8 49.64 0.096 6.97 1.43 10.64
11/10/2020 10:45:00 PM 9.75 49.55 0.096 6.91 1.63 10.66
11/10/2020 11:00:00 PM 9.68 49.424 0.096 6.97 1.68 10.69
11/10/2020 11:15:00 PM 9.62 49.316 0.096 6.91 1.53 10.7
11/10/2020 11:30:00 PM 9.56 49.208 0.096 6.95 1.82 10.71
11/10/2020 11:45:00 PM 9.5 49.1 0.096 6.95 1.81 10.73
11/11/2020 12:00:00 AM 9.43 48.974 0.096 6.96 1.72 10.77
11/11/2020 12:15:00 AM 9.36 48.848 0.096 6.96 2.01 10.78
11/11/2020 12:30:00 AM 9.33 48.794 0.096 6.95 1.48 10.8
11/11/2020 12:45:00 AM 9.31 48.758 0.096 6.88 1.82 10.79
11/11/2020 1:00:00 AM 9.3 48.74 0.096 6.96 1.78 10.82
11/11/2020 1:15:00 AM 9.28 48.704 0.096 6.96 1.63 10.82
11/11/2020 1:30:00 AM 9.25 48.65 0.096 6.96 1.7 10.84
11/11/2020 1:45:00 AM 9.22 48.596 0.096 6.96 1.6 10.85
11/11/2020 2:00:00 AM 9.22 48.596 0.096 6.95 1.62 10.84
11/11/2020 2:15:00 AM 9.21 48.578 0.096 6.96 1.68 10.86
11/11/2020 2:30:00 AM 9.24 48.632 0.096 6.95 1.63 10.85
11/11/2020 2:45:00 AM 9.25 48.65 0.096 6.97 1.51 10.84
11/11/2020 3:00:00 AM 9.27 48.686 0.096 6.97 1.53 10.84
11/11/2020 3:15:00 AM 9.3 48.74 0.096 6.97 1.58 10.85
11/11/2020 3:30:00 AM 9.36 48.848 0.096 6.98 1.74 10.83
11/11/2020 3:45:00 AM 9.42 48.956 0.096 6.97 1.6 10.8
11/11/2020 4:00:00 AM 9.44 48.992 0.096 6.93 1.74 10.8
11/11/2020 4:15:00 AM 9.48 49.064 0.096 6.92 1.49 10.78
11/11/2020 4:30:00 AM 9.53 49.154 0.096 6.94 1.64 10.77
11/11/2020 4:45:00 AM 9.59 49.262 0.096 6.97 1.73 10.75
11/11/2020 5:00:00 AM 9.65 49.37 0.096 6.98 1.68 10.73
11/11/2020 5:15:00 AM 9.7 49.46 0.096 6.97 1.82 10.71
11/11/2020 5:30:00 AM 9.75 49.55 0.096 6.98 1.55 10.71
11/11/2020 5:45:00 AM 9.83 49.694 0.096 6.98 1.58 10.68
11/11/2020 6:00:00 AM 9.88 49.784 0.096 6.98 1.67 10.67
11/11/2020 6:15:00 AM 9.91 49.838 0.096 6.98 1.66 10.67
11/11/2020 6:30:00 AM 10 50 0.096 6.98 1.65 10.65
11/11/2020 6:45:00 AM 10.06 50.108 0.096 6.97 1.71 10.62
11/11/2020 7:00:00 AM 10.13 50.234 0.096 6.96 1.59 10.61
11/11/2020 7:15:00 AM 10.19 50.342 0.096 6.99 1.84 10.69
11/11/2020 7:30:00 AM 10.25 50.45 0.095 7 1.69 10.76
11/11/2020 7:45:00 AM 10.3 50.54 0.095 6.94 1.65 10.8
11/11/2020 8:00:00 AM 10.34 50.612 0.095 7.02 1.56 10.84
11/11/2020 8:15:00 AM 10.41 50.738 0.095 7.05 1.69 11.04
11/11/2020 8:30:00 AM 10.52 50.936 0.094 7.09 1.52 11.31
11/11/2020 8:45:00 AM 10.66 51.188 0.094 7.11 2.09 11.55
11/11/2020 9:00:00 AM 10.85 51.53 0.094 7.14 1.48 11.67
11/11/2020 9:15:00 AM 10.95 51.71 0.094 7.21 1.52 11.65
11/11/2020 9:30:00 AM 11.03 51.854 0.094 7.22 1.66 11.6
11/11/2020 9:45:00 AM 11.1 51.98 0.094 7.22 1.53 11.54
11/11/2020 10:00:00 AM 11.18 52.124 0.094 7.21 1.57 11.44
11/11/2020 10:15:00 AM 11.25 52.25 0.093 7.21 1.51 11.28
11/11/2020 10:30:00 AM 11.32 52.376 0.093 7.19 1.46 11.2
11/11/2020 10:45:00 AM 11.38 52.484 0.093 7.17 1.71 11.14
11/11/2020 11:00:00 AM 11.44 52.592 0.093 7.19 1.63 11.1
11/11/2020 11:15:00 AM 11.49 52.682 0.093 7.17 1.76 11.03
11/11/2020 11:30:00 AM 11.55 52.79 0.093 7.17 1.63 11
11/11/2020 11:45:00 AM 11.58 52.844 0.092 7.17 1.82 10.97
11/11/2020 12:00:00 PM 11.65 52.97 0.092 7.19 1.6 10.99
11/11/2020 12:15:00 PM 11.7 53.06 0.092 7.18 1.73 10.97
11/11/2020 12:30:00 PM 11.77 53.186 0.091 7.11 1.65 10.89
11/11/2020 12:45:00 PM 11.82 53.276 0.091 7.17 1.69 10.9
11/11/2020 1:00:00 PM 11.87 53.366 0.091 7.18 1.77 10.93
11/11/2020 1:15:00 PM 11.92 53.456 0.091 7.19 1.71 10.93
11/11/2020 1:30:00 PM 11.95 53.51 0.091 7.18 2.11 10.86
11/11/2020 1:45:00 PM 11.99 53.582 0.091 7.18 2.23 10.85
11/11/2020 2:00:00 PM 12.03 53.654 0.091 7.11 2.07 10.84
11/11/2020 2:15:00 PM 12.07 53.726 0.09 7.17 1.99 10.78
11/11/2020 2:30:00 PM 12.1 53.78 0.09 7.17 1.99 10.73
11/11/2020 2:45:00 PM 12.14 53.852 0.09 7.15 1.98 10.63
11/11/2020 3:00:00 PM 12.16 53.888 0.09 7.13 2.04 10.57
11/11/2020 3:15:00 PM 12.21 53.978 0.09 7.14 1.98 10.54
11/11/2020 3:30:00 PM 12.22 53.996 0.09 7.12 2.36 10.47
11/11/2020 3:45:00 PM 12.25 54.05 0.09 7.11 2.53 10.43
11/11/2020 4:00:00 PM 12.27 54.086 0.09 7.05 2.48 10.43
11/11/2020 4:15:00 PM 12.3 54.14 0.09 7.06 2.32 10.41
11/11/2020 4:30:00 PM 12.31 54.158 0.09 7.07 2.2 10.33
11/11/2020 4:45:00 PM 12.31 54.158 0.09 7.07 3.39 10.24
11/11/2020 5:00:00 PM 12.32 54.176 0.09 7.05 2.52 10.19
11/11/2020 5:15:00 PM 12.33 54.194 0.09 7.05 2.7 10.15
11/11/2020 5:30:00 PM 12.34 54.212 0.09 7.05 2.62 10.12
11/11/2020 5:45:00 PM 12.34 54.212 0.091 7.06 3.03 10.12
11/11/2020 6:00:00 PM 12.34 54.212 0.091 6.98 2.96 10.1
11/11/2020 6:15:00 PM 12.34 54.212 0.091 7.04 2.87 10.09
11/11/2020 6:30:00 PM 12.33 54.194 0.091 7 3.61 10.05
11/11/2020 6:45:00 PM 12.33 54.194 0.091 6.99 3.72 10.05
11/11/2020 7:00:00 PM 12.32 54.176 0.091 6.99 3.46 10.05
11/11/2020 7:15:00 PM 12.33 54.194 0.091 7 4.43 10.06
11/11/2020 7:30:00 PM 12.33 54.194 0.092 7 5.62 10.07
11/11/2020 7:45:00 PM 12.35 54.23 0.092 7.02 4.74 10.1
11/11/2020 8:00:00 PM 12.35 54.23 0.092 7.02 5.46 10.11
11/11/2020 8:15:00 PM 12.34 54.212 0.092 7.02 5.26 10.12
11/11/2020 8:30:00 PM 12.33 54.194 0.092 7.01 4.89 10.14
11/11/2020 8:45:00 PM 12.31 54.158 0.092 7.02 5.76 10.14
11/11/2020 9:00:00 PM 12.3 54.14 0.091 6.94 6.06 10.16
11/11/2020 9:15:00 PM 12.3 54.14 0.091 7.02 6.88 10.16
11/11/2020 9:30:00 PM 12.29 54.122 0.091 6.95 6.33 10.18
11/11/2020 9:45:00 PM 12.28 54.104 0.091 7.03 7.31 10.18
11/11/2020 10:00:00 PM 12.26 54.068 0.091 7.02 7.26 10.18
11/11/2020 10:15:00 PM 12.25 54.05 0.091 7.01 6.7 10.19
11/11/2020 10:30:00 PM 12.23 54.014 0.091 7.01 6.94 10.2
11/11/2020 10:45:00 PM 12.22 53.996 0.091 6.94 7.85 10.2
11/11/2020 11:00:00 PM 12.22 53.996 0.091 6.98 8.19 10.21
11/11/2020 11:15:00 PM 12.2 53.96 0.091 6.97 8.74 10.22
11/11/2020 11:30:00 PM 12.18 53.924 0.09 6.99 8.73 10.23
11/11/2020 11:45:00 PM 12.16 53.888 0.09 7.01 10.01 10.24
11/12/2020 12:00:00 AM 12.14 53.852 0.089 7.03 9.29 10.24
11/12/2020 12:15:00 AM 12.12 53.816 0.089 7.03 9.39 10.25
11/12/2020 12:30:00 AM 12.09 53.762 0.089 7.03 9.23 10.26
11/12/2020 12:45:00 AM 12.06 53.708 0.088 7.03 9.25 10.27
11/12/2020 1:00:00 AM 12.03 53.654 0.088 7.03 8.42 10.28
11/12/2020 1:15:00 AM 12 53.6 0.088 6.99 7.91 10.28
11/12/2020 1:30:00 AM 11.96 53.528 0.088 6.99 7.76 10.29
11/12/2020 1:45:00 AM 11.93 53.474 0.088 7.04 7.5 10.31
11/12/2020 2:00:00 AM 11.9 53.42 0.088 7.03 7.46 10.31
11/12/2020 2:15:00 AM 11.86 53.348 0.088 7.02 7.08 10.32
11/12/2020 2:30:00 AM 11.82 53.276 0.088 6.99 6.79 10.33
11/12/2020 2:45:00 AM 11.78 53.204 0.088 6.96 6.45 10.34
11/12/2020 3:00:00 AM 11.74 53.132 0.088 7.03 6.1 10.35
11/12/2020 3:15:00 AM 11.7 53.06 0.088 7.02 5.86 10.36
11/12/2020 3:30:00 AM 11.66 52.988 0.088 6.98 5.74 10.37
11/12/2020 3:45:00 AM 11.6 52.88 0.088 7.02 5.74 10.38
11/12/2020 4:00:00 AM 11.55 52.79 0.088 7.02 5.32 10.39
11/12/2020 4:15:00 AM 11.5 52.7 0.088 6.97 5.43 10.41
11/12/2020 4:30:00 AM 11.45 52.61 0.088 6.99 5 10.42
11/12/2020 4:45:00 AM 11.4 52.52 0.088 7.02 4.67 10.44
11/12/2020 5:00:00 AM 11.34 52.412 0.088 6.98 4.93 10.44
11/12/2020 5:15:00 AM 11.28 52.304 0.088 6.95 4.5 10.47
11/12/2020 5:30:00 AM 11.21 52.178 0.088 7.02 4.26 10.49
11/12/2020 5:45:00 AM 11.14 52.052 0.088 7.01 4.68 10.5
11/12/2020 6:00:00 AM 11.06 51.908 0.088 7.01 4.13 10.51
11/12/2020 6:15:00 AM 10.98 51.764 0.088 6.97 4.06 10.53
11/12/2020 6:30:00 AM 10.92 51.656 0.088 6.98 4.24 10.55
11/12/2020 6:45:00 AM 10.84 51.512 0.088 7.01 4.64 10.57
11/12/2020 7:00:00 AM 10.78 51.404 0.088 6.93 3.74 10.59
11/12/2020 7:15:00 AM 10.72 51.296 0.088 7.01 3.74 10.61
11/12/2020 7:30:00 AM 10.65 51.17 0.088 7.01 3.71 10.64
11/12/2020 7:45:00 AM 10.58 51.044 0.088 7.01 3.63 10.69
11/12/2020 8:00:00 AM 10.51 50.918 0.088 7.01 3.48 10.73
11/12/2020 8:15:00 AM 10.46 50.828 0.088 7.02 3.23 10.8
11/12/2020 8:30:00 AM 10.4 50.72 0.088 7.03 3.23 10.89
11/12/2020 8:45:00 AM 10.35 50.63 0.088 6.97 2.91 10.97
11/12/2020 9:00:00 AM 10.3 50.54 0.088 7.06 3.08 11.03
11/12/2020 9:15:00 AM 10.25 50.45 0.088 7.07 2.88 11.1
11/12/2020 9:30:00 AM 10.2 50.36 0.088 7.08 3.12 11.19
11/12/2020 9:45:00 AM 10.15 50.27 0.088 7.07 3.18 11.25
11/12/2020 10:00:00 AM 10.09 50.162 0.087 7.11 3.41 11.31
11/12/2020 10:15:00 AM 10.05 50.09 0.083 7.09 4.82 11.37
11/12/2020 10:30:00 AM 10 50 0.087 7.14 2.65 11.42
11/12/2020 10:45:00 AM 9.97 49.946 0.087 7.16 2.75 11.48
11/12/2020 11:00:00 AM 9.93 49.874 0.087 7.14 2.62 11.56
11/12/2020 11:15:00 AM 9.91 49.838 0.087 7.21 2.65 11.63
11/12/2020 11:30:00 AM 9.88 49.784 0.087 7.15 2.67 11.67
11/12/2020 11:45:00 AM 9.87 49.766 0.087 7.26 2.58 11.73
11/12/2020 12:00:00 PM 9.84 49.712 0.087 7.26 2.73 11.76
11/12/2020 12:15:00 PM 9.83 49.694 0.086 7.29 2.42 11.81
11/12/2020 12:30:00 PM 9.82 49.676 0.086 7.3 2.62 11.81
11/12/2020 12:45:00 PM 9.82 49.676 0.086 7.3 2.56 11.82
11/12/2020 1:00:00 PM 9.8 49.64 0.086 7.33 2.59 11.84
11/12/2020 1:15:00 PM 9.79 49.622 0.086 7.32 2.67 11.83
11/12/2020 1:30:00 PM 9.78 49.604 0.086 7.29 2.57 11.84
11/12/2020 1:45:00 PM 9.78 49.604 0.086 7.34 2.76 11.83
11/12/2020 2:00:00 PM 9.77 49.586 0.086 7.37 2.56 11.88
11/12/2020 2:15:00 PM 9.76 49.568 0.086 7.35 2.29 11.85
11/12/2020 2:30:00 PM 9.72 49.496 0.086 7.36 2.61 11.84
11/12/2020 2:45:00 PM 9.68 49.424 0.086 7.33 2.53 11.79
11/12/2020 3:00:00 PM 9.64 49.352 0.086 7.33 2.47 11.77
11/12/2020 3:15:00 PM 9.6 49.28 0.086 7.32 2.48 11.75
11/12/2020 3:30:00 PM 9.56 49.208 0.086 7.29 2.67 11.68
11/12/2020 3:45:00 PM 9.5 49.1 0.086 7.26 2.65 11.61
11/12/2020 4:00:00 PM 9.45 49.01 0.086 7.21 2.42 11.54
11/12/2020 4:15:00 PM 9.4 48.92 0.086 7.22 2.42 11.46
11/12/2020 4:30:00 PM 9.35 48.83 0.086 7.13 2.37 11.37
11/12/2020 4:45:00 PM 9.29 48.722 0.086 7.17 2.52 11.29
11/12/2020 5:00:00 PM 9.24 48.632 0.087 7.13 2.7 11.21
11/12/2020 5:15:00 PM 9.17 48.506 0.087 7.11 2.48 11.16
11/12/2020 5:30:00 PM 9.1 48.38 0.087 7.06 3.04 11.12
11/12/2020 5:45:00 PM 9.02 48.236 0.087 7.08 4.04 11.11
11/12/2020 6:00:00 PM 8.95 48.11 0.087 7.06 2.77 11.09
11/12/2020 6:15:00 PM 8.87 47.966 0.087 7.05 2.7 11.09
11/12/2020 6:30:00 PM 8.8 47.84 0.087 7.05 2.82 11.1
11/12/2020 6:45:00 PM 8.72 47.696 0.087 7.04 2.52 11.11
11/12/2020 7:00:00 PM 8.65 47.57 0.087 7.03 2.55 11.13
11/12/2020 7:15:00 PM 8.56 47.408 0.088 7.02 2.44 11.15
11/12/2020 7:30:00 PM 8.48 47.264 0.088 7.01 2.76 11.16
11/12/2020 7:45:00 PM 8.39 47.102 0.088 6.99 2.86 11.2
11/12/2020 8:00:00 PM 8.3 46.94 0.088 6.94 2.72 11.23
11/12/2020 8:15:00 PM 8.21 46.778 0.088 7.01 2.38 11.24
11/12/2020 8:30:00 PM 8.12 46.616 0.088 7.01 2.59 11.27
11/12/2020 8:45:00 PM 8.03 46.454 0.088 7 2.73 11.3
11/12/2020 9:00:00 PM 7.93 46.274 0.088 7 2.5 11.32
11/12/2020 9:15:00 PM 7.85 46.13 0.088 6.98 2.65 11.34
11/12/2020 9:30:00 PM 7.75 45.95 0.088 7 2.56 11.37
11/12/2020 9:45:00 PM 7.67 45.806 0.088 6.99 2.47 11.4
11/12/2020 10:00:00 PM 7.59 45.662 0.089 6.9 2.37 11.41
11/12/2020 10:15:00 PM 7.52 45.536 0.089 6.98 2.44 11.44
11/12/2020 10:30:00 PM 7.44 45.392 0.089 6.98 2.52 11.46
11/12/2020 10:45:00 PM 7.38 45.284 0.089 6.98 2.47 11.49
11/12/2020 11:00:00 PM 7.3 45.14 0.089 6.97 2.32 11.51
11/12/2020 11:15:00 PM 7.21 44.978 0.089 6.98 2.44 11.54
11/12/2020 11:30:00 PM 7.14 44.852 0.089 6.97 2.34 11.55
11/12/2020 11:45:00 PM 7.06 44.708 0.089 6.97 2.24 11.57
11/13/2020 12:00:00 AM 6.99 44.582 0.089 6.96 2.21 11.59
11/13/2020 12:15:00 AM 6.9 44.42 0.089 6.96 2.37 11.63
11/13/2020 12:30:00 AM 6.82 44.276 0.089 6.95 2.21 11.63
11/13/2020 12:45:00 AM 6.73 44.114 0.089 6.97 2.27 11.68
11/13/2020 1:00:00 AM 6.67 44.006 0.089 6.96 2.28 11.69
11/13/2020 1:15:00 AM 6.6 43.88 0.089 6.96 2.22 11.71
11/13/2020 1:30:00 AM 6.54 43.772 0.089 6.95 2.89 11.72
11/13/2020 1:45:00 AM 6.47 43.646 0.089 6.95 2.12 11.75
11/13/2020 2:00:00 AM 6.41 43.538 0.089 6.95 2.23 11.76
11/13/2020 2:15:00 AM 6.34 43.412 0.089 6.91 2.23 11.78
11/13/2020 2:30:00 AM 6.29 43.322 0.089 6.95 2.23 11.8
11/13/2020 2:45:00 AM 6.23 43.214 0.089 6.95 2.09 11.82
11/13/2020 3:00:00 AM 6.18 43.124 0.089 6.95 2.4 11.84
11/13/2020 3:15:00 AM 6.13 43.034 0.089 6.94 2.22 11.86
11/13/2020 3:30:00 AM 6.08 42.944 0.089 6.92 2.26 11.86
11/13/2020 3:45:00 AM 6.04 42.872 0.089 6.91 2.2 11.89
11/13/2020 4:00:00 AM 6.02 42.836 0.089 6.9 2.23 11.89
11/13/2020 4:15:00 AM 5.99 42.782 0.089 6.94 1.96 11.91
11/13/2020 4:30:00 AM 5.96 42.728 0.089 6.94 2.05 11.92
11/13/2020 4:45:00 AM 5.92 42.656 0.089 6.93 1.98 11.93
11/13/2020 5:00:00 AM 5.89 42.602 0.089 6.94 2.35 11.94
11/13/2020 5:15:00 AM 5.88 42.584 0.089 6.87 2.01 11.94
11/13/2020 5:30:00 AM 5.87 42.566 0.089 6.94 2.03 11.95
11/13/2020 5:45:00 AM 5.84 42.512 0.089 6.93 2.05 11.97
11/13/2020 6:00:00 AM 5.84 42.512 0.089 6.94 2.16 11.97
11/13/2020 6:15:00 AM 5.83 42.494 0.089 6.93 1.92 11.96
11/13/2020 6:30:00 AM 5.82 42.476 0.089 6.93 1.93 11.96
11/13/2020 6:45:00 AM 5.81 42.458 0.089 6.88 2.16 11.98
11/13/2020 7:00:00 AM 5.8 42.44 0.089 6.86 2.01 11.97
11/13/2020 7:15:00 AM 5.8 42.44 0.089 6.93 2.03 11.99
11/13/2020 7:30:00 AM 5.79 42.422 0.089 6.89 1.91 12.04
11/13/2020 7:45:00 AM 5.8 42.44 0.089 6.94 2.32 12.08
11/13/2020 8:00:00 AM 5.79 42.422 0.088 6.94 2.19 12.12
11/13/2020 8:15:00 AM 5.79 42.422 0.088 6.95 2.2 12.17
11/13/2020 8:30:00 AM 5.8 42.44 0.088 6.96 2.01 12.18
11/13/2020 8:45:00 AM 5.82 42.476 0.088 6.96 2.19 12.25
11/13/2020 9:00:00 AM 5.85 42.53 0.088 6.9 2.06 12.36
11/13/2020 9:15:00 AM 5.9 42.62 0.088 7 2.1 12.45
11/13/2020 9:30:00 AM 5.97 42.746 0.087 7 2.14 12.57
11/13/2020 9:45:00 AM 6.04 42.872 0.087 7.03 2.02 12.63
11/13/2020 10:00:00 AM 6.07 42.926 0.087 7.04 1.89 12.6
11/13/2020 10:15:00 AM 6.16 43.088 0.087 7.01 2.1 12.66
11/13/2020 10:30:00 AM 6.22 43.196 0.087 7.08 2.23 12.73
11/13/2020 10:45:00 AM 6.33 43.394 0.087 7.1 2.12 12.76
11/13/2020 11:00:00 AM 6.43 43.574 0.087 7.11 2.11 12.76
11/13/2020 11:15:00 AM 6.53 43.754 0.087 7.12 1.98 12.76
11/13/2020 11:30:00 AM 6.68 44.024 0.086 7.15 1.82 12.78
11/13/2020 11:45:00 AM 6.83 44.294 0.086 7.12 2.02 12.78
11/13/2020 12:00:00 PM 6.95 44.51 0.086 7.17 2.01 12.75
11/13/2020 12:15:00 PM 7.06 44.708 0.086 7.18 2.04 12.72
11/13/2020 12:30:00 PM 7.18 44.924 0.086 7.21 2.03 12.71
11/13/2020 12:45:00 PM 7.28 45.104 0.086 7.21 1.91 12.66
11/13/2020 1:00:00 PM 7.36 45.248 0.086 7.19 2.23 12.59
11/13/2020 1:15:00 PM 7.47 45.446 0.086 7.2 1.98 12.54
11/13/2020 1:30:00 PM 7.6 45.68 0.086 7.18 2.15 12.52
11/13/2020 1:45:00 PM 7.66 45.788 0.085 7.23 2.1 12.48
11/13/2020 2:00:00 PM 7.74 45.932 0.085 7.22 1.77 12.41
11/13/2020 2:15:00 PM 7.78 46.004 0.085 7.22 1.75 12.32
11/13/2020 2:30:00 PM 7.84 46.112 0.085 7.21 1.77 12.25
11/13/2020 2:45:00 PM 7.88 46.184 0.085 7.19 1.83 12.17
11/13/2020 3:00:00 PM 7.88 46.184 0.085 7.12 1.94 12.09
11/13/2020 3:15:00 PM 7.85 46.13 0.086 7.17 1.76 12.03
11/13/2020 3:30:00 PM 7.83 46.094 0.086 7.14 2.01 11.93
11/13/2020 3:45:00 PM 7.81 46.058 0.086 7.08 1.86 11.87
11/13/2020 4:00:00 PM 7.81 46.058 0.086 7.11 1.91 11.8
11/13/2020 4:15:00 PM 7.82 46.076 0.086 7.09 1.82 11.74
11/13/2020 4:30:00 PM 7.82 46.076 0.086 7.08 1.95 11.67
11/13/2020 4:45:00 PM 7.81 46.058 0.086 7.05 1.96 11.59
11/13/2020 5:00:00 PM 7.8 46.04 0.087 7.04 1.89 11.53
11/13/2020 5:15:00 PM 7.78 46.004 0.087 7.02 1.91 11.45
11/13/2020 5:30:00 PM 7.76 45.968 0.087 7.01 1.91 11.42
11/13/2020 5:45:00 PM 7.75 45.95 0.087 7 2.11 11.39
11/13/2020 6:00:00 PM 7.72 45.896 0.087 6.91 2.11 11.37
11/13/2020 6:15:00 PM 7.68 45.824 0.087 6.99 1.99 11.36
11/13/2020 6:30:00 PM 7.65 45.77 0.087 6.97 2.11 11.36
11/13/2020 6:45:00 PM 7.6 45.68 0.087 6.96 2.11 11.36
11/13/2020 7:00:00 PM 7.56 45.608 0.088 6.95 1.84 11.36
11/13/2020 7:15:00 PM 7.5 45.5 0.088 6.95 2.07 11.38
11/13/2020 7:30:00 PM 7.45 45.41 0.088 6.95 1.98 11.39
11/13/2020 7:45:00 PM 7.4 45.32 0.088 6.94 2.13 11.4
11/13/2020 8:00:00 PM 7.37 45.266 0.088 6.89 1.81 11.41
11/13/2020 8:15:00 PM 7.33 45.194 0.088 6.94 2.21 11.42
11/13/2020 8:30:00 PM 7.29 45.122 0.088 6.94 2.13 11.45
11/13/2020 8:45:00 PM 7.23 45.014 0.089 6.93 1.83 11.46
11/13/2020 9:00:00 PM 7.16 44.888 0.09 6.93 2.13 11.48
11/13/2020 9:15:00 PM 7.1 44.78 0.09 6.94 1.91 11.51
11/13/2020 9:30:00 PM 7.03 44.654 0.091 6.93 1.94 11.51
11/13/2020 9:45:00 PM 6.97 44.546 0.091 6.94 2.08 11.53
11/13/2020 10:00:00 PM 6.9 44.42 0.091 6.93 1.95 11.55
11/13/2020 10:15:00 PM 6.84 44.312 0.091 6.94 2.04 11.58
11/13/2020 10:30:00 PM 6.78 44.204 0.091 6.94 2.05 11.6
11/13/2020 10:45:00 PM 6.73 44.114 0.091 6.93 1.95 11.6
11/13/2020 11:00:00 PM 6.67 44.006 0.091 6.86 1.85 11.64
11/13/2020 11:15:00 PM 6.63 43.934 0.091 6.94 1.88 11.66
11/13/2020 11:30:00 PM 6.59 43.862 0.091 6.93 1.87 11.66
11/13/2020 11:45:00 PM 6.57 43.826 0.09 6.92 1.74 11.66
11/14/2020 12:00:00 AM 6.53 43.754 0.09 6.92 2.15 11.69
11/14/2020 12:15:00 AM 6.5 43.7 0.09 6.92 2.09 11.7
11/14/2020 12:30:00 AM 6.47 43.646 0.09 6.92 1.76 11.72
11/14/2020 12:45:00 AM 6.44 43.592 0.09 6.92 1.73 11.73
11/14/2020 1:00:00 AM 6.42 43.556 0.089 6.92 1.87 11.75
11/14/2020 1:15:00 AM 6.4 43.52 0.089 6.92 1.82 11.75
11/14/2020 1:30:00 AM 6.38 43.484 0.089 6.91 1.6 11.75
11/14/2020 1:45:00 AM 6.36 43.448 0.089 6.92 1.95 11.76
11/14/2020 2:00:00 AM 6.34 43.412 0.089 6.91 2.33 11.77
11/14/2020 2:15:00 AM 6.3 43.34 0.089 6.89 1.81 11.79
11/14/2020 2:30:00 AM 6.27 43.286 0.089 6.86 1.74 11.78
11/14/2020 2:45:00 AM 6.21 43.178 0.089 6.91 1.76 11.81
11/14/2020 3:00:00 AM 6.18 43.124 0.089 6.91 1.74 11.81
11/14/2020 3:15:00 AM 6.11 42.998 0.089 6.91 1.83 11.83
11/14/2020 3:30:00 AM 6.08 42.944 0.089 6.91 1.93 11.87
11/14/2020 3:45:00 AM 6.02 42.836 0.089 6.91 1.68 11.87
11/14/2020 4:00:00 AM 5.99 42.782 0.089 6.85 1.73 11.87
11/14/2020 4:15:00 AM 5.88 42.584 0.089 6.84 1.77 11.91
11/14/2020 4:30:00 AM 5.85 42.53 0.089 6.83 1.76 11.91
11/14/2020 4:45:00 AM 5.79 42.422 0.089 6.9 1.69 11.92
11/14/2020 5:00:00 AM 5.71 42.278 0.089 6.84 1.75 11.97
11/14/2020 5:15:00 AM 5.68 42.224 0.089 6.87 1.79 11.98
11/14/2020 5:30:00 AM 5.61 42.098 0.089 6.91 1.75 12
11/14/2020 5:45:00 AM 5.55 41.99 0.089 6.9 1.78 12.01
11/14/2020 6:00:00 AM 5.51 41.918 0.089 6.9 1.66 12.03
11/14/2020 6:15:00 AM 5.44 41.792 0.089 6.9 1.73 12.06
11/14/2020 6:30:00 AM 5.39 41.702 0.089 6.9 1.79 12.07
11/14/2020 6:45:00 AM 5.33 41.594 0.089 6.83 1.86 12.13
11/14/2020 7:00:00 AM 5.31 41.558 0.089 6.9 2.07 12.12
11/14/2020 7:15:00 AM 5.26 41.468 0.089 6.91 1.67 12.19
11/14/2020 7:30:00 AM 5.18 41.324 0.089 6.92 1.66 12.29
11/14/2020 7:45:00 AM 5.14 41.252 0.089 6.94 1.74 12.39
11/14/2020 8:00:00 AM 5.15 41.27 0.089 6.93 1.85 12.44
11/14/2020 8:15:00 AM 5.12 41.216 0.088 6.95 1.76 12.58
11/14/2020 8:30:00 AM 5.13 41.234 0.088 6.96 1.57 12.69
11/14/2020 8:45:00 AM 5.11 41.198 0.088 6.98 1.59 12.81
11/14/2020 9:00:00 AM 5.17 41.306 0.088 7 1.64 12.86
11/14/2020 9:15:00 AM 5.22 41.396 0.088 7.03 1.59 12.96
11/14/2020 9:30:00 AM 5.29 41.522 0.088 7.05 1.61 13.04
11/14/2020 9:45:00 AM 5.41 41.738 0.087 7.08 1.73 13.1
11/14/2020 10:00:00 AM 5.52 41.936 0.087 7.05 1.78 13.15
11/14/2020 10:15:00 AM 5.65 42.17 0.087 7.14 1.65 13.18
11/14/2020 10:30:00 AM 5.74 42.332 0.087 7.16 1.61 13.18
11/14/2020 10:45:00 AM 5.81 42.458 0.087 7.1 1.64 13.14
11/14/2020 11:00:00 AM 5.95 42.71 0.087 7.22 1.74 13.18
11/14/2020 11:15:00 AM 6.15 43.07 0.086 7.11 1.66 13.11
11/14/2020 11:30:00 AM 6.25 43.25 0.086 7.14 1.52 13.1
11/14/2020 11:45:00 AM 6.29 43.322 0.086 7.2 1.56 13.05
11/14/2020 12:00:00 PM 6.34 43.412 0.086 7.24 1.65 13.05
11/14/2020 12:15:00 PM 6.44 43.592 0.086 7.19 1.8 13.02
11/14/2020 12:30:00 PM 6.47 43.646 0.086 7.24 1.68 13.02
11/14/2020 12:45:00 PM 6.58 43.844 0.086 7.26 1.47 13.03
11/14/2020 1:00:00 PM 6.71 44.078 0.086 7.34 1.74 13.01
11/14/2020 1:15:00 PM 6.86 44.348 0.086 7.24 1.63 12.94
11/14/2020 1:30:00 PM 6.95 44.51 0.086 7.34 1.63 12.88
11/14/2020 1:45:00 PM 6.97 44.546 0.086 7.35 1.49 12.85
11/14/2020 2:00:00 PM 6.95 44.51 0.086 7.27 1.63 12.78
11/14/2020 2:15:00 PM 6.92 44.456 0.086 7.34 2.07 12.71
11/14/2020 2:30:00 PM 6.94 44.492 0.086 7.28 1.62 12.62
11/14/2020 2:45:00 PM 6.95 44.51 0.086 7.28 1.58 12.56
11/14/2020 3:00:00 PM 6.95 44.51 0.086 7.23 1.65 12.47
11/14/2020 3:15:00 PM 6.93 44.474 0.086 7.22 1.7 12.41
11/14/2020 3:30:00 PM 6.89 44.402 0.086 7.14 1.64 12.36
11/14/2020 3:45:00 PM 6.82 44.276 0.086 7.16 1.78 12.29
11/14/2020 4:00:00 PM 6.74 44.132 0.086 7.17 1.68 12.27
11/14/2020 4:15:00 PM 6.7 44.06 0.087 7.15 1.74 12.22
11/14/2020 4:30:00 PM 6.67 44.006 0.087 7.1 1.69 12.14
11/14/2020 4:45:00 PM 6.59 43.862 0.087 7.1 1.91 12.08
11/14/2020 5:00:00 PM 6.56 43.808 0.087 7.06 1.75 11.99
11/14/2020 5:15:00 PM 6.47 43.646 0.087 7.05 1.67 11.97
11/14/2020 5:30:00 PM 6.41 43.538 0.087 7.05 1.78 11.95
11/14/2020 5:45:00 PM 6.34 43.412 0.088 7.04 1.58 11.93
11/14/2020 6:00:00 PM 6.29 43.322 0.088 7.02 1.58 11.91
11/14/2020 6:15:00 PM 6.25 43.25 0.088 7.01 1.9 11.9
11/14/2020 6:30:00 PM 6.2 43.16 0.088 6.99 1.89 11.88
11/14/2020 6:45:00 PM 6.12 43.016 0.088 6.99 1.71 11.9
11/14/2020 7:00:00 PM 6.05 42.89 0.088 6.98 1.99 11.92
11/14/2020 7:15:00 PM 6.02 42.836 0.088 6.97 1.68 11.91
11/14/2020 7:30:00 PM 5.95 42.71 0.088 6.9 1.78 11.94
11/14/2020 7:45:00 PM 5.88 42.584 0.088 6.98 1.78 11.97
11/14/2020 8:00:00 PM 5.82 42.476 0.089 6.97 1.72 12.01
11/14/2020 8:15:00 PM 5.74 42.332 0.089 6.97 2.01 12.01
11/14/2020 8:30:00 PM 5.66 42.188 0.089 6.95 1.69 12.03
11/14/2020 8:45:00 PM 5.61 42.098 0.089 6.95 1.76 12.05
11/14/2020 9:00:00 PM 5.53 41.954 0.089 6.94 1.8 12.08
11/14/2020 9:15:00 PM 5.45 41.81 0.089 6.94 1.74 12.1
11/14/2020 9:30:00 PM 5.4 41.72 0.089 6.93 1.71 12.11
11/14/2020 9:45:00 PM 5.29 41.522 0.089 6.94 1.74 12.16
11/14/2020 10:00:00 PM 5.2 41.36 0.089 6.95 1.62 12.2
11/14/2020 10:15:00 PM 5.14 41.252 0.089 6.94 1.69 12.22
11/14/2020 10:30:00 PM 5.07 41.126 0.089 6.94 1.6 12.25
11/14/2020 10:45:00 PM 5.01 41.018 0.089 6.92 1.58 12.24
11/14/2020 11:00:00 PM 4.94 40.892 0.089 6.89 1.53 12.26
11/14/2020 11:15:00 PM 4.86 40.748 0.089 6.9 1.68 12.3
11/14/2020 11:30:00 PM 4.82 40.676 0.089 6.94 1.61 12.33
11/14/2020 11:45:00 PM 4.76 40.568 0.089 6.92 1.53 12.34
11/15/2020 12:00:00 AM 4.73 40.514 0.089 6.92 1.79 12.36
11/15/2020 12:15:00 AM 4.68 40.424 0.089 6.93 1.61 12.39
11/15/2020 12:30:00 AM 4.62 40.316 0.089 6.94 1.63 12.43
11/15/2020 12:45:00 AM 4.58 40.244 0.089 6.89 1.56 12.42
11/15/2020 1:00:00 AM 4.51 40.118 0.089 6.93 1.54 12.45
11/15/2020 1:15:00 AM 4.49 40.082 0.089 6.92 1.67 12.45
11/15/2020 1:30:00 AM 4.42 39.956 0.089 6.92 1.62 12.46
11/15/2020 1:45:00 AM 4.39 39.902 0.089 6.92 1.49 12.49
11/15/2020 2:00:00 AM 4.34 39.812 0.089 6.9 1.43 12.49
11/15/2020 2:15:00 AM 4.27 39.686 0.089 6.93 1.54 12.54
11/15/2020 2:30:00 AM 4.27 39.686 0.089 6.91 1.6 12.51
11/15/2020 2:45:00 AM 4.19 39.542 0.089 6.91 1.46 12.55
11/15/2020 3:00:00 AM 4.16 39.488 0.089 6.91 1.46 12.55
11/15/2020 3:15:00 AM 4.13 39.434 0.089 6.9 1.59 12.56
11/15/2020 3:30:00 AM 4.07 39.326 0.089 6.91 1.52 12.58
11/15/2020 3:45:00 AM 4.07 39.326 0.089 6.9 1.58 12.58
11/15/2020 4:00:00 AM 4.04 39.272 0.089 6.9 1.54 12.61
11/15/2020 4:15:00 AM 4.02 39.236 0.089 6.91 1.48 12.63
11/15/2020 4:30:00 AM 3.99 39.182 0.089 6.9 1.48 12.61
11/15/2020 4:45:00 AM 4.02 39.236 0.089 6.9 1.47 12.59
11/15/2020 5:00:00 AM 4.02 39.236 0.089 6.88 1.39 12.6
11/15/2020 5:15:00 AM 4.05 39.29 0.088 6.89 1.5 12.57
11/15/2020 5:30:00 AM 4.02 39.236 0.089 6.9 1.49 12.61
11/15/2020 5:45:00 AM 4.06 39.308 0.088 6.89 1.55 12.58
11/15/2020 6:00:00 AM 4.04 39.272 0.089 6.89 1.57 12.59
11/15/2020 6:15:00 AM 4.07 39.326 0.089 6.89 1.5 12.58
11/15/2020 6:30:00 AM 4.1 39.38 0.088 6.84 1.48 12.55
11/15/2020 6:45:00 AM 4.07 39.326 0.089 6.89 1.57 12.57
11/15/2020 7:00:00 AM 4.06 39.308 0.089 6.9 1.52 12.6
11/15/2020 7:15:00 AM 4.11 39.398 0.088 6.88 1.46 12.58
11/15/2020 7:30:00 AM 4.11 39.398 0.088 6.89 1.48 12.61
11/15/2020 7:45:00 AM 4.13 39.434 0.088 6.89 1.45 12.65
11/15/2020 8:00:00 AM 4.11 39.398 0.088 6.91 1.47 12.73
11/15/2020 8:15:00 AM 4.14 39.452 0.088 6.9 1.46 12.74
11/15/2020 8:30:00 AM 4.11 39.398 0.088 6.92 1.4 12.86
11/15/2020 8:45:00 AM 4.12 39.416 0.088 6.98 1.49 13.09
11/15/2020 9:00:00 AM 4.21 39.578 0.088 6.99 1.56 13.19
11/15/2020 9:15:00 AM 4.31 39.758 0.088 7 1.51 13.27
11/15/2020 9:30:00 AM 4.43 39.974 0.087 7 1.46 13.3
11/15/2020 9:45:00 AM 4.48 40.064 0.087 7.01 1.48 13.31
11/15/2020 10:00:00 AM 4.57 40.226 0.087 7.04 1.42 13.38
11/15/2020 10:15:00 AM 4.67 40.406 0.087 7.07 1.55 13.44
11/15/2020 10:30:00 AM 4.79 40.622 0.087 7.06 1.62 13.41
11/15/2020 10:45:00 AM 4.93 40.874 0.087 7.11 1.48 13.46
11/15/2020 11:00:00 AM 5.06 41.108 0.086 7.13 1.53 13.44
11/15/2020 11:15:00 AM 5.14 41.252 0.086 7.11 1.52 13.37
11/15/2020 11:30:00 AM 5.23 41.414 0.086 7.12 1.47 13.32
11/15/2020 11:45:00 AM 5.33 41.594 0.086 7.14 1.56 13.3
11/15/2020 12:00:00 PM 5.45 41.81 0.086 7.11 1.52 13.28
11/15/2020 12:15:00 PM 5.56 42.008 0.086 7.13 1.51 13.22
11/15/2020 12:30:00 PM 5.59 42.062 0.086 7.18 1.51 13.18
11/15/2020 12:45:00 PM 5.67 42.206 0.086 7.12 2.51 13.04
11/15/2020 1:00:00 PM 5.7 42.26 0.086 7.16 1.57 13.02
11/15/2020 1:15:00 PM 5.7 42.26 0.086 7.16 1.64 12.88
11/15/2020 1:30:00 PM 5.72 42.296 0.086 7.1 1.52 12.71
11/15/2020 1:45:00 PM 5.73 42.314 0.086 7.12 1.58 12.62
11/15/2020 2:00:00 PM 5.75 42.35 0.086 7.1 1.54 12.56
11/15/2020 2:15:00 PM 5.81 42.458 0.086 7.03 1.55 12.4
11/15/2020 2:30:00 PM 5.84 42.512 0.086 7.04 1.49 12.35
11/15/2020 2:45:00 PM 5.89 42.602 0.086 7.03 1.56 12.33
11/15/2020 3:00:00 PM 5.93 42.674 0.086 7.03 1.52 12.29
11/15/2020 3:15:00 PM 5.97 42.746 0.086 7.05 1.53 12.24
11/15/2020 3:30:00 PM 6.04 42.872 0.086 7.03 1.61 12.18
11/15/2020 3:45:00 PM 6.12 43.016 0.086 7.01 1.54 12.1
11/15/2020 4:00:00 PM 6.15 43.07 0.087 7 1.48 12.04
11/15/2020 4:15:00 PM 6.21 43.178 0.087 6.98 1.53 11.92
11/15/2020 4:30:00 PM 6.25 43.25 0.087 6.96 1.55 11.88
11/15/2020 4:45:00 PM 6.3 43.34 0.087 6.98 1.59 11.83
11/15/2020 5:00:00 PM 6.34 43.412 0.087 6.96 1.49 11.76
11/15/2020 5:15:00 PM 6.38 43.484 0.087 6.97 1.54 11.74
11/15/2020 5:30:00 PM 6.4 43.52 0.087 6.98 1.86 11.73
11/15/2020 5:45:00 PM 6.44 43.592 0.087 6.96 1.62 11.68
11/15/2020 6:00:00 PM 6.47 43.646 0.087 6.95 1.66 11.67
11/15/2020 6:15:00 PM 6.52 43.736 0.087 6.96 1.69 11.64
11/15/2020 6:30:00 PM 6.57 43.826 0.087 6.93 1.85 11.59
11/15/2020 6:45:00 PM 6.58 43.844 0.087 6.95 1.68 11.61
11/15/2020 7:00:00 PM 6.63 43.934 0.087 6.93 1.68 11.57
11/15/2020 7:15:00 PM 6.68 44.024 0.087 6.93 1.81 11.54
11/15/2020 7:30:00 PM 6.74 44.132 0.087 6.91 2.24 11.5
11/15/2020 7:45:00 PM 6.76 44.168 0.087 6.92 2.89 11.54
11/15/2020 8:00:00 PM 6.78 44.204 0.087 6.92 2.4 11.53
11/15/2020 8:15:00 PM 6.8 44.24 0.087 6.92 2.04 11.52
11/15/2020 8:30:00 PM 6.82 44.276 0.087 6.92 2.02 11.52
11/15/2020 8:45:00 PM 6.83 44.294 0.087 6.92 1.94 11.52
11/15/2020 9:00:00 PM 6.85 44.33 0.087 6.92 1.82 11.51
11/15/2020 9:15:00 PM 6.86 44.348 0.087 6.92 1.8 11.51
11/15/2020 9:30:00 PM 6.84 44.312 0.087 6.91 2.02 11.5
11/15/2020 9:45:00 PM 6.82 44.276 0.087 6.92 2.44 11.52
11/15/2020 10:00:00 PM 6.81 44.258 0.087 6.91 2.3 11.52
11/15/2020 10:15:00 PM 6.81 44.258 0.087 6.89 2.06 11.51
11/15/2020 10:30:00 PM 6.82 44.276 0.087 6.91 2 11.51
11/15/2020 10:45:00 PM 6.79 44.222 0.087 6.91 1.85 11.53
11/15/2020 11:00:00 PM 6.78 44.204 0.087 6.91 2.01 11.54
11/15/2020 11:15:00 PM 6.78 44.204 0.087 6.91 2.08 11.53
11/15/2020 11:30:00 PM 6.76 44.168 0.087 6.89 2.47 11.54
11/15/2020 11:45:00 PM 6.72 44.096 0.087 6.9 2.74 11.55
11/16/2020 12:00:00 AM 6.67 44.006 0.087 6.91 3.08 11.57
11/16/2020 12:15:00 AM 6.62 43.916 0.087 6.91 3.05 11.59
11/16/2020 12:30:00 AM 6.58 43.844 0.087 6.92 3.25 11.61
11/16/2020 12:45:00 AM 6.55 43.79 0.087 6.9 2.84 11.62
11/16/2020 1:00:00 AM 6.51 43.718 0.087 6.9 2.79 11.64
11/16/2020 1:15:00 AM 6.48 43.664 0.087 6.93 2.91 11.66
11/16/2020 1:30:00 AM 6.44 43.592 0.087 6.92 2.68 11.68
11/16/2020 1:45:00 AM 6.37 43.466 0.087 6.94 2.68 11.71
11/16/2020 2:00:00 AM 6.31 43.358 0.087 6.94 2.74 11.74
11/16/2020 2:15:00 AM 6.26 43.268 0.087 6.93 2.48 11.76
11/16/2020 2:30:00 AM 6.21 43.178 0.087 6.92 2.66 11.78
11/16/2020 2:45:00 AM 6.15 43.07 0.087 6.95 2.67 11.81
11/16/2020 3:00:00 AM 6.11 42.998 0.087 6.95 3.28 11.82
11/16/2020 3:15:00 AM 6.05 42.89 0.087 6.95 3.61 11.83
11/16/2020 3:30:00 AM 6.01 42.818 0.087 6.95 4.73 11.85
11/16/2020 3:45:00 AM 5.95 42.71 0.087 6.95 5.78 11.87
11/16/2020 4:00:00 AM 5.9 42.62 0.087 6.95 5.81 11.89
11/16/2020 4:15:00 AM 5.84 42.512 0.087 6.93 5.98 11.91
11/16/2020 4:30:00 AM 5.79 42.422 0.087 6.95 5.24 11.93
11/16/2020 4:45:00 AM 5.75 42.35 0.086 6.95 5.27 11.94
11/16/2020 5:00:00 AM 5.7 42.26 0.086 6.95 4.81 11.96
11/16/2020 5:15:00 AM 5.68 42.224 0.086 6.92 4.07 11.98
11/16/2020 5:30:00 AM 5.65 42.17 0.086 6.95 3.65 11.99
11/16/2020 5:45:00 AM 5.65 42.17 0.086 6.95 3.39 12
11/16/2020 6:00:00 AM 5.63 42.134 0.086 6.94 3.34 12.01
11/16/2020 6:15:00 AM 5.62 42.116 0.086 6.94 3.39 12.01
11/16/2020 6:30:00 AM 5.61 42.098 0.086 6.94 3.03 12.02
11/16/2020 6:45:00 AM 5.59 42.062 0.085 6.94 2.88 12.04
11/16/2020 7:00:00 AM 5.59 42.062 0.085 6.94 3.15 12.04
11/16/2020 7:15:00 AM 5.58 42.044 0.085 6.94 3.09 12.06
11/16/2020 7:30:00 AM 5.57 42.026 0.085 6.94 2.89 12.09
11/16/2020 7:45:00 AM 5.56 42.008 0.085 6.95 2.85 12.13
11/16/2020 8:00:00 AM 5.56 42.008 0.085 6.95 2.86 12.16
11/16/2020 8:15:00 AM 5.57 42.026 0.085 6.95 2.89 12.2
11/16/2020 8:30:00 AM 5.56 42.008 0.085 6.96 2.88 12.25
11/16/2020 8:45:00 AM 5.57 42.026 0.084 6.97 2.75 12.31
11/16/2020 9:00:00 AM 5.57 42.026 0.084 6.98 2.61 12.39
11/16/2020 9:15:00 AM 5.57 42.026 0.084 7 2.76 12.5
11/16/2020 9:30:00 AM 5.58 42.044 0.084 7.01 2.95 12.58
11/16/2020 9:45:00 AM 5.61 42.098 0.084 7.04 3.01 12.68
11/16/2020 10:00:00 AM 5.64 42.152 0.084 7.06 2.56 12.76
11/16/2020 10:15:00 AM 5.66 42.188 0.084 7.08 2.41 12.83
11/16/2020 10:30:00 AM 5.7 42.26 0.084 7.08 2.49 12.9
11/16/2020 10:45:00 AM 5.72 42.296 0.084 7.12 2.32 12.91
11/16/2020 11:00:00 AM 5.75 42.35 0.084 7.11 2.25 12.87
11/16/2020 11:15:00 AM 5.76 42.368 0.084 7.12 2.34 12.89
11/16/2020 11:30:00 AM 5.77 42.386 0.084 7.11 2.14 12.89
11/16/2020 11:45:00 AM 5.79 42.422 0.084 7.13 2.44 12.86
11/16/2020 12:00:00 PM 5.79 42.422 0.084 7.13 2.35 12.84
11/16/2020 12:15:00 PM 5.8 42.44 0.084 7.14 2.07 12.84
11/16/2020 12:30:00 PM 5.79 42.422 0.084 7.12 2.15 12.82
11/16/2020 12:45:00 PM 5.78 42.404 0.084 7.15 1.96 12.8
11/16/2020 1:00:00 PM 5.78 42.404 0.084 7.14 1.93 12.78
11/16/2020 1:15:00 PM 5.79 42.422 0.084 7.15 2.1 12.78
11/16/2020 1:30:00 PM 5.8 42.44 0.084 7.15 2.09 12.78
11/16/2020 1:45:00 PM 5.82 42.476 0.084 7.17 2.15 12.79
11/16/2020 2:00:00 PM 5.84 42.512 0.084 7.17 2.37 12.82
11/16/2020 2:15:00 PM 5.87 42.566 0.083 7.16 2.12 12.84
11/16/2020 2:30:00 PM 5.88 42.584 0.084 7.17 2.31 12.77
11/16/2020 2:45:00 PM 5.88 42.584 0.084 7.15 2.18 12.68
11/16/2020 3:00:00 PM 5.89 42.602 0.084 7.14 2.1 12.64
11/16/2020 3:15:00 PM 5.9 42.62 0.084 7.12 1.93 12.58
11/16/2020 3:30:00 PM 5.91 42.638 0.084 7.12 2 12.55
11/16/2020 3:45:00 PM 5.9 42.62 0.084 7.11 1.89 12.53
11/16/2020 4:00:00 PM 5.9 42.62 0.084 7.09 1.72 12.46
11/16/2020 4:15:00 PM 5.89 42.602 0.084 7.05 1.75 12.4
11/16/2020 4:30:00 PM 5.88 42.584 0.084 7.06 1.71 12.33
11/16/2020 4:45:00 PM 5.88 42.584 0.084 7.04 1.76 12.24
11/16/2020 5:00:00 PM 5.86 42.548 0.084 7.02 1.88 12.19
11/16/2020 5:15:00 PM 5.85 42.53 0.084 7.01 2.02 12.13
11/16/2020 5:30:00 PM 5.83 42.494 0.085 7 1.92 12.09
11/16/2020 5:45:00 PM 5.8 42.44 0.085 6.98 1.69 12.06
11/16/2020 6:00:00 PM 5.74 42.332 0.085 6.97 1.9 12.06
11/16/2020 6:15:00 PM 5.72 42.296 0.085 6.96 1.7 12.05
11/16/2020 6:30:00 PM 5.68 42.224 0.085 6.96 1.77 12.04
11/16/2020 6:45:00 PM 5.65 42.17 0.085 6.95 1.94 12.05
11/16/2020 7:00:00 PM 5.61 42.098 0.085 6.94 1.69 12.05
11/16/2020 7:15:00 PM 5.55 41.99 0.085 6.93 1.78 12.06
11/16/2020 7:30:00 PM 5.54 41.972 0.085 6.92 1.88 12.07
11/16/2020 7:45:00 PM 5.52 41.936 0.085 6.93 1.74 12.07
11/16/2020 8:00:00 PM 5.48 41.864 0.085 6.93 1.73 12.08
11/16/2020 8:15:00 PM 5.46 41.828 0.085 6.92 1.77 12.09
11/16/2020 8:30:00 PM 5.43 41.774 0.085 6.92 1.79 12.1
11/16/2020 8:45:00 PM 5.4 41.72 0.085 6.89 1.8 12.1
11/16/2020 9:00:00 PM 5.35 41.63 0.086 6.91 1.8 12.12
11/16/2020 9:15:00 PM 5.31 41.558 0.086 6.91 1.97 12.12
11/16/2020 9:30:00 PM 5.27 41.486 0.086 6.9 1.65 12.14
11/16/2020 9:45:00 PM 5.21 41.378 0.086 6.91 1.86 12.16
11/16/2020 10:00:00 PM 5.17 41.306 0.086 6.9 1.65 12.16
11/16/2020 10:15:00 PM 5.1 41.18 0.086 6.9 1.7 12.18
11/16/2020 10:30:00 PM 5.03 41.054 0.086 6.9 1.71 12.2
11/16/2020 10:45:00 PM 4.95 40.91 0.086 6.89 1.75 12.22
11/16/2020 11:00:00 PM 4.88 40.784 0.086 6.9 1.75 12.25
11/16/2020 11:15:00 PM 4.82 40.676 0.086 6.87 1.74 12.28
11/16/2020 11:30:00 PM 4.74 40.532 0.086 6.88 1.75 12.3
11/16/2020 11:45:00 PM 4.69 40.442 0.086 6.89 1.71 12.31
11/17/2020 12:00:00 AM 4.61 40.298 0.086 6.89 1.84 12.34
11/17/2020 12:15:00 AM 4.55 40.19 0.086 6.89 1.71 12.36
11/17/2020 12:30:00 AM 4.49 40.082 0.086 6.87 1.73 12.37
11/17/2020 12:45:00 AM 4.44 39.992 0.086 6.88 1.7 12.4
11/17/2020 1:00:00 AM 4.38 39.884 0.086 6.88 1.6 12.41
11/17/2020 1:15:00 AM 4.33 39.794 0.086 6.88 1.71 12.42
11/17/2020 1:30:00 AM 4.29 39.722 0.086 6.86 1.79 12.45
11/17/2020 1:45:00 AM 4.26 39.668 0.086 6.87 1.98 12.47
11/17/2020 2:00:00 AM 4.22 39.596 0.086 6.89 1.67 12.49
11/17/2020 2:15:00 AM 4.19 39.542 0.086 6.86 1.67 12.49
11/17/2020 2:30:00 AM 4.15 39.47 0.086 6.86 1.58 12.51
11/17/2020 2:45:00 AM 4.1 39.38 0.086 6.88 1.69 12.53
11/17/2020 3:00:00 AM 4.05 39.29 0.086 6.88 1.63 12.53
11/17/2020 3:15:00 AM 4.03 39.254 0.086 6.87 1.64 12.55
11/17/2020 3:30:00 AM 4 39.2 0.086 6.88 1.53 12.56
11/17/2020 3:45:00 AM 3.97 39.146 0.086 6.88 1.61 12.57
11/17/2020 4:00:00 AM 3.94 39.092 0.086 6.87 1.63 12.57
11/17/2020 4:15:00 AM 3.9 39.02 0.087 6.87 1.72 12.59
11/17/2020 4:30:00 AM 3.85 38.93 0.087 6.88 1.57 12.61
11/17/2020 4:45:00 AM 3.82 38.876 0.087 6.88 1.66 12.61
11/17/2020 5:00:00 AM 3.78 38.804 0.087 6.85 1.6 12.63
11/17/2020 5:15:00 AM 3.77 38.786 0.087 6.86 1.59 12.63
11/17/2020 5:30:00 AM 3.73 38.714 0.087 6.85 1.62 12.64
11/17/2020 5:45:00 AM 3.7 38.66 0.087 6.88 1.53 12.65
11/17/2020 6:00:00 AM 3.7 38.66 0.086 6.86 1.57 12.66
11/17/2020 6:15:00 AM 3.7 38.66 0.086 6.88 1.47 12.67
11/17/2020 6:30:00 AM 3.7 38.66 0.086 6.87 1.45 12.67
11/17/2020 6:45:00 AM 3.71 38.678 0.086 6.87 1.71 12.66
11/17/2020 7:00:00 AM 3.69 38.642 0.086 6.87 2.47 12.69
11/17/2020 7:15:00 AM 3.69 38.642 0.086 6.87 1.75 12.69
11/17/2020 7:30:00 AM 3.69 38.642 0.086 6.88 2.05 12.71
11/17/2020 7:45:00 AM 3.72 38.696 0.086 6.88 1.77 12.74
11/17/2020 8:00:00 AM 3.72 38.696 0.086 6.89 1.66 12.82
11/17/2020 8:15:00 AM 3.76 38.768 0.086 6.87 1.75 12.92
11/17/2020 8:30:00 AM 3.78 38.804 0.086 6.92 1.58 13.05
11/17/2020 8:45:00 AM 3.83 38.894 0.086 6.95 1.68 13.2
11/17/2020 9:00:00 AM 3.87 38.966 0.086 6.96 1.76 13.26
11/17/2020 9:15:00 AM 3.92 39.056 0.085 6.98 1.69 13.34
11/17/2020 9:30:00 AM 3.99 39.182 0.085 7 1.62 13.45
11/17/2020 9:45:00 AM 4.04 39.272 0.085 7.02 1.89 13.49
11/17/2020 10:00:00 AM 4.08 39.344 0.085 7.04 1.67 13.54
11/17/2020 10:15:00 AM 4.11 39.398 0.085 7.05 1.68 13.51
11/17/2020 10:30:00 AM 4.13 39.434 0.085 7.03 1.6 13.43
11/17/2020 10:45:00 AM 4.14 39.452 0.085 7.03 1.61 13.43
11/17/2020 11:00:00 AM 4.17 39.506 0.084 7.07 1.64 13.46
11/17/2020 11:15:00 AM 4.2 39.56 0.084 7.08 1.64 13.45
11/17/2020 11:30:00 AM 4.24 39.632 0.084 7.08 1.71 13.48
11/17/2020 11:45:00 AM 4.29 39.722 0.084 7.13 1.94 13.55
11/17/2020 12:00:00 PM 4.4 39.92 0.084 7.13 1.73 13.56
11/17/2020 12:15:00 PM 4.43 39.974 0.084 7.13 1.61 13.54
11/17/2020 12:30:00 PM 4.49 40.082 0.084 7.13 1.61 13.54
11/17/2020 12:45:00 PM 4.56 40.208 0.083 7.17 2.1 13.57
11/17/2020 1:00:00 PM 4.6 40.28 0.083 7.18 1.89 13.56
11/17/2020 1:15:00 PM 4.63 40.334 0.083 7.2 1.63 13.53
11/17/2020 1:30:00 PM 4.69 40.442 0.083 7.22 1.7 13.54
11/17/2020 1:45:00 PM 4.73 40.514 0.083 7.28 1.8 13.57
11/17/2020 2:00:00 PM 4.8 40.64 0.083 7.25 1.63 13.5
11/17/2020 2:15:00 PM 4.85 40.73 0.083 7.22 1.63 13.45
11/17/2020 2:30:00 PM 4.85 40.73 0.083 7.24 1.64 13.37
11/17/2020 2:45:00 PM 4.87 40.766 0.083 7.23 1.6 13.33
11/17/2020 3:00:00 PM 4.77 40.586 0.083 7.19 1.46 13.18
11/17/2020 3:15:00 PM 4.76 40.568 0.083 7.16 1.47 13.11
11/17/2020 3:30:00 PM 4.78 40.604 0.083 7.13 1.63 13.07
11/17/2020 3:45:00 PM 4.75 40.55 0.083 7.14 1.44 13.03
11/17/2020 4:00:00 PM 4.74 40.532 0.084 7.11 1.64 12.95
11/17/2020 4:15:00 PM 4.72 40.496 0.084 7.1 1.58 12.9
11/17/2020 4:30:00 PM 4.69 40.442 0.084 7.08 1.59 12.84
11/17/2020 4:45:00 PM 4.62 40.316 0.084 7.08 1.92 12.78
11/17/2020 5:00:00 PM 4.62 40.316 0.084 7.05 2.61 12.68
11/17/2020 5:15:00 PM 4.57 40.226 0.084 7.02 1.75 12.6
11/17/2020 5:30:00 PM 4.55 40.19 0.085 6.99 1.67 12.53
11/17/2020 5:45:00 PM 4.5 40.1 0.085 6.98 1.64 12.52
11/17/2020 6:00:00 PM 4.47 40.046 0.085 6.98 1.65 12.5
11/17/2020 6:15:00 PM 4.43 39.974 0.085 6.97 1.66 12.48
11/17/2020 6:30:00 PM 4.38 39.884 0.085 6.95 1.65 12.5
11/17/2020 6:45:00 PM 4.34 39.812 0.085 6.95 1.78 12.49
11/17/2020 7:00:00 PM 4.29 39.722 0.085 6.95 1.72 12.51
11/17/2020 7:15:00 PM 4.23 39.614 0.085 6.95 1.61 12.53
11/17/2020 7:30:00 PM 4.18 39.524 0.085 6.94 1.71 12.53
11/17/2020 7:45:00 PM 4.13 39.434 0.085 6.92 1.59 12.55
11/17/2020 8:00:00 PM 4.05 39.29 0.086 6.94 1.92 12.59
11/17/2020 8:15:00 PM 3.99 39.182 0.086 6.93 1.56 12.59
11/17/2020 8:30:00 PM 3.93 39.074 0.086 6.93 1.78 12.62
11/17/2020 8:45:00 PM 3.85 38.93 0.086 6.93 1.61 12.65
11/17/2020 9:00:00 PM 3.81 38.858 0.086 6.93 1.57 12.67
11/17/2020 9:15:00 PM 3.76 38.768 0.086 6.91 1.6 12.71
11/17/2020 9:30:00 PM 3.72 38.696 0.086 6.92 1.72 12.72
11/17/2020 9:45:00 PM 3.68 38.624 0.086 6.92 1.58 12.73
11/17/2020 10:00:00 PM 3.64 38.552 0.086 6.92 1.55 12.75
11/17/2020 10:15:00 PM 3.6 38.48 0.086 6.92 1.55 12.78
11/17/2020 10:30:00 PM 3.55 38.39 0.086 6.92 1.56 12.79
11/17/2020 10:45:00 PM 3.5 38.3 0.086 6.92 1.65 12.82
11/17/2020 11:00:00 PM 3.47 38.246 0.086 6.89 1.65 12.82
11/17/2020 11:15:00 PM 3.42 38.156 0.086 6.91 1.51 12.85
11/17/2020 11:30:00 PM 3.39 38.102 0.086 6.9 1.51 12.85
11/17/2020 11:45:00 PM 3.34 38.012 0.086 6.91 1.5 12.89
11/18/2020 12:00:00 AM 3.3 37.94 0.086 6.89 1.5 12.9
11/18/2020 12:15:00 AM 3.25 37.85 0.086 6.9 1.6 12.92
11/18/2020 12:30:00 AM 3.19 37.742 0.086 6.89 1.58 12.94
11/18/2020 12:45:00 AM 3.15 37.67 0.086 6.9 1.65 12.96
11/18/2020 1:00:00 AM 3.08 37.544 0.086 6.9 1.52 12.98
11/18/2020 1:15:00 AM 3 37.4 0.086 6.9 1.57 13.01
11/18/2020 1:30:00 AM 2.95 37.31 0.086 6.91 1.47 13.04
11/18/2020 1:45:00 AM 2.9 37.22 0.086 6.88 1.59 13.04
11/18/2020 2:00:00 AM 2.84 37.112 0.086 6.91 1.62 13.07
11/18/2020 2:15:00 AM 2.78 37.004 0.086 6.9 1.66 13.11
11/18/2020 2:30:00 AM 2.74 36.932 0.087 6.9 1.63 13.11
11/18/2020 2:45:00 AM 2.68 36.824 0.087 6.9 1.57 13.15
11/18/2020 3:00:00 AM 2.63 36.734 0.087 6.89 1.58 13.17
11/18/2020 3:15:00 AM 2.59 36.662 0.087 6.89 1.6 13.19
11/18/2020 3:30:00 AM 2.55 36.59 0.087 6.89 1.62 13.21
11/18/2020 3:45:00 AM 2.51 36.518 0.087 6.89 1.64 13.24
11/18/2020 4:00:00 AM 2.48 36.464 0.087 6.88 1.73 13.24
11/18/2020 4:15:00 AM 2.41 36.338 0.087 6.9 1.86 13.29
11/18/2020 4:30:00 AM 2.37 36.266 0.086 6.9 1.6 13.3
11/18/2020 4:45:00 AM 2.35 36.23 0.086 6.9 1.68 13.3
11/18/2020 5:00:00 AM 2.29 36.122 0.086 6.9 1.72 13.32
11/18/2020 5:15:00 AM 2.27 36.086 0.086 6.9 1.66 13.35
11/18/2020 5:30:00 AM 2.23 36.014 0.086 6.9 1.85 13.37
11/18/2020 5:45:00 AM 2.21 35.978 0.086 6.76 1.66 13.38
11/18/2020 6:00:00 AM 2.15 35.87 0.086 6.9 1.61 13.39
11/18/2020 6:15:00 AM 2.12 35.816 0.086 6.89 1.63 13.41
11/18/2020 6:30:00 AM 2.05 35.69 0.086 6.89 1.6 13.45
11/18/2020 6:45:00 AM 1.98 35.564 0.086 6.9 1.56 13.48
11/18/2020 7:00:00 AM 1.97 35.546 0.086 6.89 1.62 13.48
11/18/2020 7:15:00 AM 1.88 35.384 0.086 6.89 1.64 13.55
11/18/2020 7:30:00 AM 1.86 35.348 0.086 6.88 1.78 13.62
11/18/2020 7:45:00 AM 1.84 35.312 0.086 6.91 1.77 13.75
11/18/2020 8:00:00 AM 1.79 35.222 0.086 6.93 1.67 13.89
11/18/2020 8:15:00 AM 1.78 35.204 0.086 6.93 2.04 13.99
11/18/2020 8:30:00 AM 1.78 35.204 0.086 6.95 1.63 14.11
11/18/2020 8:45:00 AM 1.77 35.186 0.086 6.98 1.66 14.23
11/18/2020 9:00:00 AM 1.77 35.186 0.086 7 1.94 14.3
11/18/2020 9:15:00 AM 1.76 35.168 0.086 7.02 1.54 14.38
11/18/2020 9:30:00 AM 1.8 35.24 0.085 7.04 1.67 14.48
11/18/2020 9:45:00 AM 1.86 35.348 0.085 7.04 1.61 14.5
11/18/2020 10:00:00 AM 1.89 35.402 0.085 7.06 1.62 14.54
11/18/2020 10:15:00 AM 1.95 35.51 0.085 7.07 1.63 14.57
11/18/2020 10:30:00 AM 1.99 35.582 0.085 7.07 1.61 14.57
11/18/2020 10:45:00 AM 2.05 35.69 0.085 7.1 1.56 14.59
11/18/2020 11:00:00 AM 2.08 35.744 0.085 7.11 1.55 14.6
11/18/2020 11:15:00 AM 2.15 35.87 0.085 7.13 1.73 14.6
11/18/2020 11:30:00 AM 2.18 35.924 0.085 7.16 1.59 14.61
11/18/2020 11:45:00 AM 2.24 36.032 0.084 7.16 1.55 14.58
11/18/2020 12:00:00 PM 2.44 36.392 0.084 7.16 1.64 14.56
11/18/2020 12:15:00 PM 2.47 36.446 0.084 7.16 1.62 14.51
11/18/2020 12:30:00 PM 2.52 36.536 0.084 7.14 1.5 14.47
11/18/2020 12:45:00 PM 2.53 36.554 0.084 7.16 1.6 14.48
11/18/2020 1:00:00 PM 2.5 36.5 0.084 7.19 1.51 14.5
11/18/2020 1:15:00 PM 2.49 36.482 0.084 7.19 1.54 14.46
11/18/2020 1:30:00 PM 2.55 36.59 0.084 7.2 1.63 14.45
11/18/2020 1:45:00 PM 2.6 36.68 0.084 7.2 1.49 14.44
11/18/2020 2:00:00 PM 2.67 36.806 0.084 7.2 1.59 14.4
11/18/2020 2:15:00 PM 2.74 36.932 0.084 7.24 1.42 14.4
11/18/2020 2:30:00 PM 2.75 36.95 0.084 7.23 1.52 14.36
11/18/2020 2:45:00 PM 2.78 37.004 0.084 7.23 1.45 14.32
11/18/2020 3:00:00 PM 2.83 37.094 0.084 7.2 1.55 14.27
11/18/2020 3:15:00 PM 2.8 37.04 0.084 7.21 1.5 14.27
11/18/2020 3:30:00 PM 2.8 37.04 0.084 7.18 1.71 14.21
11/18/2020 3:45:00 PM 2.79 37.022 0.084 7.17 1.5 14.16
11/18/2020 4:00:00 PM 2.74 36.932 0.084 7.17 1.74 14.09
11/18/2020 4:15:00 PM 2.68 36.824 0.084 7.15 1.49 13.99
11/18/2020 4:30:00 PM 2.64 36.752 0.084 7.1 1.58 13.88
11/18/2020 4:45:00 PM 2.57 36.626 0.085 7.08 1.46 13.78
11/18/2020 5:00:00 PM 2.57 36.626 0.085 7.05 1.36 13.68
11/18/2020 5:15:00 PM 2.51 36.518 0.085 7.03 1.37 13.6
11/18/2020 5:30:00 PM 2.46 36.428 0.085 7.01 1.4 13.56
11/18/2020 5:45:00 PM 2.43 36.374 0.085 7 1.47 13.52
11/18/2020 6:00:00 PM 2.41 36.338 0.085 6.99 1.42 13.5
11/18/2020 6:15:00 PM 2.38 36.284 0.086 6.98 1.58 13.49
11/18/2020 6:30:00 PM 2.37 36.266 0.086 6.96 1.45 13.46
11/18/2020 6:45:00 PM 2.35 36.23 0.086 6.96 1.42 13.47
11/18/2020 7:00:00 PM 2.35 36.23 0.086 6.94 1.47 13.43
11/18/2020 7:15:00 PM 2.35 36.23 0.086 6.95 1.58 13.44
11/18/2020 7:30:00 PM 2.33 36.194 0.086 6.93 1.36 13.44
11/18/2020 7:45:00 PM 2.32 36.176 0.086 6.93 1.38 13.44
11/18/2020 8:00:00 PM 2.29 36.122 0.086 6.93 1.46 13.45
11/18/2020 8:15:00 PM 2.27 36.086 0.086 6.93 1.39 13.47
11/18/2020 8:30:00 PM 2.25 36.05 0.086 6.93 1.44 13.46
11/18/2020 8:45:00 PM 2.23 36.014 0.086 6.92 1.43 13.48
11/18/2020 9:00:00 PM 2.22 35.996 0.086 6.91 1.42 13.48
11/18/2020 9:15:00 PM 2.18 35.924 0.087 6.91 1.44 13.49
11/18/2020 9:30:00 PM 2.12 35.816 0.087 6.91 1.34 13.5
11/18/2020 9:45:00 PM 2.09 35.762 0.087 6.91 1.37 13.52
11/18/2020 10:00:00 PM 2.07 35.726 0.087 6.9 1.35 13.54
11/18/2020 10:15:00 PM 2 35.6 0.087 6.9 1.33 13.56
11/18/2020 10:30:00 PM 1.94 35.492 0.087 6.9 1.44 13.57
11/18/2020 10:45:00 PM 1.89 35.402 0.087 6.9 1.44 13.59
11/18/2020 11:00:00 PM 1.82 35.276 0.087 6.91 1.4 13.62
11/18/2020 11:15:00 PM 1.79 35.222 0.087 6.9 1.35 13.64
11/18/2020 11:30:00 PM 1.74 35.132 0.087 6.9 1.41 13.63
11/18/2020 11:45:00 PM 1.7 35.06 0.087 6.9 1.38 13.65
11/19/2020 12:00:00 AM 1.67 35.006 0.087 6.89 1.4 13.67
11/19/2020 12:15:00 AM 1.65 34.97 0.087 6.89 1.4 13.68
11/19/2020 12:30:00 AM 1.61 34.898 0.087 6.89 1.4 13.69
11/19/2020 12:45:00 AM 1.55 34.79 0.087 6.89 1.33 13.71
11/19/2020 1:00:00 AM 1.56 34.808 0.087 6.89 1.36 13.72
11/19/2020 1:15:00 AM 1.53 34.754 0.087 6.9 1.39 13.74
11/19/2020 1:30:00 AM 1.55 34.79 0.087 6.88 1.38 13.71
11/19/2020 1:45:00 AM 1.51 34.718 0.087 6.87 1.38 13.75
11/19/2020 2:00:00 AM 1.48 34.664 0.087 6.88 1.35 13.75
11/19/2020 2:15:00 AM 1.47 34.646 0.087 6.88 1.35 13.78
11/19/2020 2:30:00 AM 1.47 34.646 0.087 6.88 1.44 13.76
11/19/2020 2:45:00 AM 1.42 34.556 0.088 6.87 1.31 13.78
11/19/2020 3:00:00 AM 1.41 34.538 0.088 6.87 1.36 13.79
11/19/2020 3:15:00 AM 1.42 34.556 0.087 6.87 1.36 13.79
11/19/2020 3:30:00 AM 1.35 34.43 0.088 6.88 1.34 13.81
11/19/2020 3:45:00 AM 1.34 34.412 0.087 6.87 1.37 13.83
11/19/2020 4:00:00 AM 1.29 34.322 0.088 6.88 1.33 13.84
11/19/2020 4:15:00 AM 1.24 34.232 0.088 6.88 1.39 13.86
11/19/2020 4:30:00 AM 1.21 34.178 0.088 6.87 1.37 13.86
11/19/2020 4:45:00 AM 1.18 34.124 0.088 6.86 1.37 13.87
11/19/2020 5:00:00 AM 1.13 34.034 0.088 6.87 1.39 13.88
11/19/2020 5:15:00 AM 1.09 33.962 0.088 6.87 1.35 13.91
11/19/2020 5:30:00 AM 1.07 33.926 0.088 6.87 1.39 13.92
11/19/2020 5:45:00 AM 1 33.8 0.088 6.86 1.36 13.94
11/19/2020 6:00:00 AM 0.99 33.782 0.088 6.86 1.3 13.94
11/19/2020 6:15:00 AM 0.95 33.71 0.088 6.86 1.58 13.95
11/19/2020 6:30:00 AM 0.91 33.638 0.088 6.86 1.35 13.96
11/19/2020 6:45:00 AM 0.88 33.584 0.088 6.86 1.41 13.99
11/19/2020 7:00:00 AM 0.84 33.512 0.088 6.87 1.49 14.03
11/19/2020 7:15:00 AM 0.85 33.53 0.088 6.87 1.41 14.06
11/19/2020 7:30:00 AM 0.88 33.584 0.088 6.88 1.45 14.15